<?xml version="1.0" encoding="UTF-8" standalone="no" ?>
<gpx xmlns="http://www.topografix.com/GPX/1/1" xmlns:xsi="http://www.w3.org/2001/XMLSchema-instance" xsi:schemaLocation="http://www.topografix.com/GPX/1/1 http://www.topografix.com/GPX/1/1/gpx.xsd" version="1.1" creator="VisuGPX - https://www.visugpx.com">
  <metadata>
    <name>Aubance Loire </name>
    <desc><![CDATA[la première de l\'année jolis soleil mais le sol bien mouillé]]></desc>
  </metadata>
  <trk>
    <name><![CDATA[02-FEV-14 11:09:20]]></name>
    <trkseg>
      <trkpt lat="47.40235" lon="-0.47935">
        <ele>40.99</ele>
        <time>2014-02-02T07:33:04Z</time>
      </trkpt>
      <trkpt lat="47.40235" lon="-0.47937">
        <ele>40.51</ele>
        <time>2014-02-02T07:33:05Z</time>
      </trkpt>
      <trkpt lat="47.4023" lon="-0.47917">
        <ele>38.11</ele>
        <time>2014-02-02T07:33:28Z</time>
      </trkpt>
      <trkpt lat="47.40229" lon="-0.47916">
        <ele>36.67</ele>
        <time>2014-02-02T07:33:36Z</time>
      </trkpt>
      <trkpt lat="47.40227" lon="-0.47915">
        <ele>34.74</ele>
        <time>2014-02-02T07:33:57Z</time>
      </trkpt>
      <trkpt lat="47.40228" lon="-0.47916">
        <ele>33.3</ele>
        <time>2014-02-02T07:34:17Z</time>
      </trkpt>
      <trkpt lat="47.40228" lon="-0.47915">
        <ele>31.86</ele>
        <time>2014-02-02T07:34:35Z</time>
      </trkpt>
      <trkpt lat="47.40229" lon="-0.47915">
        <ele>31.86</ele>
        <time>2014-02-02T07:34:54Z</time>
      </trkpt>
      <trkpt lat="47.40229" lon="-0.47915">
        <ele>31.86</ele>
        <time>2014-02-02T07:35:18Z</time>
      </trkpt>
      <trkpt lat="47.40228" lon="-0.47914">
        <ele>31.38</ele>
        <time>2014-02-02T07:35:36Z</time>
      </trkpt>
      <trkpt lat="47.40228" lon="-0.47914">
        <ele>30.9</ele>
        <time>2014-02-02T07:35:53Z</time>
      </trkpt>
      <trkpt lat="47.40228" lon="-0.47915">
        <ele>31.38</ele>
        <time>2014-02-02T07:36:13Z</time>
      </trkpt>
      <trkpt lat="47.40228" lon="-0.47915">
        <ele>30.9</ele>
        <time>2014-02-02T07:36:28Z</time>
      </trkpt>
      <trkpt lat="47.40229" lon="-0.47915">
        <ele>30.9</ele>
        <time>2014-02-02T07:36:47Z</time>
      </trkpt>
      <trkpt lat="47.40229" lon="-0.47915">
        <ele>31.38</ele>
        <time>2014-02-02T07:37:05Z</time>
      </trkpt>
      <trkpt lat="47.40229" lon="-0.47915">
        <ele>30.9</ele>
        <time>2014-02-02T07:37:22Z</time>
      </trkpt>
      <trkpt lat="47.40229" lon="-0.47915">
        <ele>30.9</ele>
        <time>2014-02-02T07:37:42Z</time>
      </trkpt>
      <trkpt lat="47.40229" lon="-0.47915">
        <ele>30.42</ele>
        <time>2014-02-02T07:38:01Z</time>
      </trkpt>
      <trkpt lat="47.40229" lon="-0.47915">
        <ele>30.9</ele>
        <time>2014-02-02T07:38:22Z</time>
      </trkpt>
      <trkpt lat="47.40229" lon="-0.47915">
        <ele>30.9</ele>
        <time>2014-02-02T07:38:43Z</time>
      </trkpt>
      <trkpt lat="47.40229" lon="-0.47915">
        <ele>30.9</ele>
        <time>2014-02-02T07:39:05Z</time>
      </trkpt>
      <trkpt lat="47.40229" lon="-0.47915">
        <ele>30.9</ele>
        <time>2014-02-02T07:39:26Z</time>
      </trkpt>
      <trkpt lat="47.40229" lon="-0.47915">
        <ele>30.9</ele>
        <time>2014-02-02T07:39:48Z</time>
      </trkpt>
      <trkpt lat="47.40229" lon="-0.47915">
        <ele>30.42</ele>
        <time>2014-02-02T07:40:07Z</time>
      </trkpt>
      <trkpt lat="47.40229" lon="-0.47915">
        <ele>30.42</ele>
        <time>2014-02-02T07:40:29Z</time>
      </trkpt>
      <trkpt lat="47.40228" lon="-0.47915">
        <ele>30.9</ele>
        <time>2014-02-02T07:40:49Z</time>
      </trkpt>
      <trkpt lat="47.40228" lon="-0.47915">
        <ele>30.9</ele>
        <time>2014-02-02T07:41:09Z</time>
      </trkpt>
      <trkpt lat="47.40228" lon="-0.47916">
        <ele>30.42</ele>
        <time>2014-02-02T07:41:34Z</time>
      </trkpt>
      <trkpt lat="47.40228" lon="-0.47916">
        <ele>30.9</ele>
        <time>2014-02-02T07:41:57Z</time>
      </trkpt>
      <trkpt lat="47.40228" lon="-0.47916">
        <ele>29.94</ele>
        <time>2014-02-02T07:42:18Z</time>
      </trkpt>
      <trkpt lat="47.40228" lon="-0.47916">
        <ele>29.94</ele>
        <time>2014-02-02T07:42:40Z</time>
      </trkpt>
      <trkpt lat="47.40228" lon="-0.47916">
        <ele>30.42</ele>
        <time>2014-02-02T07:43:00Z</time>
      </trkpt>
      <trkpt lat="47.40228" lon="-0.47916">
        <ele>30.42</ele>
        <time>2014-02-02T07:43:20Z</time>
      </trkpt>
      <trkpt lat="47.40228" lon="-0.47917">
        <ele>30.42</ele>
        <time>2014-02-02T07:43:40Z</time>
      </trkpt>
      <trkpt lat="47.40228" lon="-0.47916">
        <ele>30.42</ele>
        <time>2014-02-02T07:44:03Z</time>
      </trkpt>
      <trkpt lat="47.40228" lon="-0.47916">
        <ele>30.42</ele>
        <time>2014-02-02T07:44:25Z</time>
      </trkpt>
      <trkpt lat="47.40228" lon="-0.47916">
        <ele>30.42</ele>
        <time>2014-02-02T07:44:39Z</time>
      </trkpt>
      <trkpt lat="47.40228" lon="-0.47915">
        <ele>30.9</ele>
        <time>2014-02-02T07:44:48Z</time>
      </trkpt>
      <trkpt lat="47.40228" lon="-0.47915">
        <ele>30.42</ele>
        <time>2014-02-02T07:44:58Z</time>
      </trkpt>
      <trkpt lat="47.40228" lon="-0.47915">
        <ele>30.9</ele>
        <time>2014-02-02T07:45:09Z</time>
      </trkpt>
      <trkpt lat="47.40228" lon="-0.47915">
        <ele>30.9</ele>
        <time>2014-02-02T07:45:31Z</time>
      </trkpt>
      <trkpt lat="47.40228" lon="-0.47915">
        <ele>30.9</ele>
        <time>2014-02-02T07:45:50Z</time>
      </trkpt>
      <trkpt lat="47.40227" lon="-0.47914">
        <ele>30.9</ele>
        <time>2014-02-02T07:46:13Z</time>
      </trkpt>
      <trkpt lat="47.40227" lon="-0.47914">
        <ele>30.42</ele>
        <time>2014-02-02T07:46:33Z</time>
      </trkpt>
      <trkpt lat="47.40227" lon="-0.47914">
        <ele>30.42</ele>
        <time>2014-02-02T07:46:54Z</time>
      </trkpt>
      <trkpt lat="47.40227" lon="-0.47914">
        <ele>30.42</ele>
        <time>2014-02-02T07:47:14Z</time>
      </trkpt>
      <trkpt lat="47.40227" lon="-0.47914">
        <ele>30.42</ele>
        <time>2014-02-02T07:47:30Z</time>
      </trkpt>
      <trkpt lat="47.40227" lon="-0.47914">
        <ele>29.46</ele>
        <time>2014-02-02T07:47:38Z</time>
      </trkpt>
      <trkpt lat="47.40227" lon="-0.47914">
        <ele>30.42</ele>
        <time>2014-02-02T07:47:46Z</time>
      </trkpt>
      <trkpt lat="47.40218" lon="-0.47906">
        <ele>29.94</ele>
        <time>2014-02-02T07:47:51Z</time>
      </trkpt>
      <trkpt lat="47.40209" lon="-0.47869">
        <ele>29.46</ele>
        <time>2014-02-02T07:48:00Z</time>
      </trkpt>
      <trkpt lat="47.40201" lon="-0.47837">
        <ele>28.5</ele>
        <time>2014-02-02T07:48:07Z</time>
      </trkpt>
      <trkpt lat="47.40204" lon="-0.4783">
        <ele>28.5</ele>
        <time>2014-02-02T07:48:09Z</time>
      </trkpt>
      <trkpt lat="47.40226" lon="-0.47821">
        <ele>28.5</ele>
        <time>2014-02-02T07:48:15Z</time>
      </trkpt>
      <trkpt lat="47.40264" lon="-0.47813">
        <ele>29.94</ele>
        <time>2014-02-02T07:48:24Z</time>
      </trkpt>
      <trkpt lat="47.40288" lon="-0.47812">
        <ele>30.42</ele>
        <time>2014-02-02T07:48:31Z</time>
      </trkpt>
      <trkpt lat="47.40291" lon="-0.47812">
        <ele>30.9</ele>
        <time>2014-02-02T07:48:32Z</time>
      </trkpt>
      <trkpt lat="47.40296" lon="-0.47822">
        <ele>30.9</ele>
        <time>2014-02-02T07:48:37Z</time>
      </trkpt>
      <trkpt lat="47.40295" lon="-0.47824">
        <ele>30.9</ele>
        <time>2014-02-02T07:48:38Z</time>
      </trkpt>
      <trkpt lat="47.40291" lon="-0.4783">
        <ele>30.9</ele>
        <time>2014-02-02T07:48:43Z</time>
      </trkpt>
      <trkpt lat="47.40291" lon="-0.47838">
        <ele>31.38</ele>
        <time>2014-02-02T07:48:49Z</time>
      </trkpt>
      <trkpt lat="47.40297" lon="-0.47839">
        <ele>31.86</ele>
        <time>2014-02-02T07:48:55Z</time>
      </trkpt>
      <trkpt lat="47.40297" lon="-0.47843">
        <ele>31.38</ele>
        <time>2014-02-02T07:49:01Z</time>
      </trkpt>
      <trkpt lat="47.40297" lon="-0.47843">
        <ele>31.86</ele>
        <time>2014-02-02T07:49:03Z</time>
      </trkpt>
      <trkpt lat="47.40302" lon="-0.47846">
        <ele>31.38</ele>
        <time>2014-02-02T07:49:10Z</time>
      </trkpt>
      <trkpt lat="47.40303" lon="-0.47851">
        <ele>31.38</ele>
        <time>2014-02-02T07:49:17Z</time>
      </trkpt>
      <trkpt lat="47.40301" lon="-0.47853">
        <ele>31.86</ele>
        <time>2014-02-02T07:49:22Z</time>
      </trkpt>
      <trkpt lat="47.403" lon="-0.47854">
        <ele>31.38</ele>
        <time>2014-02-02T07:49:30Z</time>
      </trkpt>
      <trkpt lat="47.40304" lon="-0.47855">
        <ele>31.38</ele>
        <time>2014-02-02T07:49:35Z</time>
      </trkpt>
      <trkpt lat="47.40304" lon="-0.47855">
        <ele>31.38</ele>
        <time>2014-02-02T07:49:44Z</time>
      </trkpt>
      <trkpt lat="47.40305" lon="-0.47855">
        <ele>31.86</ele>
        <time>2014-02-02T07:49:50Z</time>
      </trkpt>
      <trkpt lat="47.40305" lon="-0.47855">
        <ele>31.86</ele>
        <time>2014-02-02T07:49:58Z</time>
      </trkpt>
      <trkpt lat="47.40305" lon="-0.47855">
        <ele>31.86</ele>
        <time>2014-02-02T07:50:16Z</time>
      </trkpt>
      <trkpt lat="47.40305" lon="-0.47855">
        <ele>31.86</ele>
        <time>2014-02-02T07:50:36Z</time>
      </trkpt>
      <trkpt lat="47.40305" lon="-0.47855">
        <ele>31.86</ele>
        <time>2014-02-02T07:50:48Z</time>
      </trkpt>
      <trkpt lat="47.40305" lon="-0.47855">
        <ele>31.38</ele>
        <time>2014-02-02T07:51:06Z</time>
      </trkpt>
      <trkpt lat="47.40305" lon="-0.47855">
        <ele>30.9</ele>
        <time>2014-02-02T07:51:20Z</time>
      </trkpt>
      <trkpt lat="47.40305" lon="-0.47855">
        <ele>30.9</ele>
        <time>2014-02-02T07:51:38Z</time>
      </trkpt>
      <trkpt lat="47.40305" lon="-0.47857">
        <ele>31.38</ele>
        <time>2014-02-02T07:51:56Z</time>
      </trkpt>
      <trkpt lat="47.40305" lon="-0.47857">
        <ele>30.9</ele>
        <time>2014-02-02T07:52:15Z</time>
      </trkpt>
      <trkpt lat="47.40305" lon="-0.47856">
        <ele>30.9</ele>
        <time>2014-02-02T07:52:37Z</time>
      </trkpt>
      <trkpt lat="47.40305" lon="-0.47856">
        <ele>31.86</ele>
        <time>2014-02-02T07:53:00Z</time>
      </trkpt>
      <trkpt lat="47.40305" lon="-0.47856">
        <ele>30.9</ele>
        <time>2014-02-02T07:53:21Z</time>
      </trkpt>
      <trkpt lat="47.40305" lon="-0.47856">
        <ele>30.42</ele>
        <time>2014-02-02T07:53:39Z</time>
      </trkpt>
      <trkpt lat="47.40305" lon="-0.47856">
        <ele>30.42</ele>
        <time>2014-02-02T07:54:01Z</time>
      </trkpt>
      <trkpt lat="47.40305" lon="-0.47856">
        <ele>30.42</ele>
        <time>2014-02-02T07:54:23Z</time>
      </trkpt>
      <trkpt lat="47.40305" lon="-0.47856">
        <ele>30.42</ele>
        <time>2014-02-02T07:54:41Z</time>
      </trkpt>
      <trkpt lat="47.40305" lon="-0.47856">
        <ele>30.9</ele>
        <time>2014-02-02T07:54:59Z</time>
      </trkpt>
      <trkpt lat="47.40306" lon="-0.47856">
        <ele>30.42</ele>
        <time>2014-02-02T07:55:16Z</time>
      </trkpt>
      <trkpt lat="47.40306" lon="-0.47856">
        <ele>30.42</ele>
        <time>2014-02-02T07:55:30Z</time>
      </trkpt>
      <trkpt lat="47.40306" lon="-0.47856">
        <ele>31.38</ele>
        <time>2014-02-02T07:55:54Z</time>
      </trkpt>
      <trkpt lat="47.40306" lon="-0.47856">
        <ele>30.9</ele>
        <time>2014-02-02T07:56:12Z</time>
      </trkpt>
      <trkpt lat="47.40306" lon="-0.47856">
        <ele>30.9</ele>
        <time>2014-02-02T07:56:35Z</time>
      </trkpt>
      <trkpt lat="47.40306" lon="-0.47855">
        <ele>30.9</ele>
        <time>2014-02-02T07:56:55Z</time>
      </trkpt>
      <trkpt lat="47.40306" lon="-0.47855">
        <ele>30.9</ele>
        <time>2014-02-02T07:57:16Z</time>
      </trkpt>
      <trkpt lat="47.40306" lon="-0.47855">
        <ele>30.9</ele>
        <time>2014-02-02T07:57:36Z</time>
      </trkpt>
      <trkpt lat="47.40306" lon="-0.47855">
        <ele>30.9</ele>
        <time>2014-02-02T07:57:57Z</time>
      </trkpt>
      <trkpt lat="47.40306" lon="-0.47855">
        <ele>30.9</ele>
        <time>2014-02-02T07:58:17Z</time>
      </trkpt>
      <trkpt lat="47.40306" lon="-0.47855">
        <ele>30.9</ele>
        <time>2014-02-02T07:58:33Z</time>
      </trkpt>
      <trkpt lat="47.40306" lon="-0.47855">
        <ele>30.42</ele>
        <time>2014-02-02T07:58:46Z</time>
      </trkpt>
      <trkpt lat="47.40306" lon="-0.47855">
        <ele>31.38</ele>
        <time>2014-02-02T07:59:04Z</time>
      </trkpt>
      <trkpt lat="47.40306" lon="-0.47856">
        <ele>30.9</ele>
        <time>2014-02-02T07:59:25Z</time>
      </trkpt>
      <trkpt lat="47.40306" lon="-0.47856">
        <ele>31.38</ele>
        <time>2014-02-02T07:59:41Z</time>
      </trkpt>
      <trkpt lat="47.40306" lon="-0.47856">
        <ele>31.38</ele>
        <time>2014-02-02T07:59:58Z</time>
      </trkpt>
      <trkpt lat="47.40306" lon="-0.47856">
        <ele>31.38</ele>
        <time>2014-02-02T08:00:14Z</time>
      </trkpt>
      <trkpt lat="47.40306" lon="-0.47856">
        <ele>30.9</ele>
        <time>2014-02-02T08:00:35Z</time>
      </trkpt>
      <trkpt lat="47.40306" lon="-0.47857">
        <ele>30.9</ele>
        <time>2014-02-02T08:00:51Z</time>
      </trkpt>
      <trkpt lat="47.40306" lon="-0.47857">
        <ele>31.38</ele>
        <time>2014-02-02T08:01:08Z</time>
      </trkpt>
      <trkpt lat="47.40306" lon="-0.47856">
        <ele>30.9</ele>
        <time>2014-02-02T08:01:16Z</time>
      </trkpt>
      <trkpt lat="47.40305" lon="-0.47856">
        <ele>30.9</ele>
        <time>2014-02-02T08:01:22Z</time>
      </trkpt>
      <trkpt lat="47.40303" lon="-0.47855">
        <ele>30.9</ele>
        <time>2014-02-02T08:01:30Z</time>
      </trkpt>
      <trkpt lat="47.40302" lon="-0.47856">
        <ele>30.9</ele>
        <time>2014-02-02T08:01:41Z</time>
      </trkpt>
      <trkpt lat="47.40301" lon="-0.47854">
        <ele>30.9</ele>
        <time>2014-02-02T08:01:51Z</time>
      </trkpt>
      <trkpt lat="47.40301" lon="-0.47853">
        <ele>30.9</ele>
        <time>2014-02-02T08:01:59Z</time>
      </trkpt>
      <trkpt lat="47.40302" lon="-0.47852">
        <ele>30.9</ele>
        <time>2014-02-02T08:02:07Z</time>
      </trkpt>
      <trkpt lat="47.40302" lon="-0.47852">
        <ele>30.9</ele>
        <time>2014-02-02T08:02:21Z</time>
      </trkpt>
      <trkpt lat="47.40302" lon="-0.47852">
        <ele>30.9</ele>
        <time>2014-02-02T08:02:36Z</time>
      </trkpt>
      <trkpt lat="47.40302" lon="-0.4785">
        <ele>30.9</ele>
        <time>2014-02-02T08:02:49Z</time>
      </trkpt>
      <trkpt lat="47.40302" lon="-0.4785">
        <ele>30.42</ele>
        <time>2014-02-02T08:02:59Z</time>
      </trkpt>
      <trkpt lat="47.40302" lon="-0.4785">
        <ele>30.9</ele>
        <time>2014-02-02T08:03:14Z</time>
      </trkpt>
      <trkpt lat="47.40302" lon="-0.4785">
        <ele>30.9</ele>
        <time>2014-02-02T08:03:31Z</time>
      </trkpt>
      <trkpt lat="47.40302" lon="-0.4785">
        <ele>30.9</ele>
        <time>2014-02-02T08:03:46Z</time>
      </trkpt>
      <trkpt lat="47.40302" lon="-0.4785">
        <ele>30.9</ele>
        <time>2014-02-02T08:04:01Z</time>
      </trkpt>
      <trkpt lat="47.40302" lon="-0.4785">
        <ele>31.38</ele>
        <time>2014-02-02T08:04:11Z</time>
      </trkpt>
      <trkpt lat="47.40302" lon="-0.4785">
        <ele>30.9</ele>
        <time>2014-02-02T08:04:27Z</time>
      </trkpt>
      <trkpt lat="47.40302" lon="-0.4785">
        <ele>31.38</ele>
        <time>2014-02-02T08:04:42Z</time>
      </trkpt>
      <trkpt lat="47.40303" lon="-0.4785">
        <ele>30.9</ele>
        <time>2014-02-02T08:04:58Z</time>
      </trkpt>
      <trkpt lat="47.40303" lon="-0.47849">
        <ele>28.02</ele>
        <time>2014-02-02T08:05:06Z</time>
      </trkpt>
      <trkpt lat="47.40303" lon="-0.47849">
        <ele>31.38</ele>
        <time>2014-02-02T08:05:07Z</time>
      </trkpt>
      <trkpt lat="47.40303" lon="-0.47849">
        <ele>31.38</ele>
        <time>2014-02-02T08:05:14Z</time>
      </trkpt>
      <trkpt lat="47.40304" lon="-0.47846">
        <ele>31.38</ele>
        <time>2014-02-02T08:05:21Z</time>
      </trkpt>
      <trkpt lat="47.40295" lon="-0.47843">
        <ele>31.38</ele>
        <time>2014-02-02T08:05:26Z</time>
      </trkpt>
      <trkpt lat="47.40289" lon="-0.47832">
        <ele>31.38</ele>
        <time>2014-02-02T08:05:29Z</time>
      </trkpt>
      <trkpt lat="47.403" lon="-0.478">
        <ele>31.38</ele>
        <time>2014-02-02T08:05:35Z</time>
      </trkpt>
      <trkpt lat="47.40325" lon="-0.47784">
        <ele>32.34</ele>
        <time>2014-02-02T08:05:41Z</time>
      </trkpt>
      <trkpt lat="47.40357" lon="-0.47759">
        <ele>32.82</ele>
        <time>2014-02-02T08:05:50Z</time>
      </trkpt>
      <trkpt lat="47.40392" lon="-0.47732">
        <ele>32.34</ele>
        <time>2014-02-02T08:05:58Z</time>
      </trkpt>
      <trkpt lat="47.40433" lon="-0.47702">
        <ele>29.46</ele>
        <time>2014-02-02T08:06:05Z</time>
      </trkpt>
      <trkpt lat="47.40459" lon="-0.47682">
        <ele>28.02</ele>
        <time>2014-02-02T08:06:10Z</time>
      </trkpt>
      <trkpt lat="47.40481" lon="-0.4766">
        <ele>28.02</ele>
        <time>2014-02-02T08:06:15Z</time>
      </trkpt>
      <trkpt lat="47.4051" lon="-0.47618">
        <ele>28.02</ele>
        <time>2014-02-02T08:06:23Z</time>
      </trkpt>
      <trkpt lat="47.40517" lon="-0.47605">
        <ele>28.5</ele>
        <time>2014-02-02T08:06:26Z</time>
      </trkpt>
      <trkpt lat="47.40516" lon="-0.47583">
        <ele>28.02</ele>
        <time>2014-02-02T08:06:30Z</time>
      </trkpt>
      <trkpt lat="47.40499" lon="-0.47541">
        <ele>26.57</ele>
        <time>2014-02-02T08:06:38Z</time>
      </trkpt>
      <trkpt lat="47.40486" lon="-0.47501">
        <ele>25.61</ele>
        <time>2014-02-02T08:06:45Z</time>
      </trkpt>
      <trkpt lat="47.40485" lon="-0.47482">
        <ele>23.69</ele>
        <time>2014-02-02T08:06:48Z</time>
      </trkpt>
      <trkpt lat="47.40478" lon="-0.47448">
        <ele>23.21</ele>
        <time>2014-02-02T08:06:52Z</time>
      </trkpt>
      <trkpt lat="47.40456" lon="-0.47411">
        <ele>23.69</ele>
        <time>2014-02-02T08:06:58Z</time>
      </trkpt>
      <trkpt lat="47.40428" lon="-0.47381">
        <ele>24.65</ele>
        <time>2014-02-02T08:07:06Z</time>
      </trkpt>
      <trkpt lat="47.40401" lon="-0.47339">
        <ele>26.57</ele>
        <time>2014-02-02T08:07:15Z</time>
      </trkpt>
      <trkpt lat="47.40395" lon="-0.47328">
        <ele>26.09</ele>
        <time>2014-02-02T08:07:17Z</time>
      </trkpt>
      <trkpt lat="47.40388" lon="-0.47303">
        <ele>26.57</ele>
        <time>2014-02-02T08:07:21Z</time>
      </trkpt>
      <trkpt lat="47.40379" lon="-0.47244">
        <ele>28.02</ele>
        <time>2014-02-02T08:07:30Z</time>
      </trkpt>
      <trkpt lat="47.40378" lon="-0.47191">
        <ele>26.57</ele>
        <time>2014-02-02T08:07:38Z</time>
      </trkpt>
      <trkpt lat="47.40378" lon="-0.47181">
        <ele>26.57</ele>
        <time>2014-02-02T08:07:40Z</time>
      </trkpt>
      <trkpt lat="47.4039" lon="-0.47171">
        <ele>26.09</ele>
        <time>2014-02-02T08:07:45Z</time>
      </trkpt>
      <trkpt lat="47.40398" lon="-0.47162">
        <ele>25.61</ele>
        <time>2014-02-02T08:07:49Z</time>
      </trkpt>
      <trkpt lat="47.40397" lon="-0.4714">
        <ele>26.09</ele>
        <time>2014-02-02T08:07:55Z</time>
      </trkpt>
      <trkpt lat="47.40395" lon="-0.47137">
        <ele>26.09</ele>
        <time>2014-02-02T08:07:56Z</time>
      </trkpt>
      <trkpt lat="47.40382" lon="-0.47113">
        <ele>27.05</ele>
        <time>2014-02-02T08:08:01Z</time>
      </trkpt>
      <trkpt lat="47.40379" lon="-0.4709">
        <ele>26.57</ele>
        <time>2014-02-02T08:08:05Z</time>
      </trkpt>
      <trkpt lat="47.40378" lon="-0.47045">
        <ele>26.57</ele>
        <time>2014-02-02T08:08:13Z</time>
      </trkpt>
      <trkpt lat="47.40375" lon="-0.47029">
        <ele>27.53</ele>
        <time>2014-02-02T08:08:17Z</time>
      </trkpt>
      <trkpt lat="47.40375" lon="-0.4701">
        <ele>28.02</ele>
        <time>2014-02-02T08:08:21Z</time>
      </trkpt>
      <trkpt lat="47.40368" lon="-0.46997">
        <ele>29.46</ele>
        <time>2014-02-02T08:08:25Z</time>
      </trkpt>
      <trkpt lat="47.40365" lon="-0.46984">
        <ele>29.94</ele>
        <time>2014-02-02T08:08:29Z</time>
      </trkpt>
      <trkpt lat="47.40359" lon="-0.4697">
        <ele>29.94</ele>
        <time>2014-02-02T08:08:34Z</time>
      </trkpt>
      <trkpt lat="47.40354" lon="-0.46968">
        <ele>29.94</ele>
        <time>2014-02-02T08:08:37Z</time>
      </trkpt>
      <trkpt lat="47.40345" lon="-0.46959">
        <ele>27.05</ele>
        <time>2014-02-02T08:08:40Z</time>
      </trkpt>
      <trkpt lat="47.40333" lon="-0.46949">
        <ele>27.05</ele>
        <time>2014-02-02T08:08:45Z</time>
      </trkpt>
      <trkpt lat="47.4033" lon="-0.46949">
        <ele>27.05</ele>
        <time>2014-02-02T08:08:46Z</time>
      </trkpt>
      <trkpt lat="47.40321" lon="-0.46955">
        <ele>28.02</ele>
        <time>2014-02-02T08:08:52Z</time>
      </trkpt>
      <trkpt lat="47.40311" lon="-0.4695">
        <ele>27.53</ele>
        <time>2014-02-02T08:08:59Z</time>
      </trkpt>
      <trkpt lat="47.40302" lon="-0.4695">
        <ele>28.5</ele>
        <time>2014-02-02T08:09:03Z</time>
      </trkpt>
      <trkpt lat="47.40291" lon="-0.46932">
        <ele>28.5</ele>
        <time>2014-02-02T08:09:09Z</time>
      </trkpt>
      <trkpt lat="47.40294" lon="-0.46911">
        <ele>28.5</ele>
        <time>2014-02-02T08:09:15Z</time>
      </trkpt>
      <trkpt lat="47.40302" lon="-0.46897">
        <ele>29.94</ele>
        <time>2014-02-02T08:09:19Z</time>
      </trkpt>
      <trkpt lat="47.40302" lon="-0.46876">
        <ele>32.34</ele>
        <time>2014-02-02T08:09:25Z</time>
      </trkpt>
      <trkpt lat="47.40301" lon="-0.46873">
        <ele>31.86</ele>
        <time>2014-02-02T08:09:26Z</time>
      </trkpt>
      <trkpt lat="47.40286" lon="-0.46853">
        <ele>30.9</ele>
        <time>2014-02-02T08:09:32Z</time>
      </trkpt>
      <trkpt lat="47.40282" lon="-0.46849">
        <ele>30.9</ele>
        <time>2014-02-02T08:09:33Z</time>
      </trkpt>
      <trkpt lat="47.40266" lon="-0.46835">
        <ele>29.94</ele>
        <time>2014-02-02T08:09:38Z</time>
      </trkpt>
      <trkpt lat="47.40257" lon="-0.46831">
        <ele>29.46</ele>
        <time>2014-02-02T08:09:41Z</time>
      </trkpt>
      <trkpt lat="47.4024" lon="-0.46826">
        <ele>29.94</ele>
        <time>2014-02-02T08:09:47Z</time>
      </trkpt>
      <trkpt lat="47.40236" lon="-0.46825">
        <ele>30.42</ele>
        <time>2014-02-02T08:09:48Z</time>
      </trkpt>
      <trkpt lat="47.40226" lon="-0.46814">
        <ele>30.9</ele>
        <time>2014-02-02T08:09:52Z</time>
      </trkpt>
      <trkpt lat="47.40217" lon="-0.46806">
        <ele>30.9</ele>
        <time>2014-02-02T08:09:55Z</time>
      </trkpt>
      <trkpt lat="47.40202" lon="-0.46812">
        <ele>30.42</ele>
        <time>2014-02-02T08:10:00Z</time>
      </trkpt>
      <trkpt lat="47.40196" lon="-0.46815">
        <ele>29.46</ele>
        <time>2014-02-02T08:10:01Z</time>
      </trkpt>
      <trkpt lat="47.40188" lon="-0.46816">
        <ele>30.9</ele>
        <time>2014-02-02T08:10:07Z</time>
      </trkpt>
      <trkpt lat="47.40188" lon="-0.46816">
        <ele>30.9</ele>
        <time>2014-02-02T08:10:08Z</time>
      </trkpt>
      <trkpt lat="47.40185" lon="-0.46797">
        <ele>30.9</ele>
        <time>2014-02-02T08:10:14Z</time>
      </trkpt>
      <trkpt lat="47.40184" lon="-0.46784">
        <ele>30.9</ele>
        <time>2014-02-02T08:10:17Z</time>
      </trkpt>
      <trkpt lat="47.40189" lon="-0.46761">
        <ele>30.42</ele>
        <time>2014-02-02T08:10:21Z</time>
      </trkpt>
      <trkpt lat="47.40185" lon="-0.46744">
        <ele>31.86</ele>
        <time>2014-02-02T08:10:25Z</time>
      </trkpt>
      <trkpt lat="47.40187" lon="-0.46725">
        <ele>31.38</ele>
        <time>2014-02-02T08:10:29Z</time>
      </trkpt>
      <trkpt lat="47.40177" lon="-0.46705">
        <ele>28.98</ele>
        <time>2014-02-02T08:10:34Z</time>
      </trkpt>
      <trkpt lat="47.40174" lon="-0.46701">
        <ele>28.02</ele>
        <time>2014-02-02T08:10:35Z</time>
      </trkpt>
      <trkpt lat="47.40172" lon="-0.46689">
        <ele>26.57</ele>
        <time>2014-02-02T08:10:38Z</time>
      </trkpt>
      <trkpt lat="47.40175" lon="-0.46682">
        <ele>27.05</ele>
        <time>2014-02-02T08:10:40Z</time>
      </trkpt>
      <trkpt lat="47.40187" lon="-0.46662">
        <ele>28.02</ele>
        <time>2014-02-02T08:10:46Z</time>
      </trkpt>
      <trkpt lat="47.402" lon="-0.46654">
        <ele>27.05</ele>
        <time>2014-02-02T08:10:51Z</time>
      </trkpt>
      <trkpt lat="47.40211" lon="-0.46648">
        <ele>23.69</ele>
        <time>2014-02-02T08:10:56Z</time>
      </trkpt>
      <trkpt lat="47.40213" lon="-0.46646">
        <ele>23.21</ele>
        <time>2014-02-02T08:10:57Z</time>
      </trkpt>
      <trkpt lat="47.40216" lon="-0.46641">
        <ele>22.73</ele>
        <time>2014-02-02T08:10:59Z</time>
      </trkpt>
      <trkpt lat="47.40214" lon="-0.46628">
        <ele>22.25</ele>
        <time>2014-02-02T08:11:03Z</time>
      </trkpt>
      <trkpt lat="47.402" lon="-0.46584">
        <ele>20.32</ele>
        <time>2014-02-02T08:11:11Z</time>
      </trkpt>
      <trkpt lat="47.40196" lon="-0.46549">
        <ele>19.36</ele>
        <time>2014-02-02T08:11:17Z</time>
      </trkpt>
      <trkpt lat="47.40188" lon="-0.46516">
        <ele>18.88</ele>
        <time>2014-02-02T08:11:23Z</time>
      </trkpt>
      <trkpt lat="47.40178" lon="-0.46479">
        <ele>18.4</ele>
        <time>2014-02-02T08:11:31Z</time>
      </trkpt>
      <trkpt lat="47.4017" lon="-0.46458">
        <ele>18.88</ele>
        <time>2014-02-02T08:11:37Z</time>
      </trkpt>
      <trkpt lat="47.40158" lon="-0.46432">
        <ele>19.36</ele>
        <time>2014-02-02T08:11:43Z</time>
      </trkpt>
      <trkpt lat="47.40155" lon="-0.46422">
        <ele>20.81</ele>
        <time>2014-02-02T08:11:46Z</time>
      </trkpt>
      <trkpt lat="47.40148" lon="-0.46394">
        <ele>21.77</ele>
        <time>2014-02-02T08:11:55Z</time>
      </trkpt>
      <trkpt lat="47.40132" lon="-0.46373">
        <ele>23.21</ele>
        <time>2014-02-02T08:12:02Z</time>
      </trkpt>
      <trkpt lat="47.40113" lon="-0.46351">
        <ele>24.65</ele>
        <time>2014-02-02T08:12:10Z</time>
      </trkpt>
      <trkpt lat="47.40097" lon="-0.46327">
        <ele>25.61</ele>
        <time>2014-02-02T08:12:17Z</time>
      </trkpt>
      <trkpt lat="47.40079" lon="-0.46293">
        <ele>26.57</ele>
        <time>2014-02-02T08:12:26Z</time>
      </trkpt>
      <trkpt lat="47.40066" lon="-0.46257">
        <ele>28.02</ele>
        <time>2014-02-02T08:12:35Z</time>
      </trkpt>
      <trkpt lat="47.40059" lon="-0.46227">
        <ele>28.5</ele>
        <time>2014-02-02T08:12:42Z</time>
      </trkpt>
      <trkpt lat="47.40046" lon="-0.46183">
        <ele>29.46</ele>
        <time>2014-02-02T08:12:51Z</time>
      </trkpt>
      <trkpt lat="47.40027" lon="-0.46163">
        <ele>29.46</ele>
        <time>2014-02-02T08:12:57Z</time>
      </trkpt>
      <trkpt lat="47.40001" lon="-0.46144">
        <ele>30.9</ele>
        <time>2014-02-02T08:13:05Z</time>
      </trkpt>
      <trkpt lat="47.3997" lon="-0.46119">
        <ele>31.38</ele>
        <time>2014-02-02T08:13:14Z</time>
      </trkpt>
      <trkpt lat="47.39941" lon="-0.46072">
        <ele>30.9</ele>
        <time>2014-02-02T08:13:23Z</time>
      </trkpt>
      <trkpt lat="47.39933" lon="-0.46041">
        <ele>29.94</ele>
        <time>2014-02-02T08:13:27Z</time>
      </trkpt>
      <trkpt lat="47.3992" lon="-0.45975">
        <ele>30.42</ele>
        <time>2014-02-02T08:13:35Z</time>
      </trkpt>
      <trkpt lat="47.39893" lon="-0.45893">
        <ele>28.5</ele>
        <time>2014-02-02T08:13:46Z</time>
      </trkpt>
      <trkpt lat="47.3988" lon="-0.45833">
        <ele>28.02</ele>
        <time>2014-02-02T08:13:55Z</time>
      </trkpt>
      <trkpt lat="47.39873" lon="-0.458">
        <ele>27.53</ele>
        <time>2014-02-02T08:14:02Z</time>
      </trkpt>
      <trkpt lat="47.39867" lon="-0.45779">
        <ele>28.02</ele>
        <time>2014-02-02T08:14:09Z</time>
      </trkpt>
      <trkpt lat="47.39861" lon="-0.45759">
        <ele>28.5</ele>
        <time>2014-02-02T08:14:16Z</time>
      </trkpt>
      <trkpt lat="47.3986" lon="-0.45741">
        <ele>28.5</ele>
        <time>2014-02-02T08:14:24Z</time>
      </trkpt>
      <trkpt lat="47.3986" lon="-0.45734">
        <ele>28.5</ele>
        <time>2014-02-02T08:14:30Z</time>
      </trkpt>
      <trkpt lat="47.39859" lon="-0.45727">
        <ele>28.5</ele>
        <time>2014-02-02T08:14:36Z</time>
      </trkpt>
      <trkpt lat="47.39857" lon="-0.45714">
        <ele>28.5</ele>
        <time>2014-02-02T08:14:42Z</time>
      </trkpt>
      <trkpt lat="47.39854" lon="-0.45688">
        <ele>28.5</ele>
        <time>2014-02-02T08:14:51Z</time>
      </trkpt>
      <trkpt lat="47.39853" lon="-0.45668">
        <ele>29.46</ele>
        <time>2014-02-02T08:14:58Z</time>
      </trkpt>
      <trkpt lat="47.3985" lon="-0.45637">
        <ele>28.98</ele>
        <time>2014-02-02T08:15:06Z</time>
      </trkpt>
      <trkpt lat="47.39846" lon="-0.4561">
        <ele>28.98</ele>
        <time>2014-02-02T08:15:13Z</time>
      </trkpt>
      <trkpt lat="47.39843" lon="-0.45589">
        <ele>29.46</ele>
        <time>2014-02-02T08:15:20Z</time>
      </trkpt>
      <trkpt lat="47.39834" lon="-0.45559">
        <ele>29.46</ele>
        <time>2014-02-02T08:15:29Z</time>
      </trkpt>
      <trkpt lat="47.39819" lon="-0.45529">
        <ele>29.46</ele>
        <time>2014-02-02T08:15:38Z</time>
      </trkpt>
      <trkpt lat="47.39811" lon="-0.45502">
        <ele>29.46</ele>
        <time>2014-02-02T08:15:45Z</time>
      </trkpt>
      <trkpt lat="47.39811" lon="-0.45468">
        <ele>29.46</ele>
        <time>2014-02-02T08:15:52Z</time>
      </trkpt>
      <trkpt lat="47.39808" lon="-0.45432">
        <ele>28.98</ele>
        <time>2014-02-02T08:15:59Z</time>
      </trkpt>
      <trkpt lat="47.39801" lon="-0.45408">
        <ele>28.5</ele>
        <time>2014-02-02T08:16:04Z</time>
      </trkpt>
      <trkpt lat="47.39774" lon="-0.45403">
        <ele>28.5</ele>
        <time>2014-02-02T08:16:12Z</time>
      </trkpt>
      <trkpt lat="47.39754" lon="-0.45406">
        <ele>26.57</ele>
        <time>2014-02-02T08:16:17Z</time>
      </trkpt>
      <trkpt lat="47.39737" lon="-0.45379">
        <ele>25.13</ele>
        <time>2014-02-02T08:16:23Z</time>
      </trkpt>
      <trkpt lat="47.39733" lon="-0.45371">
        <ele>24.17</ele>
        <time>2014-02-02T08:16:25Z</time>
      </trkpt>
      <trkpt lat="47.39721" lon="-0.4537">
        <ele>23.69</ele>
        <time>2014-02-02T08:16:30Z</time>
      </trkpt>
      <trkpt lat="47.39715" lon="-0.45371">
        <ele>24.17</ele>
        <time>2014-02-02T08:16:32Z</time>
      </trkpt>
      <trkpt lat="47.39688" lon="-0.45367">
        <ele>24.17</ele>
        <time>2014-02-02T08:16:40Z</time>
      </trkpt>
      <trkpt lat="47.39673" lon="-0.45366">
        <ele>24.17</ele>
        <time>2014-02-02T08:16:45Z</time>
      </trkpt>
      <trkpt lat="47.39662" lon="-0.45342">
        <ele>24.65</ele>
        <time>2014-02-02T08:16:51Z</time>
      </trkpt>
      <trkpt lat="47.39648" lon="-0.45307">
        <ele>24.65</ele>
        <time>2014-02-02T08:16:58Z</time>
      </trkpt>
      <trkpt lat="47.39632" lon="-0.45257">
        <ele>25.61</ele>
        <time>2014-02-02T08:17:07Z</time>
      </trkpt>
      <trkpt lat="47.39623" lon="-0.45241">
        <ele>24.65</ele>
        <time>2014-02-02T08:17:11Z</time>
      </trkpt>
      <trkpt lat="47.39625" lon="-0.45226">
        <ele>24.65</ele>
        <time>2014-02-02T08:17:17Z</time>
      </trkpt>
      <trkpt lat="47.39633" lon="-0.4522">
        <ele>25.61</ele>
        <time>2014-02-02T08:17:20Z</time>
      </trkpt>
      <trkpt lat="47.39652" lon="-0.45196">
        <ele>27.53</ele>
        <time>2014-02-02T08:17:27Z</time>
      </trkpt>
      <trkpt lat="47.39663" lon="-0.45186">
        <ele>28.02</ele>
        <time>2014-02-02T08:17:33Z</time>
      </trkpt>
      <trkpt lat="47.39656" lon="-0.45175">
        <ele>28.98</ele>
        <time>2014-02-02T08:17:39Z</time>
      </trkpt>
      <trkpt lat="47.39647" lon="-0.45163">
        <ele>28.98</ele>
        <time>2014-02-02T08:17:43Z</time>
      </trkpt>
      <trkpt lat="47.3965" lon="-0.4515">
        <ele>28.98</ele>
        <time>2014-02-02T08:17:46Z</time>
      </trkpt>
      <trkpt lat="47.39661" lon="-0.4512">
        <ele>28.98</ele>
        <time>2014-02-02T08:17:53Z</time>
      </trkpt>
      <trkpt lat="47.39659" lon="-0.45094">
        <ele>28.98</ele>
        <time>2014-02-02T08:17:58Z</time>
      </trkpt>
      <trkpt lat="47.39658" lon="-0.45067">
        <ele>29.46</ele>
        <time>2014-02-02T08:18:04Z</time>
      </trkpt>
      <trkpt lat="47.3965" lon="-0.45043">
        <ele>29.46</ele>
        <time>2014-02-02T08:18:09Z</time>
      </trkpt>
      <trkpt lat="47.39648" lon="-0.45039">
        <ele>29.94</ele>
        <time>2014-02-02T08:18:10Z</time>
      </trkpt>
      <trkpt lat="47.39634" lon="-0.45043">
        <ele>29.46</ele>
        <time>2014-02-02T08:18:15Z</time>
      </trkpt>
      <trkpt lat="47.39631" lon="-0.45047">
        <ele>29.94</ele>
        <time>2014-02-02T08:18:16Z</time>
      </trkpt>
      <trkpt lat="47.39593" lon="-0.45083">
        <ele>28.02</ele>
        <time>2014-02-02T08:18:26Z</time>
      </trkpt>
      <trkpt lat="47.39588" lon="-0.45087">
        <ele>28.5</ele>
        <time>2014-02-02T08:18:27Z</time>
      </trkpt>
      <trkpt lat="47.39559" lon="-0.45095">
        <ele>27.53</ele>
        <time>2014-02-02T08:18:33Z</time>
      </trkpt>
      <trkpt lat="47.39519" lon="-0.45083">
        <ele>27.53</ele>
        <time>2014-02-02T08:18:42Z</time>
      </trkpt>
      <trkpt lat="47.39477" lon="-0.45073">
        <ele>28.02</ele>
        <time>2014-02-02T08:18:51Z</time>
      </trkpt>
      <trkpt lat="47.39445" lon="-0.45074">
        <ele>27.53</ele>
        <time>2014-02-02T08:18:58Z</time>
      </trkpt>
      <trkpt lat="47.39426" lon="-0.4508">
        <ele>27.53</ele>
        <time>2014-02-02T08:19:02Z</time>
      </trkpt>
      <trkpt lat="47.39398" lon="-0.45078">
        <ele>27.05</ele>
        <time>2014-02-02T08:19:08Z</time>
      </trkpt>
      <trkpt lat="47.39363" lon="-0.45061">
        <ele>27.05</ele>
        <time>2014-02-02T08:19:17Z</time>
      </trkpt>
      <trkpt lat="47.39349" lon="-0.45061">
        <ele>27.05</ele>
        <time>2014-02-02T08:19:22Z</time>
      </trkpt>
      <trkpt lat="47.39328" lon="-0.45081">
        <ele>28.02</ele>
        <time>2014-02-02T08:19:28Z</time>
      </trkpt>
      <trkpt lat="47.39291" lon="-0.45108">
        <ele>28.02</ele>
        <time>2014-02-02T08:19:37Z</time>
      </trkpt>
      <trkpt lat="47.3926" lon="-0.45132">
        <ele>28.5</ele>
        <time>2014-02-02T08:19:45Z</time>
      </trkpt>
      <trkpt lat="47.39228" lon="-0.45154">
        <ele>28.98</ele>
        <time>2014-02-02T08:19:53Z</time>
      </trkpt>
      <trkpt lat="47.39201" lon="-0.45171">
        <ele>29.46</ele>
        <time>2014-02-02T08:20:00Z</time>
      </trkpt>
      <trkpt lat="47.39182" lon="-0.45183">
        <ele>29.94</ele>
        <time>2014-02-02T08:20:05Z</time>
      </trkpt>
      <trkpt lat="47.39151" lon="-0.45201">
        <ele>29.46</ele>
        <time>2014-02-02T08:20:13Z</time>
      </trkpt>
      <trkpt lat="47.39116" lon="-0.45223">
        <ele>30.42</ele>
        <time>2014-02-02T08:20:22Z</time>
      </trkpt>
      <trkpt lat="47.39078" lon="-0.45246">
        <ele>31.38</ele>
        <time>2014-02-02T08:20:32Z</time>
      </trkpt>
      <trkpt lat="47.39036" lon="-0.45268">
        <ele>33.78</ele>
        <time>2014-02-02T08:20:43Z</time>
      </trkpt>
      <trkpt lat="47.3901" lon="-0.45279">
        <ele>35.71</ele>
        <time>2014-02-02T08:20:50Z</time>
      </trkpt>
      <trkpt lat="47.39006" lon="-0.4528">
        <ele>36.19</ele>
        <time>2014-02-02T08:20:51Z</time>
      </trkpt>
      <trkpt lat="47.38979" lon="-0.4529">
        <ele>38.11</ele>
        <time>2014-02-02T08:20:59Z</time>
      </trkpt>
      <trkpt lat="47.3896" lon="-0.45298">
        <ele>39.07</ele>
        <time>2014-02-02T08:21:05Z</time>
      </trkpt>
      <trkpt lat="47.38935" lon="-0.45309">
        <ele>40.51</ele>
        <time>2014-02-02T08:21:13Z</time>
      </trkpt>
      <trkpt lat="47.3891" lon="-0.45322">
        <ele>41.95</ele>
        <time>2014-02-02T08:21:21Z</time>
      </trkpt>
      <trkpt lat="47.38886" lon="-0.45336">
        <ele>42.44</ele>
        <time>2014-02-02T08:21:29Z</time>
      </trkpt>
      <trkpt lat="47.38862" lon="-0.45352">
        <ele>43.88</ele>
        <time>2014-02-02T08:21:38Z</time>
      </trkpt>
      <trkpt lat="47.38842" lon="-0.45366">
        <ele>44.36</ele>
        <time>2014-02-02T08:21:46Z</time>
      </trkpt>
      <trkpt lat="47.38819" lon="-0.4538">
        <ele>45.32</ele>
        <time>2014-02-02T08:21:54Z</time>
      </trkpt>
      <trkpt lat="47.3879" lon="-0.45393">
        <ele>45.8</ele>
        <time>2014-02-02T08:22:03Z</time>
      </trkpt>
      <trkpt lat="47.38762" lon="-0.45403">
        <ele>45.8</ele>
        <time>2014-02-02T08:22:12Z</time>
      </trkpt>
      <trkpt lat="47.38733" lon="-0.45412">
        <ele>46.76</ele>
        <time>2014-02-02T08:22:21Z</time>
      </trkpt>
      <trkpt lat="47.38707" lon="-0.45421">
        <ele>47.24</ele>
        <time>2014-02-02T08:22:29Z</time>
      </trkpt>
      <trkpt lat="47.38688" lon="-0.45426">
        <ele>47.72</ele>
        <time>2014-02-02T08:22:35Z</time>
      </trkpt>
      <trkpt lat="47.38662" lon="-0.45432">
        <ele>47.72</ele>
        <time>2014-02-02T08:22:42Z</time>
      </trkpt>
      <trkpt lat="47.38634" lon="-0.45433">
        <ele>49.16</ele>
        <time>2014-02-02T08:22:50Z</time>
      </trkpt>
      <trkpt lat="47.38613" lon="-0.45425">
        <ele>49.16</ele>
        <time>2014-02-02T08:22:56Z</time>
      </trkpt>
      <trkpt lat="47.38586" lon="-0.4541">
        <ele>49.16</ele>
        <time>2014-02-02T08:23:03Z</time>
      </trkpt>
      <trkpt lat="47.3855" lon="-0.45408">
        <ele>48.68</ele>
        <time>2014-02-02T08:23:11Z</time>
      </trkpt>
      <trkpt lat="47.38511" lon="-0.45409">
        <ele>49.16</ele>
        <time>2014-02-02T08:23:19Z</time>
      </trkpt>
      <trkpt lat="47.38471" lon="-0.45407">
        <ele>48.2</ele>
        <time>2014-02-02T08:23:27Z</time>
      </trkpt>
      <trkpt lat="47.38466" lon="-0.45406">
        <ele>48.2</ele>
        <time>2014-02-02T08:23:28Z</time>
      </trkpt>
      <trkpt lat="47.38423" lon="-0.45409">
        <ele>47.72</ele>
        <time>2014-02-02T08:23:37Z</time>
      </trkpt>
      <trkpt lat="47.3839" lon="-0.45415">
        <ele>47.24</ele>
        <time>2014-02-02T08:23:44Z</time>
      </trkpt>
      <trkpt lat="47.38348" lon="-0.45425">
        <ele>48.2</ele>
        <time>2014-02-02T08:23:53Z</time>
      </trkpt>
      <trkpt lat="47.38344" lon="-0.45425">
        <ele>47.72</ele>
        <time>2014-02-02T08:23:54Z</time>
      </trkpt>
      <trkpt lat="47.38324" lon="-0.4543">
        <ele>48.2</ele>
        <time>2014-02-02T08:23:59Z</time>
      </trkpt>
      <trkpt lat="47.38315" lon="-0.4542">
        <ele>48.2</ele>
        <time>2014-02-02T08:24:02Z</time>
      </trkpt>
      <trkpt lat="47.38291" lon="-0.45365">
        <ele>49.16</ele>
        <time>2014-02-02T08:24:12Z</time>
      </trkpt>
      <trkpt lat="47.3828" lon="-0.45313">
        <ele>50.13</ele>
        <time>2014-02-02T08:24:20Z</time>
      </trkpt>
      <trkpt lat="47.38271" lon="-0.45259">
        <ele>51.09</ele>
        <time>2014-02-02T08:24:29Z</time>
      </trkpt>
      <trkpt lat="47.38261" lon="-0.45202">
        <ele>52.05</ele>
        <time>2014-02-02T08:24:39Z</time>
      </trkpt>
      <trkpt lat="47.38253" lon="-0.45153">
        <ele>53.97</ele>
        <time>2014-02-02T08:24:49Z</time>
      </trkpt>
      <trkpt lat="47.38247" lon="-0.45114">
        <ele>54.45</ele>
        <time>2014-02-02T08:24:57Z</time>
      </trkpt>
      <trkpt lat="47.38258" lon="-0.45101">
        <ele>54.93</ele>
        <time>2014-02-02T08:25:01Z</time>
      </trkpt>
      <trkpt lat="47.38301" lon="-0.4509">
        <ele>53.01</ele>
        <time>2014-02-02T08:25:11Z</time>
      </trkpt>
      <trkpt lat="47.38311" lon="-0.45087">
        <ele>53.01</ele>
        <time>2014-02-02T08:25:13Z</time>
      </trkpt>
      <trkpt lat="47.3836" lon="-0.45067">
        <ele>51.09</ele>
        <time>2014-02-02T08:25:22Z</time>
      </trkpt>
      <trkpt lat="47.38413" lon="-0.45037">
        <ele>50.13</ele>
        <time>2014-02-02T08:25:31Z</time>
      </trkpt>
      <trkpt lat="47.38433" lon="-0.45024">
        <ele>49.65</ele>
        <time>2014-02-02T08:25:35Z</time>
      </trkpt>
      <trkpt lat="47.38479" lon="-0.45005">
        <ele>48.68</ele>
        <time>2014-02-02T08:25:43Z</time>
      </trkpt>
      <trkpt lat="47.38532" lon="-0.4499">
        <ele>47.24</ele>
        <time>2014-02-02T08:25:52Z</time>
      </trkpt>
      <trkpt lat="47.38577" lon="-0.44977">
        <ele>45.8</ele>
        <time>2014-02-02T08:26:00Z</time>
      </trkpt>
      <trkpt lat="47.38624" lon="-0.44961">
        <ele>43.88</ele>
        <time>2014-02-02T08:26:07Z</time>
      </trkpt>
      <trkpt lat="47.38638" lon="-0.44954">
        <ele>42.92</ele>
        <time>2014-02-02T08:26:09Z</time>
      </trkpt>
      <trkpt lat="47.38691" lon="-0.44915">
        <ele>40.99</ele>
        <time>2014-02-02T08:26:17Z</time>
      </trkpt>
      <trkpt lat="47.38733" lon="-0.44864">
        <ele>39.07</ele>
        <time>2014-02-02T08:26:25Z</time>
      </trkpt>
      <trkpt lat="47.38752" lon="-0.44839">
        <ele>38.59</ele>
        <time>2014-02-02T08:26:29Z</time>
      </trkpt>
      <trkpt lat="47.3876" lon="-0.44807">
        <ele>38.11</ele>
        <time>2014-02-02T08:26:33Z</time>
      </trkpt>
      <trkpt lat="47.38754" lon="-0.44792">
        <ele>38.11</ele>
        <time>2014-02-02T08:26:35Z</time>
      </trkpt>
      <trkpt lat="47.38739" lon="-0.44752">
        <ele>37.63</ele>
        <time>2014-02-02T08:26:40Z</time>
      </trkpt>
      <trkpt lat="47.38728" lon="-0.44686">
        <ele>37.63</ele>
        <time>2014-02-02T08:26:48Z</time>
      </trkpt>
      <trkpt lat="47.38717" lon="-0.44612">
        <ele>37.63</ele>
        <time>2014-02-02T08:26:57Z</time>
      </trkpt>
      <trkpt lat="47.38704" lon="-0.44541">
        <ele>37.63</ele>
        <time>2014-02-02T08:27:06Z</time>
      </trkpt>
      <trkpt lat="47.38693" lon="-0.4447">
        <ele>37.15</ele>
        <time>2014-02-02T08:27:15Z</time>
      </trkpt>
      <trkpt lat="47.38681" lon="-0.44437">
        <ele>37.63</ele>
        <time>2014-02-02T08:27:20Z</time>
      </trkpt>
      <trkpt lat="47.38662" lon="-0.44377">
        <ele>38.59</ele>
        <time>2014-02-02T08:27:29Z</time>
      </trkpt>
      <trkpt lat="47.38639" lon="-0.44303">
        <ele>38.59</ele>
        <time>2014-02-02T08:27:40Z</time>
      </trkpt>
      <trkpt lat="47.38623" lon="-0.44249">
        <ele>39.07</ele>
        <time>2014-02-02T08:27:49Z</time>
      </trkpt>
      <trkpt lat="47.38617" lon="-0.4423">
        <ele>39.07</ele>
        <time>2014-02-02T08:27:52Z</time>
      </trkpt>
      <trkpt lat="47.38624" lon="-0.4421">
        <ele>38.59</ele>
        <time>2014-02-02T08:27:56Z</time>
      </trkpt>
      <trkpt lat="47.38629" lon="-0.44208">
        <ele>39.07</ele>
        <time>2014-02-02T08:27:57Z</time>
      </trkpt>
      <trkpt lat="47.38679" lon="-0.44192">
        <ele>40.03</ele>
        <time>2014-02-02T08:28:07Z</time>
      </trkpt>
      <trkpt lat="47.38733" lon="-0.44174">
        <ele>41.47</ele>
        <time>2014-02-02T08:28:18Z</time>
      </trkpt>
      <trkpt lat="47.38768" lon="-0.44165">
        <ele>40.99</ele>
        <time>2014-02-02T08:28:25Z</time>
      </trkpt>
      <trkpt lat="47.38819" lon="-0.44165">
        <ele>39.55</ele>
        <time>2014-02-02T08:28:34Z</time>
      </trkpt>
      <trkpt lat="47.38831" lon="-0.44151">
        <ele>39.55</ele>
        <time>2014-02-02T08:28:38Z</time>
      </trkpt>
      <trkpt lat="47.3883" lon="-0.44145">
        <ele>39.55</ele>
        <time>2014-02-02T08:28:39Z</time>
      </trkpt>
      <trkpt lat="47.38827" lon="-0.44083">
        <ele>40.99</ele>
        <time>2014-02-02T08:28:50Z</time>
      </trkpt>
      <trkpt lat="47.38824" lon="-0.44026">
        <ele>42.44</ele>
        <time>2014-02-02T08:29:00Z</time>
      </trkpt>
      <trkpt lat="47.38822" lon="-0.43964">
        <ele>44.84</ele>
        <time>2014-02-02T08:29:11Z</time>
      </trkpt>
      <trkpt lat="47.3882" lon="-0.43918">
        <ele>45.32</ele>
        <time>2014-02-02T08:29:19Z</time>
      </trkpt>
      <trkpt lat="47.38815" lon="-0.43866">
        <ele>46.28</ele>
        <time>2014-02-02T08:29:28Z</time>
      </trkpt>
      <trkpt lat="47.38811" lon="-0.43815">
        <ele>46.28</ele>
        <time>2014-02-02T08:29:37Z</time>
      </trkpt>
      <trkpt lat="47.38811" lon="-0.43784">
        <ele>46.76</ele>
        <time>2014-02-02T08:29:43Z</time>
      </trkpt>
      <trkpt lat="47.38826" lon="-0.43769">
        <ele>46.76</ele>
        <time>2014-02-02T08:29:48Z</time>
      </trkpt>
      <trkpt lat="47.38867" lon="-0.43745">
        <ele>46.28</ele>
        <time>2014-02-02T08:29:58Z</time>
      </trkpt>
      <trkpt lat="47.38908" lon="-0.43722">
        <ele>44.36</ele>
        <time>2014-02-02T08:30:07Z</time>
      </trkpt>
      <trkpt lat="47.38939" lon="-0.43711">
        <ele>44.84</ele>
        <time>2014-02-02T08:30:13Z</time>
      </trkpt>
      <trkpt lat="47.3896" lon="-0.43706">
        <ele>43.4</ele>
        <time>2014-02-02T08:30:17Z</time>
      </trkpt>
      <trkpt lat="47.38976" lon="-0.43698">
        <ele>43.4</ele>
        <time>2014-02-02T08:30:21Z</time>
      </trkpt>
      <trkpt lat="47.38977" lon="-0.43676">
        <ele>44.36</ele>
        <time>2014-02-02T08:30:26Z</time>
      </trkpt>
      <trkpt lat="47.38974" lon="-0.43668">
        <ele>44.84</ele>
        <time>2014-02-02T08:30:28Z</time>
      </trkpt>
      <trkpt lat="47.38962" lon="-0.43628">
        <ele>45.8</ele>
        <time>2014-02-02T08:30:37Z</time>
      </trkpt>
      <trkpt lat="47.38951" lon="-0.43595">
        <ele>46.76</ele>
        <time>2014-02-02T08:30:46Z</time>
      </trkpt>
      <trkpt lat="47.38939" lon="-0.43554">
        <ele>48.68</ele>
        <time>2014-02-02T08:30:57Z</time>
      </trkpt>
      <trkpt lat="47.38927" lon="-0.43515">
        <ele>50.13</ele>
        <time>2014-02-02T08:31:07Z</time>
      </trkpt>
      <trkpt lat="47.38915" lon="-0.43475">
        <ele>51.57</ele>
        <time>2014-02-02T08:31:17Z</time>
      </trkpt>
      <trkpt lat="47.38904" lon="-0.43437">
        <ele>53.49</ele>
        <time>2014-02-02T08:31:27Z</time>
      </trkpt>
      <trkpt lat="47.38894" lon="-0.43402">
        <ele>54.93</ele>
        <time>2014-02-02T08:31:36Z</time>
      </trkpt>
      <trkpt lat="47.38882" lon="-0.43366">
        <ele>56.37</ele>
        <time>2014-02-02T08:31:46Z</time>
      </trkpt>
      <trkpt lat="47.38877" lon="-0.43351">
        <ele>56.86</ele>
        <time>2014-02-02T08:31:50Z</time>
      </trkpt>
      <trkpt lat="47.38862" lon="-0.43348">
        <ele>57.82</ele>
        <time>2014-02-02T08:31:56Z</time>
      </trkpt>
      <trkpt lat="47.38838" lon="-0.43341">
        <ele>58.3</ele>
        <time>2014-02-02T08:32:04Z</time>
      </trkpt>
      <trkpt lat="47.38813" lon="-0.4333">
        <ele>59.26</ele>
        <time>2014-02-02T08:32:13Z</time>
      </trkpt>
      <trkpt lat="47.38787" lon="-0.43318">
        <ele>60.22</ele>
        <time>2014-02-02T08:32:22Z</time>
      </trkpt>
      <trkpt lat="47.38753" lon="-0.43306">
        <ele>60.22</ele>
        <time>2014-02-02T08:32:32Z</time>
      </trkpt>
      <trkpt lat="47.38721" lon="-0.43295">
        <ele>60.22</ele>
        <time>2014-02-02T08:32:41Z</time>
      </trkpt>
      <trkpt lat="47.38684" lon="-0.43284">
        <ele>60.7</ele>
        <time>2014-02-02T08:32:51Z</time>
      </trkpt>
      <trkpt lat="47.38647" lon="-0.43281">
        <ele>60.7</ele>
        <time>2014-02-02T08:33:01Z</time>
      </trkpt>
      <trkpt lat="47.38623" lon="-0.43273">
        <ele>60.7</ele>
        <time>2014-02-02T08:33:08Z</time>
      </trkpt>
      <trkpt lat="47.38614" lon="-0.4325">
        <ele>60.7</ele>
        <time>2014-02-02T08:33:13Z</time>
      </trkpt>
      <trkpt lat="47.386" lon="-0.43197">
        <ele>61.18</ele>
        <time>2014-02-02T08:33:22Z</time>
      </trkpt>
      <trkpt lat="47.38591" lon="-0.4317">
        <ele>60.7</ele>
        <time>2014-02-02T08:33:27Z</time>
      </trkpt>
      <trkpt lat="47.38578" lon="-0.43116">
        <ele>60.7</ele>
        <time>2014-02-02T08:33:36Z</time>
      </trkpt>
      <trkpt lat="47.3857" lon="-0.43067">
        <ele>61.18</ele>
        <time>2014-02-02T08:33:44Z</time>
      </trkpt>
      <trkpt lat="47.38565" lon="-0.43035">
        <ele>61.18</ele>
        <time>2014-02-02T08:33:49Z</time>
      </trkpt>
      <trkpt lat="47.38559" lon="-0.42999">
        <ele>61.66</ele>
        <time>2014-02-02T08:33:55Z</time>
      </trkpt>
      <trkpt lat="47.38554" lon="-0.42976">
        <ele>61.66</ele>
        <time>2014-02-02T08:33:59Z</time>
      </trkpt>
      <trkpt lat="47.38534" lon="-0.42923">
        <ele>61.18</ele>
        <time>2014-02-02T08:34:08Z</time>
      </trkpt>
      <trkpt lat="47.38505" lon="-0.42877">
        <ele>61.18</ele>
        <time>2014-02-02T08:34:17Z</time>
      </trkpt>
      <trkpt lat="47.38501" lon="-0.42872">
        <ele>60.7</ele>
        <time>2014-02-02T08:34:18Z</time>
      </trkpt>
      <trkpt lat="47.38477" lon="-0.42837">
        <ele>60.22</ele>
        <time>2014-02-02T08:34:25Z</time>
      </trkpt>
      <trkpt lat="47.3847" lon="-0.42813">
        <ele>59.74</ele>
        <time>2014-02-02T08:34:29Z</time>
      </trkpt>
      <trkpt lat="47.38461" lon="-0.42758">
        <ele>60.7</ele>
        <time>2014-02-02T08:34:38Z</time>
      </trkpt>
      <trkpt lat="47.38452" lon="-0.4271">
        <ele>60.22</ele>
        <time>2014-02-02T08:34:47Z</time>
      </trkpt>
      <trkpt lat="47.38448" lon="-0.42672">
        <ele>61.18</ele>
        <time>2014-02-02T08:34:55Z</time>
      </trkpt>
      <trkpt lat="47.38447" lon="-0.42647">
        <ele>61.18</ele>
        <time>2014-02-02T08:35:01Z</time>
      </trkpt>
      <trkpt lat="47.38446" lon="-0.42625">
        <ele>60.7</ele>
        <time>2014-02-02T08:35:08Z</time>
      </trkpt>
      <trkpt lat="47.38446" lon="-0.42621">
        <ele>61.66</ele>
        <time>2014-02-02T08:35:10Z</time>
      </trkpt>
      <trkpt lat="47.38441" lon="-0.42596">
        <ele>61.66</ele>
        <time>2014-02-02T08:35:18Z</time>
      </trkpt>
      <trkpt lat="47.38438" lon="-0.4258">
        <ele>62.62</ele>
        <time>2014-02-02T08:35:24Z</time>
      </trkpt>
      <trkpt lat="47.38434" lon="-0.42561">
        <ele>63.58</ele>
        <time>2014-02-02T08:35:33Z</time>
      </trkpt>
      <trkpt lat="47.38434" lon="-0.42555">
        <ele>64.07</ele>
        <time>2014-02-02T08:35:35Z</time>
      </trkpt>
      <trkpt lat="47.38434" lon="-0.42543">
        <ele>64.55</ele>
        <time>2014-02-02T08:35:39Z</time>
      </trkpt>
      <trkpt lat="47.38434" lon="-0.4252">
        <ele>65.03</ele>
        <time>2014-02-02T08:35:47Z</time>
      </trkpt>
      <trkpt lat="47.38436" lon="-0.42501">
        <ele>66.47</ele>
        <time>2014-02-02T08:35:54Z</time>
      </trkpt>
      <trkpt lat="47.38436" lon="-0.42499">
        <ele>66.47</ele>
        <time>2014-02-02T08:35:55Z</time>
      </trkpt>
      <trkpt lat="47.38437" lon="-0.42491">
        <ele>67.43</ele>
        <time>2014-02-02T08:35:58Z</time>
      </trkpt>
      <trkpt lat="47.38438" lon="-0.42474">
        <ele>68.87</ele>
        <time>2014-02-02T08:36:05Z</time>
      </trkpt>
      <trkpt lat="47.38437" lon="-0.42453">
        <ele>70.79</ele>
        <time>2014-02-02T08:36:14Z</time>
      </trkpt>
      <trkpt lat="47.38437" lon="-0.42447">
        <ele>70.79</ele>
        <time>2014-02-02T08:36:16Z</time>
      </trkpt>
      <trkpt lat="47.38437" lon="-0.4244">
        <ele>71.76</ele>
        <time>2014-02-02T08:36:19Z</time>
      </trkpt>
      <trkpt lat="47.38436" lon="-0.42424">
        <ele>73.2</ele>
        <time>2014-02-02T08:36:27Z</time>
      </trkpt>
      <trkpt lat="47.38435" lon="-0.42421">
        <ele>73.2</ele>
        <time>2014-02-02T08:36:29Z</time>
      </trkpt>
      <trkpt lat="47.38434" lon="-0.42411">
        <ele>73.68</ele>
        <time>2014-02-02T08:36:33Z</time>
      </trkpt>
      <trkpt lat="47.38433" lon="-0.42405">
        <ele>74.16</ele>
        <time>2014-02-02T08:36:35Z</time>
      </trkpt>
      <trkpt lat="47.38443" lon="-0.42393">
        <ele>74.16</ele>
        <time>2014-02-02T08:36:42Z</time>
      </trkpt>
      <trkpt lat="47.3845" lon="-0.42387">
        <ele>75.12</ele>
        <time>2014-02-02T08:36:47Z</time>
      </trkpt>
      <trkpt lat="47.38447" lon="-0.42379">
        <ele>75.6</ele>
        <time>2014-02-02T08:36:52Z</time>
      </trkpt>
      <trkpt lat="47.38435" lon="-0.42367">
        <ele>76.56</ele>
        <time>2014-02-02T08:37:00Z</time>
      </trkpt>
      <trkpt lat="47.38434" lon="-0.42366">
        <ele>76.08</ele>
        <time>2014-02-02T08:37:01Z</time>
      </trkpt>
      <trkpt lat="47.38431" lon="-0.42353">
        <ele>76.08</ele>
        <time>2014-02-02T08:37:09Z</time>
      </trkpt>
      <trkpt lat="47.38429" lon="-0.42348">
        <ele>76.08</ele>
        <time>2014-02-02T08:37:16Z</time>
      </trkpt>
      <trkpt lat="47.38429" lon="-0.42345">
        <ele>76.08</ele>
        <time>2014-02-02T08:37:19Z</time>
      </trkpt>
      <trkpt lat="47.3843" lon="-0.42331">
        <ele>75.6</ele>
        <time>2014-02-02T08:37:29Z</time>
      </trkpt>
      <trkpt lat="47.38431" lon="-0.42321">
        <ele>75.12</ele>
        <time>2014-02-02T08:37:35Z</time>
      </trkpt>
      <trkpt lat="47.38432" lon="-0.42317">
        <ele>75.6</ele>
        <time>2014-02-02T08:37:36Z</time>
      </trkpt>
      <trkpt lat="47.38436" lon="-0.42301">
        <ele>74.16</ele>
        <time>2014-02-02T08:37:41Z</time>
      </trkpt>
      <trkpt lat="47.38439" lon="-0.42281">
        <ele>72.72</ele>
        <time>2014-02-02T08:37:48Z</time>
      </trkpt>
      <trkpt lat="47.38442" lon="-0.42264">
        <ele>72.72</ele>
        <time>2014-02-02T08:37:53Z</time>
      </trkpt>
      <trkpt lat="47.38445" lon="-0.42242">
        <ele>71.76</ele>
        <time>2014-02-02T08:37:59Z</time>
      </trkpt>
      <trkpt lat="47.38448" lon="-0.42209">
        <ele>70.31</ele>
        <time>2014-02-02T08:38:06Z</time>
      </trkpt>
      <trkpt lat="47.38457" lon="-0.42173">
        <ele>70.79</ele>
        <time>2014-02-02T08:38:13Z</time>
      </trkpt>
      <trkpt lat="47.38469" lon="-0.42135">
        <ele>71.27</ele>
        <time>2014-02-02T08:38:22Z</time>
      </trkpt>
      <trkpt lat="47.38479" lon="-0.421">
        <ele>71.27</ele>
        <time>2014-02-02T08:38:31Z</time>
      </trkpt>
      <trkpt lat="47.38481" lon="-0.42075">
        <ele>72.72</ele>
        <time>2014-02-02T08:38:37Z</time>
      </trkpt>
      <trkpt lat="47.3848" lon="-0.4204">
        <ele>73.68</ele>
        <time>2014-02-02T08:38:46Z</time>
      </trkpt>
      <trkpt lat="47.3848" lon="-0.4201">
        <ele>74.64</ele>
        <time>2014-02-02T08:38:53Z</time>
      </trkpt>
      <trkpt lat="47.38484" lon="-0.41994">
        <ele>75.12</ele>
        <time>2014-02-02T08:38:57Z</time>
      </trkpt>
      <trkpt lat="47.38502" lon="-0.41985">
        <ele>76.08</ele>
        <time>2014-02-02T08:39:05Z</time>
      </trkpt>
      <trkpt lat="47.38522" lon="-0.41981">
        <ele>76.56</ele>
        <time>2014-02-02T08:39:12Z</time>
      </trkpt>
      <trkpt lat="47.38542" lon="-0.41977">
        <ele>77.52</ele>
        <time>2014-02-02T08:39:20Z</time>
      </trkpt>
      <trkpt lat="47.38559" lon="-0.41973">
        <ele>77.04</ele>
        <time>2014-02-02T08:39:27Z</time>
      </trkpt>
      <trkpt lat="47.38575" lon="-0.41968">
        <ele>76.56</ele>
        <time>2014-02-02T08:39:35Z</time>
      </trkpt>
      <trkpt lat="47.38579" lon="-0.41966">
        <ele>76.56</ele>
        <time>2014-02-02T08:39:37Z</time>
      </trkpt>
      <trkpt lat="47.38594" lon="-0.41964">
        <ele>77.04</ele>
        <time>2014-02-02T08:39:46Z</time>
      </trkpt>
      <trkpt lat="47.38608" lon="-0.41959">
        <ele>77.04</ele>
        <time>2014-02-02T08:39:54Z</time>
      </trkpt>
      <trkpt lat="47.38619" lon="-0.41957">
        <ele>77.04</ele>
        <time>2014-02-02T08:40:00Z</time>
      </trkpt>
      <trkpt lat="47.38622" lon="-0.41944">
        <ele>78</ele>
        <time>2014-02-02T08:40:05Z</time>
      </trkpt>
      <trkpt lat="47.38613" lon="-0.419">
        <ele>78</ele>
        <time>2014-02-02T08:40:16Z</time>
      </trkpt>
      <trkpt lat="47.38605" lon="-0.41859">
        <ele>78.48</ele>
        <time>2014-02-02T08:40:25Z</time>
      </trkpt>
      <trkpt lat="47.38597" lon="-0.41818">
        <ele>78</ele>
        <time>2014-02-02T08:40:34Z</time>
      </trkpt>
      <trkpt lat="47.38588" lon="-0.41773">
        <ele>78</ele>
        <time>2014-02-02T08:40:43Z</time>
      </trkpt>
      <trkpt lat="47.38578" lon="-0.41722">
        <ele>77.52</ele>
        <time>2014-02-02T08:40:53Z</time>
      </trkpt>
      <trkpt lat="47.38568" lon="-0.41669">
        <ele>78</ele>
        <time>2014-02-02T08:41:03Z</time>
      </trkpt>
      <trkpt lat="47.38559" lon="-0.41623">
        <ele>78</ele>
        <time>2014-02-02T08:41:12Z</time>
      </trkpt>
      <trkpt lat="47.38549" lon="-0.41568">
        <ele>78.97</ele>
        <time>2014-02-02T08:41:22Z</time>
      </trkpt>
      <trkpt lat="47.38537" lon="-0.41504">
        <ele>79.45</ele>
        <time>2014-02-02T08:41:33Z</time>
      </trkpt>
      <trkpt lat="47.38524" lon="-0.41438">
        <ele>78.97</ele>
        <time>2014-02-02T08:41:44Z</time>
      </trkpt>
      <trkpt lat="47.38521" lon="-0.41419">
        <ele>79.45</ele>
        <time>2014-02-02T08:41:47Z</time>
      </trkpt>
      <trkpt lat="47.38528" lon="-0.41402">
        <ele>78.97</ele>
        <time>2014-02-02T08:41:51Z</time>
      </trkpt>
      <trkpt lat="47.38546" lon="-0.41396">
        <ele>79.93</ele>
        <time>2014-02-02T08:41:55Z</time>
      </trkpt>
      <trkpt lat="47.38572" lon="-0.41386">
        <ele>78.97</ele>
        <time>2014-02-02T08:42:01Z</time>
      </trkpt>
      <trkpt lat="47.38611" lon="-0.41371">
        <ele>79.93</ele>
        <time>2014-02-02T08:42:10Z</time>
      </trkpt>
      <trkpt lat="47.38619" lon="-0.41367">
        <ele>79.45</ele>
        <time>2014-02-02T08:42:12Z</time>
      </trkpt>
      <trkpt lat="47.38626" lon="-0.41346">
        <ele>79.45</ele>
        <time>2014-02-02T08:42:16Z</time>
      </trkpt>
      <trkpt lat="47.38625" lon="-0.41339">
        <ele>79.45</ele>
        <time>2014-02-02T08:42:17Z</time>
      </trkpt>
      <trkpt lat="47.38611" lon="-0.41266">
        <ele>78.97</ele>
        <time>2014-02-02T08:42:27Z</time>
      </trkpt>
      <trkpt lat="47.386" lon="-0.41211">
        <ele>79.45</ele>
        <time>2014-02-02T08:42:36Z</time>
      </trkpt>
      <trkpt lat="47.38595" lon="-0.41188">
        <ele>78.48</ele>
        <time>2014-02-02T08:42:40Z</time>
      </trkpt>
      <trkpt lat="47.38581" lon="-0.41111">
        <ele>78.48</ele>
        <time>2014-02-02T08:42:52Z</time>
      </trkpt>
      <trkpt lat="47.38569" lon="-0.41043">
        <ele>78</ele>
        <time>2014-02-02T08:43:01Z</time>
      </trkpt>
      <trkpt lat="47.38559" lon="-0.40987">
        <ele>79.45</ele>
        <time>2014-02-02T08:43:09Z</time>
      </trkpt>
      <trkpt lat="47.38557" lon="-0.40981">
        <ele>78</ele>
        <time>2014-02-02T08:43:10Z</time>
      </trkpt>
      <trkpt lat="47.38555" lon="-0.40969">
        <ele>84.25</ele>
        <time>2014-02-02T08:43:12Z</time>
      </trkpt>
      <trkpt lat="47.38554" lon="-0.40963">
        <ele>78.48</ele>
        <time>2014-02-02T08:43:13Z</time>
      </trkpt>
      <trkpt lat="47.38553" lon="-0.40957">
        <ele>66.47</ele>
        <time>2014-02-02T08:43:14Z</time>
      </trkpt>
      <trkpt lat="47.38552" lon="-0.40952">
        <ele>80.41</ele>
        <time>2014-02-02T08:43:15Z</time>
      </trkpt>
      <trkpt lat="47.38545" lon="-0.40911">
        <ele>78.97</ele>
        <time>2014-02-02T08:43:22Z</time>
      </trkpt>
      <trkpt lat="47.38539" lon="-0.40887">
        <ele>78.48</ele>
        <time>2014-02-02T08:43:26Z</time>
      </trkpt>
      <trkpt lat="47.38521" lon="-0.40869">
        <ele>79.45</ele>
        <time>2014-02-02T08:43:31Z</time>
      </trkpt>
      <trkpt lat="47.38516" lon="-0.40869">
        <ele>79.45</ele>
        <time>2014-02-02T08:43:32Z</time>
      </trkpt>
      <trkpt lat="47.38506" lon="-0.40872">
        <ele>79.45</ele>
        <time>2014-02-02T08:43:34Z</time>
      </trkpt>
      <trkpt lat="47.38485" lon="-0.40861">
        <ele>78.48</ele>
        <time>2014-02-02T08:43:39Z</time>
      </trkpt>
      <trkpt lat="47.38484" lon="-0.40855">
        <ele>78.48</ele>
        <time>2014-02-02T08:43:40Z</time>
      </trkpt>
      <trkpt lat="47.3847" lon="-0.40785">
        <ele>78.48</ele>
        <time>2014-02-02T08:43:51Z</time>
      </trkpt>
      <trkpt lat="47.38455" lon="-0.40709">
        <ele>77.52</ele>
        <time>2014-02-02T08:44:02Z</time>
      </trkpt>
      <trkpt lat="47.38444" lon="-0.4065">
        <ele>76.56</ele>
        <time>2014-02-02T08:44:10Z</time>
      </trkpt>
      <trkpt lat="47.3844" lon="-0.40637">
        <ele>77.04</ele>
        <time>2014-02-02T08:44:12Z</time>
      </trkpt>
      <trkpt lat="47.38429" lon="-0.40614">
        <ele>77.04</ele>
        <time>2014-02-02T08:44:16Z</time>
      </trkpt>
      <trkpt lat="47.38406" lon="-0.40569">
        <ele>77.04</ele>
        <time>2014-02-02T08:44:24Z</time>
      </trkpt>
      <trkpt lat="47.3839" lon="-0.4056">
        <ele>76.08</ele>
        <time>2014-02-02T08:44:28Z</time>
      </trkpt>
      <trkpt lat="47.38385" lon="-0.40561">
        <ele>75.6</ele>
        <time>2014-02-02T08:44:29Z</time>
      </trkpt>
      <trkpt lat="47.3835" lon="-0.40573">
        <ele>74.16</ele>
        <time>2014-02-02T08:44:36Z</time>
      </trkpt>
      <trkpt lat="47.38315" lon="-0.40572">
        <ele>72.72</ele>
        <time>2014-02-02T08:44:42Z</time>
      </trkpt>
      <trkpt lat="47.38311" lon="-0.40568">
        <ele>73.2</ele>
        <time>2014-02-02T08:44:43Z</time>
      </trkpt>
      <trkpt lat="47.38292" lon="-0.4055">
        <ele>72.24</ele>
        <time>2014-02-02T08:44:47Z</time>
      </trkpt>
      <trkpt lat="47.3827" lon="-0.40538">
        <ele>71.27</ele>
        <time>2014-02-02T08:44:52Z</time>
      </trkpt>
      <trkpt lat="47.38265" lon="-0.4051">
        <ele>71.76</ele>
        <time>2014-02-02T08:44:58Z</time>
      </trkpt>
      <trkpt lat="47.38267" lon="-0.40497">
        <ele>72.24</ele>
        <time>2014-02-02T08:45:00Z</time>
      </trkpt>
      <trkpt lat="47.38275" lon="-0.40467">
        <ele>72.72</ele>
        <time>2014-02-02T08:45:05Z</time>
      </trkpt>
      <trkpt lat="47.383" lon="-0.40424">
        <ele>75.12</ele>
        <time>2014-02-02T08:45:13Z</time>
      </trkpt>
      <trkpt lat="47.38327" lon="-0.40392">
        <ele>76.56</ele>
        <time>2014-02-02T08:45:20Z</time>
      </trkpt>
      <trkpt lat="47.38346" lon="-0.40363">
        <ele>77.04</ele>
        <time>2014-02-02T08:45:28Z</time>
      </trkpt>
      <trkpt lat="47.38362" lon="-0.40318">
        <ele>76.56</ele>
        <time>2014-02-02T08:45:36Z</time>
      </trkpt>
      <trkpt lat="47.38369" lon="-0.40288">
        <ele>77.04</ele>
        <time>2014-02-02T08:45:41Z</time>
      </trkpt>
      <trkpt lat="47.38374" lon="-0.40248">
        <ele>77.52</ele>
        <time>2014-02-02T08:45:47Z</time>
      </trkpt>
      <trkpt lat="47.38374" lon="-0.40235">
        <ele>77.04</ele>
        <time>2014-02-02T08:45:49Z</time>
      </trkpt>
      <trkpt lat="47.38372" lon="-0.40208">
        <ele>77.52</ele>
        <time>2014-02-02T08:45:53Z</time>
      </trkpt>
      <trkpt lat="47.38368" lon="-0.40188">
        <ele>77.52</ele>
        <time>2014-02-02T08:45:56Z</time>
      </trkpt>
      <trkpt lat="47.38359" lon="-0.40161">
        <ele>77.52</ele>
        <time>2014-02-02T08:46:00Z</time>
      </trkpt>
      <trkpt lat="47.38333" lon="-0.40075">
        <ele>78</ele>
        <time>2014-02-02T08:46:12Z</time>
      </trkpt>
      <trkpt lat="47.38306" lon="-0.4001">
        <ele>78.97</ele>
        <time>2014-02-02T08:46:22Z</time>
      </trkpt>
      <trkpt lat="47.38296" lon="-0.39967">
        <ele>78</ele>
        <time>2014-02-02T08:46:28Z</time>
      </trkpt>
      <trkpt lat="47.38285" lon="-0.39937">
        <ele>78</ele>
        <time>2014-02-02T08:46:33Z</time>
      </trkpt>
      <trkpt lat="47.38292" lon="-0.39921">
        <ele>77.52</ele>
        <time>2014-02-02T08:46:38Z</time>
      </trkpt>
      <trkpt lat="47.38297" lon="-0.39921">
        <ele>77.52</ele>
        <time>2014-02-02T08:46:40Z</time>
      </trkpt>
      <trkpt lat="47.3832" lon="-0.39917">
        <ele>78</ele>
        <time>2014-02-02T08:46:49Z</time>
      </trkpt>
      <trkpt lat="47.38343" lon="-0.3991">
        <ele>78.48</ele>
        <time>2014-02-02T08:46:56Z</time>
      </trkpt>
      <trkpt lat="47.3836" lon="-0.39902">
        <ele>78</ele>
        <time>2014-02-02T08:47:02Z</time>
      </trkpt>
      <trkpt lat="47.3838" lon="-0.39894">
        <ele>78.48</ele>
        <time>2014-02-02T08:47:09Z</time>
      </trkpt>
      <trkpt lat="47.38404" lon="-0.39886">
        <ele>78.48</ele>
        <time>2014-02-02T08:47:17Z</time>
      </trkpt>
      <trkpt lat="47.38419" lon="-0.3988">
        <ele>78.48</ele>
        <time>2014-02-02T08:47:23Z</time>
      </trkpt>
      <trkpt lat="47.38434" lon="-0.39873">
        <ele>78.97</ele>
        <time>2014-02-02T08:47:29Z</time>
      </trkpt>
      <trkpt lat="47.38451" lon="-0.3987">
        <ele>78.97</ele>
        <time>2014-02-02T08:47:36Z</time>
      </trkpt>
      <trkpt lat="47.38466" lon="-0.39876">
        <ele>79.93</ele>
        <time>2014-02-02T08:47:43Z</time>
      </trkpt>
      <trkpt lat="47.38479" lon="-0.39881">
        <ele>79.45</ele>
        <time>2014-02-02T08:47:49Z</time>
      </trkpt>
      <trkpt lat="47.38495" lon="-0.39883">
        <ele>79.93</ele>
        <time>2014-02-02T08:47:55Z</time>
      </trkpt>
      <trkpt lat="47.38517" lon="-0.39879">
        <ele>78.97</ele>
        <time>2014-02-02T08:48:02Z</time>
      </trkpt>
      <trkpt lat="47.38539" lon="-0.39873">
        <ele>79.45</ele>
        <time>2014-02-02T08:48:08Z</time>
      </trkpt>
      <trkpt lat="47.38567" lon="-0.39864">
        <ele>78.48</ele>
        <time>2014-02-02T08:48:15Z</time>
      </trkpt>
      <trkpt lat="47.38601" lon="-0.39853">
        <ele>78.48</ele>
        <time>2014-02-02T08:48:22Z</time>
      </trkpt>
      <trkpt lat="47.3863" lon="-0.39842">
        <ele>78.48</ele>
        <time>2014-02-02T08:48:29Z</time>
      </trkpt>
      <trkpt lat="47.38636" lon="-0.39838">
        <ele>78.48</ele>
        <time>2014-02-02T08:48:31Z</time>
      </trkpt>
      <trkpt lat="47.38635" lon="-0.39818">
        <ele>78</ele>
        <time>2014-02-02T08:48:36Z</time>
      </trkpt>
      <trkpt lat="47.38633" lon="-0.39814">
        <ele>77.52</ele>
        <time>2014-02-02T08:48:37Z</time>
      </trkpt>
      <trkpt lat="47.38607" lon="-0.39754">
        <ele>77.52</ele>
        <time>2014-02-02T08:48:48Z</time>
      </trkpt>
      <trkpt lat="47.38587" lon="-0.39714">
        <ele>78</ele>
        <time>2014-02-02T08:48:55Z</time>
      </trkpt>
      <trkpt lat="47.38577" lon="-0.3969">
        <ele>78</ele>
        <time>2014-02-02T08:48:59Z</time>
      </trkpt>
      <trkpt lat="47.38573" lon="-0.39676">
        <ele>78</ele>
        <time>2014-02-02T08:49:01Z</time>
      </trkpt>
      <trkpt lat="47.3857" lon="-0.39621">
        <ele>78</ele>
        <time>2014-02-02T08:49:08Z</time>
      </trkpt>
      <trkpt lat="47.38572" lon="-0.3957">
        <ele>77.04</ele>
        <time>2014-02-02T08:49:14Z</time>
      </trkpt>
      <trkpt lat="47.38574" lon="-0.39554">
        <ele>77.04</ele>
        <time>2014-02-02T08:49:16Z</time>
      </trkpt>
      <trkpt lat="47.38571" lon="-0.39524">
        <ele>76.56</ele>
        <time>2014-02-02T08:49:21Z</time>
      </trkpt>
      <trkpt lat="47.38573" lon="-0.39524">
        <ele>76.08</ele>
        <time>2014-02-02T08:49:22Z</time>
      </trkpt>
      <trkpt lat="47.38576" lon="-0.39534">
        <ele>76.56</ele>
        <time>2014-02-02T08:49:27Z</time>
      </trkpt>
      <trkpt lat="47.38574" lon="-0.39571">
        <ele>77.52</ele>
        <time>2014-02-02T08:49:34Z</time>
      </trkpt>
      <trkpt lat="47.38574" lon="-0.39583">
        <ele>78</ele>
        <time>2014-02-02T08:49:36Z</time>
      </trkpt>
      <trkpt lat="47.38584" lon="-0.39602">
        <ele>77.04</ele>
        <time>2014-02-02T08:49:40Z</time>
      </trkpt>
      <trkpt lat="47.38588" lon="-0.39604">
        <ele>77.52</ele>
        <time>2014-02-02T08:49:41Z</time>
      </trkpt>
      <trkpt lat="47.38622" lon="-0.39607">
        <ele>77.52</ele>
        <time>2014-02-02T08:49:48Z</time>
      </trkpt>
      <trkpt lat="47.38663" lon="-0.39619">
        <ele>76.56</ele>
        <time>2014-02-02T08:49:56Z</time>
      </trkpt>
      <trkpt lat="47.38711" lon="-0.39628">
        <ele>76.08</ele>
        <time>2014-02-02T08:50:04Z</time>
      </trkpt>
      <trkpt lat="47.38746" lon="-0.39627">
        <ele>75.6</ele>
        <time>2014-02-02T08:50:10Z</time>
      </trkpt>
      <trkpt lat="47.3879" lon="-0.39618">
        <ele>75.6</ele>
        <time>2014-02-02T08:50:18Z</time>
      </trkpt>
      <trkpt lat="47.38839" lon="-0.39608">
        <ele>76.08</ele>
        <time>2014-02-02T08:50:27Z</time>
      </trkpt>
      <trkpt lat="47.38885" lon="-0.39596">
        <ele>76.08</ele>
        <time>2014-02-02T08:50:35Z</time>
      </trkpt>
      <trkpt lat="47.38925" lon="-0.3958">
        <ele>76.08</ele>
        <time>2014-02-02T08:50:43Z</time>
      </trkpt>
      <trkpt lat="47.38935" lon="-0.39593">
        <ele>76.08</ele>
        <time>2014-02-02T08:50:47Z</time>
      </trkpt>
      <trkpt lat="47.38938" lon="-0.3961">
        <ele>76.56</ele>
        <time>2014-02-02T08:50:50Z</time>
      </trkpt>
      <trkpt lat="47.38938" lon="-0.39623">
        <ele>76.08</ele>
        <time>2014-02-02T08:50:52Z</time>
      </trkpt>
      <trkpt lat="47.38934" lon="-0.39673">
        <ele>77.04</ele>
        <time>2014-02-02T08:50:59Z</time>
      </trkpt>
      <trkpt lat="47.38928" lon="-0.39724">
        <ele>77.52</ele>
        <time>2014-02-02T08:51:07Z</time>
      </trkpt>
      <trkpt lat="47.38928" lon="-0.39742">
        <ele>77.52</ele>
        <time>2014-02-02T08:51:10Z</time>
      </trkpt>
      <trkpt lat="47.38929" lon="-0.39801">
        <ele>78</ele>
        <time>2014-02-02T08:51:19Z</time>
      </trkpt>
      <trkpt lat="47.38931" lon="-0.39846">
        <ele>78</ele>
        <time>2014-02-02T08:51:26Z</time>
      </trkpt>
      <trkpt lat="47.38934" lon="-0.39853">
        <ele>78.48</ele>
        <time>2014-02-02T08:51:28Z</time>
      </trkpt>
      <trkpt lat="47.38947" lon="-0.39856">
        <ele>78</ele>
        <time>2014-02-02T08:51:33Z</time>
      </trkpt>
      <trkpt lat="47.3897" lon="-0.39848">
        <ele>76.56</ele>
        <time>2014-02-02T08:51:40Z</time>
      </trkpt>
      <trkpt lat="47.38983" lon="-0.39846">
        <ele>76.08</ele>
        <time>2014-02-02T08:51:45Z</time>
      </trkpt>
      <trkpt lat="47.38996" lon="-0.39846">
        <ele>76.56</ele>
        <time>2014-02-02T08:51:50Z</time>
      </trkpt>
      <trkpt lat="47.3901" lon="-0.39854">
        <ele>76.56</ele>
        <time>2014-02-02T08:51:54Z</time>
      </trkpt>
      <trkpt lat="47.39036" lon="-0.39889">
        <ele>76.08</ele>
        <time>2014-02-02T08:52:02Z</time>
      </trkpt>
      <trkpt lat="47.39052" lon="-0.3991">
        <ele>75.12</ele>
        <time>2014-02-02T08:52:08Z</time>
      </trkpt>
      <trkpt lat="47.39061" lon="-0.39918">
        <ele>75.6</ele>
        <time>2014-02-02T08:52:12Z</time>
      </trkpt>
      <trkpt lat="47.39072" lon="-0.39919">
        <ele>75.6</ele>
        <time>2014-02-02T08:52:18Z</time>
      </trkpt>
      <trkpt lat="47.39076" lon="-0.39921">
        <ele>75.6</ele>
        <time>2014-02-02T08:52:24Z</time>
      </trkpt>
      <trkpt lat="47.39079" lon="-0.3992">
        <ele>75.12</ele>
        <time>2014-02-02T08:52:29Z</time>
      </trkpt>
      <trkpt lat="47.39086" lon="-0.39923">
        <ele>75.6</ele>
        <time>2014-02-02T08:52:37Z</time>
      </trkpt>
      <trkpt lat="47.3909" lon="-0.39923">
        <ele>74.64</ele>
        <time>2014-02-02T08:52:42Z</time>
      </trkpt>
      <trkpt lat="47.39094" lon="-0.39923">
        <ele>75.12</ele>
        <time>2014-02-02T08:52:47Z</time>
      </trkpt>
      <trkpt lat="47.39099" lon="-0.39923">
        <ele>76.08</ele>
        <time>2014-02-02T08:52:54Z</time>
      </trkpt>
      <trkpt lat="47.39104" lon="-0.39922">
        <ele>76.08</ele>
        <time>2014-02-02T08:53:01Z</time>
      </trkpt>
      <trkpt lat="47.39109" lon="-0.39923">
        <ele>76.08</ele>
        <time>2014-02-02T08:53:09Z</time>
      </trkpt>
      <trkpt lat="47.39111" lon="-0.39923">
        <ele>76.08</ele>
        <time>2014-02-02T08:53:17Z</time>
      </trkpt>
      <trkpt lat="47.39111" lon="-0.39923">
        <ele>75.6</ele>
        <time>2014-02-02T08:53:27Z</time>
      </trkpt>
      <trkpt lat="47.39111" lon="-0.39923">
        <ele>75.6</ele>
        <time>2014-02-02T08:53:30Z</time>
      </trkpt>
      <trkpt lat="47.39123" lon="-0.39925">
        <ele>76.08</ele>
        <time>2014-02-02T08:53:37Z</time>
      </trkpt>
      <trkpt lat="47.39133" lon="-0.39931">
        <ele>75.6</ele>
        <time>2014-02-02T08:53:43Z</time>
      </trkpt>
      <trkpt lat="47.39141" lon="-0.39949">
        <ele>75.6</ele>
        <time>2014-02-02T08:53:49Z</time>
      </trkpt>
      <trkpt lat="47.39142" lon="-0.39957">
        <ele>76.08</ele>
        <time>2014-02-02T08:53:51Z</time>
      </trkpt>
      <trkpt lat="47.39159" lon="-0.39972">
        <ele>76.08</ele>
        <time>2014-02-02T08:53:57Z</time>
      </trkpt>
      <trkpt lat="47.39172" lon="-0.39984">
        <ele>76.08</ele>
        <time>2014-02-02T08:54:03Z</time>
      </trkpt>
      <trkpt lat="47.39171" lon="-0.39983">
        <ele>75.6</ele>
        <time>2014-02-02T08:54:10Z</time>
      </trkpt>
      <trkpt lat="47.39171" lon="-0.39983">
        <ele>75.6</ele>
        <time>2014-02-02T08:54:26Z</time>
      </trkpt>
      <trkpt lat="47.39172" lon="-0.39985">
        <ele>76.08</ele>
        <time>2014-02-02T08:54:38Z</time>
      </trkpt>
      <trkpt lat="47.39178" lon="-0.39986">
        <ele>76.08</ele>
        <time>2014-02-02T08:54:41Z</time>
      </trkpt>
      <trkpt lat="47.39202" lon="-0.39995">
        <ele>76.08</ele>
        <time>2014-02-02T08:54:48Z</time>
      </trkpt>
      <trkpt lat="47.39226" lon="-0.39997">
        <ele>76.08</ele>
        <time>2014-02-02T08:54:55Z</time>
      </trkpt>
      <trkpt lat="47.39233" lon="-0.39999">
        <ele>76.08</ele>
        <time>2014-02-02T08:54:57Z</time>
      </trkpt>
      <trkpt lat="47.39256" lon="-0.40003">
        <ele>76.08</ele>
        <time>2014-02-02T08:55:02Z</time>
      </trkpt>
      <trkpt lat="47.39274" lon="-0.40013">
        <ele>76.08</ele>
        <time>2014-02-02T08:55:06Z</time>
      </trkpt>
      <trkpt lat="47.39298" lon="-0.40027">
        <ele>75.6</ele>
        <time>2014-02-02T08:55:11Z</time>
      </trkpt>
      <trkpt lat="47.39331" lon="-0.40059">
        <ele>75.6</ele>
        <time>2014-02-02T08:55:19Z</time>
      </trkpt>
      <trkpt lat="47.39334" lon="-0.40063">
        <ele>75.6</ele>
        <time>2014-02-02T08:55:20Z</time>
      </trkpt>
      <trkpt lat="47.39334" lon="-0.40096">
        <ele>75.6</ele>
        <time>2014-02-02T08:55:26Z</time>
      </trkpt>
      <trkpt lat="47.39331" lon="-0.4013">
        <ele>75.12</ele>
        <time>2014-02-02T08:55:32Z</time>
      </trkpt>
      <trkpt lat="47.39323" lon="-0.40202">
        <ele>74.64</ele>
        <time>2014-02-02T08:55:43Z</time>
      </trkpt>
      <trkpt lat="47.39322" lon="-0.40251">
        <ele>74.16</ele>
        <time>2014-02-02T08:55:51Z</time>
      </trkpt>
      <trkpt lat="47.39325" lon="-0.40275">
        <ele>73.68</ele>
        <time>2014-02-02T08:55:55Z</time>
      </trkpt>
      <trkpt lat="47.39322" lon="-0.40333">
        <ele>74.16</ele>
        <time>2014-02-02T08:56:04Z</time>
      </trkpt>
      <trkpt lat="47.3932" lon="-0.40346">
        <ele>74.16</ele>
        <time>2014-02-02T08:56:06Z</time>
      </trkpt>
      <trkpt lat="47.39312" lon="-0.40402">
        <ele>74.64</ele>
        <time>2014-02-02T08:56:15Z</time>
      </trkpt>
      <trkpt lat="47.39302" lon="-0.40447">
        <ele>75.12</ele>
        <time>2014-02-02T08:56:22Z</time>
      </trkpt>
      <trkpt lat="47.39298" lon="-0.40465">
        <ele>74.64</ele>
        <time>2014-02-02T08:56:25Z</time>
      </trkpt>
      <trkpt lat="47.39298" lon="-0.40515">
        <ele>72.72</ele>
        <time>2014-02-02T08:56:32Z</time>
      </trkpt>
      <trkpt lat="47.39288" lon="-0.40534">
        <ele>73.2</ele>
        <time>2014-02-02T08:56:36Z</time>
      </trkpt>
      <trkpt lat="47.39274" lon="-0.40537">
        <ele>73.68</ele>
        <time>2014-02-02T08:56:39Z</time>
      </trkpt>
      <trkpt lat="47.39237" lon="-0.4054">
        <ele>74.64</ele>
        <time>2014-02-02T08:56:47Z</time>
      </trkpt>
      <trkpt lat="47.39206" lon="-0.40542">
        <ele>76.56</ele>
        <time>2014-02-02T08:56:55Z</time>
      </trkpt>
      <trkpt lat="47.392" lon="-0.40543">
        <ele>77.04</ele>
        <time>2014-02-02T08:56:57Z</time>
      </trkpt>
      <trkpt lat="47.39196" lon="-0.4056">
        <ele>76.08</ele>
        <time>2014-02-02T08:57:02Z</time>
      </trkpt>
      <trkpt lat="47.39198" lon="-0.40565">
        <ele>76.56</ele>
        <time>2014-02-02T08:57:03Z</time>
      </trkpt>
      <trkpt lat="47.39212" lon="-0.406">
        <ele>75.6</ele>
        <time>2014-02-02T08:57:10Z</time>
      </trkpt>
      <trkpt lat="47.39222" lon="-0.40629">
        <ele>74.64</ele>
        <time>2014-02-02T08:57:15Z</time>
      </trkpt>
      <trkpt lat="47.39241" lon="-0.40674">
        <ele>74.64</ele>
        <time>2014-02-02T08:57:24Z</time>
      </trkpt>
      <trkpt lat="47.39257" lon="-0.40717">
        <ele>75.6</ele>
        <time>2014-02-02T08:57:33Z</time>
      </trkpt>
      <trkpt lat="47.39268" lon="-0.40744">
        <ele>75.6</ele>
        <time>2014-02-02T08:57:39Z</time>
      </trkpt>
      <trkpt lat="47.3928" lon="-0.40784">
        <ele>75.6</ele>
        <time>2014-02-02T08:57:48Z</time>
      </trkpt>
      <trkpt lat="47.39283" lon="-0.40814">
        <ele>75.6</ele>
        <time>2014-02-02T08:57:54Z</time>
      </trkpt>
      <trkpt lat="47.39287" lon="-0.40862">
        <ele>75.12</ele>
        <time>2014-02-02T08:58:04Z</time>
      </trkpt>
      <trkpt lat="47.39289" lon="-0.40896">
        <ele>75.6</ele>
        <time>2014-02-02T08:58:12Z</time>
      </trkpt>
      <trkpt lat="47.39293" lon="-0.40928">
        <ele>75.6</ele>
        <time>2014-02-02T08:58:21Z</time>
      </trkpt>
      <trkpt lat="47.39296" lon="-0.40953">
        <ele>76.08</ele>
        <time>2014-02-02T08:58:29Z</time>
      </trkpt>
      <trkpt lat="47.39299" lon="-0.40973">
        <ele>76.56</ele>
        <time>2014-02-02T08:58:36Z</time>
      </trkpt>
      <trkpt lat="47.39301" lon="-0.40998">
        <ele>77.04</ele>
        <time>2014-02-02T08:58:44Z</time>
      </trkpt>
      <trkpt lat="47.39302" lon="-0.41016">
        <ele>77.52</ele>
        <time>2014-02-02T08:58:50Z</time>
      </trkpt>
      <trkpt lat="47.39303" lon="-0.41021">
        <ele>77.52</ele>
        <time>2014-02-02T08:58:52Z</time>
      </trkpt>
      <trkpt lat="47.39295" lon="-0.41031">
        <ele>78</ele>
        <time>2014-02-02T08:58:58Z</time>
      </trkpt>
      <trkpt lat="47.39276" lon="-0.41033">
        <ele>78.48</ele>
        <time>2014-02-02T08:59:06Z</time>
      </trkpt>
      <trkpt lat="47.39256" lon="-0.41034">
        <ele>78</ele>
        <time>2014-02-02T08:59:13Z</time>
      </trkpt>
      <trkpt lat="47.3923" lon="-0.41038">
        <ele>78</ele>
        <time>2014-02-02T08:59:21Z</time>
      </trkpt>
      <trkpt lat="47.39227" lon="-0.41039">
        <ele>78</ele>
        <time>2014-02-02T08:59:22Z</time>
      </trkpt>
      <trkpt lat="47.39224" lon="-0.4105">
        <ele>78</ele>
        <time>2014-02-02T08:59:27Z</time>
      </trkpt>
      <trkpt lat="47.39224" lon="-0.41053">
        <ele>78</ele>
        <time>2014-02-02T08:59:28Z</time>
      </trkpt>
      <trkpt lat="47.39227" lon="-0.41074">
        <ele>78</ele>
        <time>2014-02-02T08:59:37Z</time>
      </trkpt>
      <trkpt lat="47.39226" lon="-0.41081">
        <ele>78</ele>
        <time>2014-02-02T08:59:41Z</time>
      </trkpt>
      <trkpt lat="47.39227" lon="-0.41091">
        <ele>78</ele>
        <time>2014-02-02T08:59:45Z</time>
      </trkpt>
      <trkpt lat="47.39228" lon="-0.41101">
        <ele>78.48</ele>
        <time>2014-02-02T08:59:48Z</time>
      </trkpt>
      <trkpt lat="47.39237" lon="-0.41124">
        <ele>78.48</ele>
        <time>2014-02-02T08:59:54Z</time>
      </trkpt>
      <trkpt lat="47.39237" lon="-0.41134">
        <ele>78</ele>
        <time>2014-02-02T08:59:57Z</time>
      </trkpt>
      <trkpt lat="47.39229" lon="-0.41144">
        <ele>78.48</ele>
        <time>2014-02-02T09:00:03Z</time>
      </trkpt>
      <trkpt lat="47.39226" lon="-0.41148">
        <ele>78.48</ele>
        <time>2014-02-02T09:00:05Z</time>
      </trkpt>
      <trkpt lat="47.39217" lon="-0.41169">
        <ele>78</ele>
        <time>2014-02-02T09:00:13Z</time>
      </trkpt>
      <trkpt lat="47.39214" lon="-0.41199">
        <ele>78.48</ele>
        <time>2014-02-02T09:00:21Z</time>
      </trkpt>
      <trkpt lat="47.39212" lon="-0.41233">
        <ele>78.48</ele>
        <time>2014-02-02T09:00:30Z</time>
      </trkpt>
      <trkpt lat="47.39208" lon="-0.41258">
        <ele>78</ele>
        <time>2014-02-02T09:00:37Z</time>
      </trkpt>
      <trkpt lat="47.39205" lon="-0.41295">
        <ele>77.52</ele>
        <time>2014-02-02T09:00:45Z</time>
      </trkpt>
      <trkpt lat="47.39201" lon="-0.41336">
        <ele>77.04</ele>
        <time>2014-02-02T09:00:53Z</time>
      </trkpt>
      <trkpt lat="47.392" lon="-0.41362">
        <ele>77.52</ele>
        <time>2014-02-02T09:00:59Z</time>
      </trkpt>
      <trkpt lat="47.39196" lon="-0.41407">
        <ele>77.04</ele>
        <time>2014-02-02T09:01:08Z</time>
      </trkpt>
      <trkpt lat="47.39192" lon="-0.41452">
        <ele>76.56</ele>
        <time>2014-02-02T09:01:16Z</time>
      </trkpt>
      <trkpt lat="47.39188" lon="-0.41497">
        <ele>76.56</ele>
        <time>2014-02-02T09:01:24Z</time>
      </trkpt>
      <trkpt lat="47.39186" lon="-0.41509">
        <ele>77.04</ele>
        <time>2014-02-02T09:01:26Z</time>
      </trkpt>
      <trkpt lat="47.39185" lon="-0.41521">
        <ele>77.04</ele>
        <time>2014-02-02T09:01:28Z</time>
      </trkpt>
      <trkpt lat="47.39179" lon="-0.41582">
        <ele>76.56</ele>
        <time>2014-02-02T09:01:38Z</time>
      </trkpt>
      <trkpt lat="47.39175" lon="-0.41631">
        <ele>74.64</ele>
        <time>2014-02-02T09:01:45Z</time>
      </trkpt>
      <trkpt lat="47.3917" lon="-0.41682">
        <ele>73.2</ele>
        <time>2014-02-02T09:01:52Z</time>
      </trkpt>
      <trkpt lat="47.39167" lon="-0.41712">
        <ele>72.24</ele>
        <time>2014-02-02T09:01:58Z</time>
      </trkpt>
      <trkpt lat="47.39168" lon="-0.41715">
        <ele>72.24</ele>
        <time>2014-02-02T09:02:03Z</time>
      </trkpt>
      <trkpt lat="47.3917" lon="-0.41717">
        <ele>72.24</ele>
        <time>2014-02-02T09:02:05Z</time>
      </trkpt>
      <trkpt lat="47.39178" lon="-0.41708">
        <ele>71.76</ele>
        <time>2014-02-02T09:02:10Z</time>
      </trkpt>
      <trkpt lat="47.39179" lon="-0.41692">
        <ele>72.24</ele>
        <time>2014-02-02T09:02:16Z</time>
      </trkpt>
      <trkpt lat="47.3918" lon="-0.41679">
        <ele>73.2</ele>
        <time>2014-02-02T09:02:23Z</time>
      </trkpt>
      <trkpt lat="47.3918" lon="-0.41674">
        <ele>72.72</ele>
        <time>2014-02-02T09:02:25Z</time>
      </trkpt>
      <trkpt lat="47.39182" lon="-0.41668">
        <ele>73.2</ele>
        <time>2014-02-02T09:02:28Z</time>
      </trkpt>
      <trkpt lat="47.39185" lon="-0.41649">
        <ele>74.16</ele>
        <time>2014-02-02T09:02:36Z</time>
      </trkpt>
      <trkpt lat="47.39186" lon="-0.41643">
        <ele>74.16</ele>
        <time>2014-02-02T09:02:39Z</time>
      </trkpt>
      <trkpt lat="47.39187" lon="-0.41625">
        <ele>75.12</ele>
        <time>2014-02-02T09:02:46Z</time>
      </trkpt>
      <trkpt lat="47.3919" lon="-0.4161">
        <ele>75.6</ele>
        <time>2014-02-02T09:02:52Z</time>
      </trkpt>
      <trkpt lat="47.39191" lon="-0.41586">
        <ele>76.08</ele>
        <time>2014-02-02T09:03:00Z</time>
      </trkpt>
      <trkpt lat="47.39194" lon="-0.41573">
        <ele>76.56</ele>
        <time>2014-02-02T09:03:06Z</time>
      </trkpt>
      <trkpt lat="47.39201" lon="-0.41566">
        <ele>76.08</ele>
        <time>2014-02-02T09:03:12Z</time>
      </trkpt>
      <trkpt lat="47.39204" lon="-0.41566">
        <ele>76.56</ele>
        <time>2014-02-02T09:03:14Z</time>
      </trkpt>
      <trkpt lat="47.39216" lon="-0.41563">
        <ele>77.04</ele>
        <time>2014-02-02T09:03:21Z</time>
      </trkpt>
      <trkpt lat="47.39224" lon="-0.41557">
        <ele>76.56</ele>
        <time>2014-02-02T09:03:25Z</time>
      </trkpt>
      <trkpt lat="47.39234" lon="-0.4155">
        <ele>77.52</ele>
        <time>2014-02-02T09:03:31Z</time>
      </trkpt>
      <trkpt lat="47.39235" lon="-0.41548">
        <ele>77.04</ele>
        <time>2014-02-02T09:03:33Z</time>
      </trkpt>
      <trkpt lat="47.39243" lon="-0.41538">
        <ele>78</ele>
        <time>2014-02-02T09:03:40Z</time>
      </trkpt>
      <trkpt lat="47.39257" lon="-0.41523">
        <ele>78</ele>
        <time>2014-02-02T09:03:48Z</time>
      </trkpt>
      <trkpt lat="47.39262" lon="-0.41519">
        <ele>78.48</ele>
        <time>2014-02-02T09:03:51Z</time>
      </trkpt>
      <trkpt lat="47.39268" lon="-0.41511">
        <ele>78</ele>
        <time>2014-02-02T09:03:56Z</time>
      </trkpt>
      <trkpt lat="47.39268" lon="-0.41509">
        <ele>78.48</ele>
        <time>2014-02-02T09:03:57Z</time>
      </trkpt>
      <trkpt lat="47.39272" lon="-0.41504">
        <ele>78.48</ele>
        <time>2014-02-02T09:04:00Z</time>
      </trkpt>
      <trkpt lat="47.39278" lon="-0.41496">
        <ele>78.97</ele>
        <time>2014-02-02T09:04:06Z</time>
      </trkpt>
      <trkpt lat="47.39285" lon="-0.4149">
        <ele>78.97</ele>
        <time>2014-02-02T09:04:11Z</time>
      </trkpt>
      <trkpt lat="47.39297" lon="-0.41478">
        <ele>78.97</ele>
        <time>2014-02-02T09:04:18Z</time>
      </trkpt>
      <trkpt lat="47.39312" lon="-0.41461">
        <ele>78.97</ele>
        <time>2014-02-02T09:04:26Z</time>
      </trkpt>
      <trkpt lat="47.39316" lon="-0.41456">
        <ele>78.97</ele>
        <time>2014-02-02T09:04:28Z</time>
      </trkpt>
      <trkpt lat="47.39327" lon="-0.41442">
        <ele>78.97</ele>
        <time>2014-02-02T09:04:33Z</time>
      </trkpt>
      <trkpt lat="47.39341" lon="-0.41427">
        <ele>78.48</ele>
        <time>2014-02-02T09:04:38Z</time>
      </trkpt>
      <trkpt lat="47.39346" lon="-0.41422">
        <ele>78.48</ele>
        <time>2014-02-02T09:04:40Z</time>
      </trkpt>
      <trkpt lat="47.39362" lon="-0.41409">
        <ele>77.52</ele>
        <time>2014-02-02T09:04:45Z</time>
      </trkpt>
      <trkpt lat="47.39364" lon="-0.41393">
        <ele>77.52</ele>
        <time>2014-02-02T09:04:51Z</time>
      </trkpt>
      <trkpt lat="47.39361" lon="-0.41391">
        <ele>77.52</ele>
        <time>2014-02-02T09:04:53Z</time>
      </trkpt>
      <trkpt lat="47.39352" lon="-0.41388">
        <ele>78.48</ele>
        <time>2014-02-02T09:04:58Z</time>
      </trkpt>
      <trkpt lat="47.39349" lon="-0.41387">
        <ele>78.48</ele>
        <time>2014-02-02T09:05:00Z</time>
      </trkpt>
      <trkpt lat="47.39337" lon="-0.41382">
        <ele>78.97</ele>
        <time>2014-02-02T09:05:06Z</time>
      </trkpt>
      <trkpt lat="47.39333" lon="-0.41379">
        <ele>79.45</ele>
        <time>2014-02-02T09:05:08Z</time>
      </trkpt>
      <trkpt lat="47.39326" lon="-0.41377">
        <ele>79.45</ele>
        <time>2014-02-02T09:05:12Z</time>
      </trkpt>
      <trkpt lat="47.39317" lon="-0.41373">
        <ele>79.93</ele>
        <time>2014-02-02T09:05:17Z</time>
      </trkpt>
      <trkpt lat="47.39308" lon="-0.41372">
        <ele>79.93</ele>
        <time>2014-02-02T09:05:22Z</time>
      </trkpt>
      <trkpt lat="47.39297" lon="-0.41365">
        <ele>80.41</ele>
        <time>2014-02-02T09:05:29Z</time>
      </trkpt>
      <trkpt lat="47.39288" lon="-0.41362">
        <ele>79.93</ele>
        <time>2014-02-02T09:05:34Z</time>
      </trkpt>
      <trkpt lat="47.39287" lon="-0.41362">
        <ele>79.93</ele>
        <time>2014-02-02T09:05:35Z</time>
      </trkpt>
      <trkpt lat="47.39273" lon="-0.41355">
        <ele>79.93</ele>
        <time>2014-02-02T09:05:43Z</time>
      </trkpt>
      <trkpt lat="47.39263" lon="-0.41351">
        <ele>79.93</ele>
        <time>2014-02-02T09:05:48Z</time>
      </trkpt>
      <trkpt lat="47.39257" lon="-0.41349">
        <ele>78.97</ele>
        <time>2014-02-02T09:05:51Z</time>
      </trkpt>
      <trkpt lat="47.39238" lon="-0.41346">
        <ele>78</ele>
        <time>2014-02-02T09:05:59Z</time>
      </trkpt>
      <trkpt lat="47.39223" lon="-0.41344">
        <ele>77.52</ele>
        <time>2014-02-02T09:06:05Z</time>
      </trkpt>
      <trkpt lat="47.39216" lon="-0.41344">
        <ele>77.52</ele>
        <time>2014-02-02T09:06:08Z</time>
      </trkpt>
      <trkpt lat="47.39211" lon="-0.41341">
        <ele>77.04</ele>
        <time>2014-02-02T09:06:12Z</time>
      </trkpt>
      <trkpt lat="47.3921" lon="-0.41337">
        <ele>77.52</ele>
        <time>2014-02-02T09:06:14Z</time>
      </trkpt>
      <trkpt lat="47.39211" lon="-0.41325">
        <ele>77.52</ele>
        <time>2014-02-02T09:06:20Z</time>
      </trkpt>
      <trkpt lat="47.39213" lon="-0.41309">
        <ele>78</ele>
        <time>2014-02-02T09:06:27Z</time>
      </trkpt>
      <trkpt lat="47.39214" lon="-0.413">
        <ele>77.52</ele>
        <time>2014-02-02T09:06:30Z</time>
      </trkpt>
      <trkpt lat="47.39217" lon="-0.41282">
        <ele>78</ele>
        <time>2014-02-02T09:06:38Z</time>
      </trkpt>
      <trkpt lat="47.39219" lon="-0.41264">
        <ele>78</ele>
        <time>2014-02-02T09:06:45Z</time>
      </trkpt>
      <trkpt lat="47.39219" lon="-0.41257">
        <ele>78</ele>
        <time>2014-02-02T09:06:48Z</time>
      </trkpt>
      <trkpt lat="47.39222" lon="-0.41241">
        <ele>78.48</ele>
        <time>2014-02-02T09:06:55Z</time>
      </trkpt>
      <trkpt lat="47.39224" lon="-0.41232">
        <ele>78.48</ele>
        <time>2014-02-02T09:06:59Z</time>
      </trkpt>
      <trkpt lat="47.39223" lon="-0.41213">
        <ele>78.97</ele>
        <time>2014-02-02T09:07:06Z</time>
      </trkpt>
      <trkpt lat="47.39223" lon="-0.41209">
        <ele>78.97</ele>
        <time>2014-02-02T09:07:08Z</time>
      </trkpt>
      <trkpt lat="47.39225" lon="-0.4119">
        <ele>78.97</ele>
        <time>2014-02-02T09:07:15Z</time>
      </trkpt>
      <trkpt lat="47.39227" lon="-0.4118">
        <ele>78.48</ele>
        <time>2014-02-02T09:07:19Z</time>
      </trkpt>
      <trkpt lat="47.39235" lon="-0.41163">
        <ele>78</ele>
        <time>2014-02-02T09:07:28Z</time>
      </trkpt>
      <trkpt lat="47.39239" lon="-0.41156">
        <ele>78</ele>
        <time>2014-02-02T09:07:33Z</time>
      </trkpt>
      <trkpt lat="47.39246" lon="-0.41148">
        <ele>78</ele>
        <time>2014-02-02T09:07:39Z</time>
      </trkpt>
      <trkpt lat="47.39256" lon="-0.41137">
        <ele>77.52</ele>
        <time>2014-02-02T09:07:46Z</time>
      </trkpt>
      <trkpt lat="47.39261" lon="-0.41131">
        <ele>78</ele>
        <time>2014-02-02T09:07:50Z</time>
      </trkpt>
      <trkpt lat="47.39265" lon="-0.41123">
        <ele>77.52</ele>
        <time>2014-02-02T09:07:55Z</time>
      </trkpt>
      <trkpt lat="47.39273" lon="-0.41114">
        <ele>77.52</ele>
        <time>2014-02-02T09:08:03Z</time>
      </trkpt>
      <trkpt lat="47.39278" lon="-0.41111">
        <ele>77.52</ele>
        <time>2014-02-02T09:08:10Z</time>
      </trkpt>
      <trkpt lat="47.3928" lon="-0.4111">
        <ele>77.52</ele>
        <time>2014-02-02T09:08:14Z</time>
      </trkpt>
      <trkpt lat="47.39284" lon="-0.41106">
        <ele>78</ele>
        <time>2014-02-02T09:08:17Z</time>
      </trkpt>
      <trkpt lat="47.39292" lon="-0.41094">
        <ele>77.52</ele>
        <time>2014-02-02T09:08:25Z</time>
      </trkpt>
      <trkpt lat="47.39295" lon="-0.41092">
        <ele>77.52</ele>
        <time>2014-02-02T09:08:28Z</time>
      </trkpt>
      <trkpt lat="47.39305" lon="-0.41085">
        <ele>77.04</ele>
        <time>2014-02-02T09:08:35Z</time>
      </trkpt>
      <trkpt lat="47.3931" lon="-0.41079">
        <ele>77.04</ele>
        <time>2014-02-02T09:08:40Z</time>
      </trkpt>
      <trkpt lat="47.39318" lon="-0.41072">
        <ele>77.04</ele>
        <time>2014-02-02T09:08:48Z</time>
      </trkpt>
      <trkpt lat="47.39324" lon="-0.41066">
        <ele>76.56</ele>
        <time>2014-02-02T09:08:54Z</time>
      </trkpt>
      <trkpt lat="47.39333" lon="-0.41057">
        <ele>76.56</ele>
        <time>2014-02-02T09:09:01Z</time>
      </trkpt>
      <trkpt lat="47.39341" lon="-0.41049">
        <ele>76.56</ele>
        <time>2014-02-02T09:09:07Z</time>
      </trkpt>
      <trkpt lat="47.39348" lon="-0.41044">
        <ele>75.6</ele>
        <time>2014-02-02T09:09:14Z</time>
      </trkpt>
      <trkpt lat="47.39358" lon="-0.41042">
        <ele>76.08</ele>
        <time>2014-02-02T09:09:21Z</time>
      </trkpt>
      <trkpt lat="47.39362" lon="-0.41043">
        <ele>76.08</ele>
        <time>2014-02-02T09:09:24Z</time>
      </trkpt>
      <trkpt lat="47.39367" lon="-0.41044">
        <ele>75.6</ele>
        <time>2014-02-02T09:09:27Z</time>
      </trkpt>
      <trkpt lat="47.39378" lon="-0.41044">
        <ele>75.12</ele>
        <time>2014-02-02T09:09:34Z</time>
      </trkpt>
      <trkpt lat="47.39393" lon="-0.41043">
        <ele>75.12</ele>
        <time>2014-02-02T09:09:43Z</time>
      </trkpt>
      <trkpt lat="47.39396" lon="-0.41042">
        <ele>74.64</ele>
        <time>2014-02-02T09:09:46Z</time>
      </trkpt>
      <trkpt lat="47.39404" lon="-0.41042">
        <ele>75.12</ele>
        <time>2014-02-02T09:09:51Z</time>
      </trkpt>
      <trkpt lat="47.39416" lon="-0.41044">
        <ele>74.64</ele>
        <time>2014-02-02T09:09:57Z</time>
      </trkpt>
      <trkpt lat="47.39417" lon="-0.41044">
        <ele>74.64</ele>
        <time>2014-02-02T09:09:58Z</time>
      </trkpt>
      <trkpt lat="47.39435" lon="-0.41045">
        <ele>74.16</ele>
        <time>2014-02-02T09:10:06Z</time>
      </trkpt>
      <trkpt lat="47.39436" lon="-0.41045">
        <ele>73.2</ele>
        <time>2014-02-02T09:10:07Z</time>
      </trkpt>
      <trkpt lat="47.39452" lon="-0.41048">
        <ele>72.72</ele>
        <time>2014-02-02T09:10:15Z</time>
      </trkpt>
      <trkpt lat="47.39468" lon="-0.4105">
        <ele>72.24</ele>
        <time>2014-02-02T09:10:22Z</time>
      </trkpt>
      <trkpt lat="47.39478" lon="-0.41052">
        <ele>71.27</ele>
        <time>2014-02-02T09:10:27Z</time>
      </trkpt>
      <trkpt lat="47.39493" lon="-0.41053">
        <ele>68.87</ele>
        <time>2014-02-02T09:10:34Z</time>
      </trkpt>
      <trkpt lat="47.39507" lon="-0.41057">
        <ele>68.39</ele>
        <time>2014-02-02T09:10:40Z</time>
      </trkpt>
      <trkpt lat="47.39531" lon="-0.41058">
        <ele>65.51</ele>
        <time>2014-02-02T09:10:47Z</time>
      </trkpt>
      <trkpt lat="47.39537" lon="-0.4106">
        <ele>64.55</ele>
        <time>2014-02-02T09:10:49Z</time>
      </trkpt>
      <trkpt lat="47.39556" lon="-0.41064">
        <ele>62.62</ele>
        <time>2014-02-02T09:10:55Z</time>
      </trkpt>
      <trkpt lat="47.39564" lon="-0.41066">
        <ele>61.66</ele>
        <time>2014-02-02T09:10:59Z</time>
      </trkpt>
      <trkpt lat="47.39583" lon="-0.41068">
        <ele>60.22</ele>
        <time>2014-02-02T09:11:06Z</time>
      </trkpt>
      <trkpt lat="47.39593" lon="-0.41071">
        <ele>59.26</ele>
        <time>2014-02-02T09:11:12Z</time>
      </trkpt>
      <trkpt lat="47.39604" lon="-0.41072">
        <ele>57.82</ele>
        <time>2014-02-02T09:11:18Z</time>
      </trkpt>
      <trkpt lat="47.39618" lon="-0.41077">
        <ele>55.89</ele>
        <time>2014-02-02T09:11:24Z</time>
      </trkpt>
      <trkpt lat="47.39628" lon="-0.41089">
        <ele>54.45</ele>
        <time>2014-02-02T09:11:30Z</time>
      </trkpt>
      <trkpt lat="47.39634" lon="-0.41095">
        <ele>53.97</ele>
        <time>2014-02-02T09:11:35Z</time>
      </trkpt>
      <trkpt lat="47.39639" lon="-0.41102">
        <ele>53.97</ele>
        <time>2014-02-02T09:11:40Z</time>
      </trkpt>
      <trkpt lat="47.39642" lon="-0.41104">
        <ele>53.49</ele>
        <time>2014-02-02T09:11:48Z</time>
      </trkpt>
      <trkpt lat="47.39647" lon="-0.4111">
        <ele>53.01</ele>
        <time>2014-02-02T09:11:58Z</time>
      </trkpt>
      <trkpt lat="47.39651" lon="-0.41117">
        <ele>53.97</ele>
        <time>2014-02-02T09:12:04Z</time>
      </trkpt>
      <trkpt lat="47.39656" lon="-0.41125">
        <ele>53.01</ele>
        <time>2014-02-02T09:12:13Z</time>
      </trkpt>
      <trkpt lat="47.3966" lon="-0.41135">
        <ele>52.53</ele>
        <time>2014-02-02T09:12:20Z</time>
      </trkpt>
      <trkpt lat="47.39667" lon="-0.41145">
        <ele>52.05</ele>
        <time>2014-02-02T09:12:28Z</time>
      </trkpt>
      <trkpt lat="47.39673" lon="-0.41158">
        <ele>51.09</ele>
        <time>2014-02-02T09:12:34Z</time>
      </trkpt>
      <trkpt lat="47.39682" lon="-0.41175">
        <ele>50.61</ele>
        <time>2014-02-02T09:12:41Z</time>
      </trkpt>
      <trkpt lat="47.39685" lon="-0.41193">
        <ele>50.61</ele>
        <time>2014-02-02T09:12:48Z</time>
      </trkpt>
      <trkpt lat="47.39684" lon="-0.41207">
        <ele>51.09</ele>
        <time>2014-02-02T09:12:54Z</time>
      </trkpt>
      <trkpt lat="47.39686" lon="-0.41214">
        <ele>50.61</ele>
        <time>2014-02-02T09:12:57Z</time>
      </trkpt>
      <trkpt lat="47.39681" lon="-0.41231">
        <ele>51.57</ele>
        <time>2014-02-02T09:13:05Z</time>
      </trkpt>
      <trkpt lat="47.39681" lon="-0.41233">
        <ele>51.57</ele>
        <time>2014-02-02T09:13:06Z</time>
      </trkpt>
      <trkpt lat="47.3967" lon="-0.41238">
        <ele>52.53</ele>
        <time>2014-02-02T09:13:12Z</time>
      </trkpt>
      <trkpt lat="47.3966" lon="-0.41241">
        <ele>53.49</ele>
        <time>2014-02-02T09:13:21Z</time>
      </trkpt>
      <trkpt lat="47.39657" lon="-0.4124">
        <ele>53.97</ele>
        <time>2014-02-02T09:13:26Z</time>
      </trkpt>
      <trkpt lat="47.3965" lon="-0.4124">
        <ele>54.45</ele>
        <time>2014-02-02T09:13:34Z</time>
      </trkpt>
      <trkpt lat="47.3964" lon="-0.41239">
        <ele>55.41</ele>
        <time>2014-02-02T09:13:42Z</time>
      </trkpt>
      <trkpt lat="47.39631" lon="-0.41236">
        <ele>56.37</ele>
        <time>2014-02-02T09:13:50Z</time>
      </trkpt>
      <trkpt lat="47.39624" lon="-0.41235">
        <ele>56.86</ele>
        <time>2014-02-02T09:13:57Z</time>
      </trkpt>
      <trkpt lat="47.39617" lon="-0.41234">
        <ele>57.82</ele>
        <time>2014-02-02T09:14:04Z</time>
      </trkpt>
      <trkpt lat="47.39612" lon="-0.41232">
        <ele>58.3</ele>
        <time>2014-02-02T09:14:10Z</time>
      </trkpt>
      <trkpt lat="47.39604" lon="-0.41229">
        <ele>59.26</ele>
        <time>2014-02-02T09:14:18Z</time>
      </trkpt>
      <trkpt lat="47.39595" lon="-0.41227">
        <ele>59.74</ele>
        <time>2014-02-02T09:14:26Z</time>
      </trkpt>
      <trkpt lat="47.39594" lon="-0.41227">
        <ele>60.22</ele>
        <time>2014-02-02T09:14:27Z</time>
      </trkpt>
      <trkpt lat="47.39592" lon="-0.41227">
        <ele>60.22</ele>
        <time>2014-02-02T09:14:29Z</time>
      </trkpt>
      <trkpt lat="47.39583" lon="-0.41226">
        <ele>60.22</ele>
        <time>2014-02-02T09:14:38Z</time>
      </trkpt>
      <trkpt lat="47.39576" lon="-0.41224">
        <ele>61.18</ele>
        <time>2014-02-02T09:14:46Z</time>
      </trkpt>
      <trkpt lat="47.39569" lon="-0.41222">
        <ele>61.18</ele>
        <time>2014-02-02T09:14:52Z</time>
      </trkpt>
      <trkpt lat="47.3956" lon="-0.41219">
        <ele>62.14</ele>
        <time>2014-02-02T09:15:01Z</time>
      </trkpt>
      <trkpt lat="47.39553" lon="-0.41215">
        <ele>63.1</ele>
        <time>2014-02-02T09:15:08Z</time>
      </trkpt>
      <trkpt lat="47.39546" lon="-0.41215">
        <ele>63.58</ele>
        <time>2014-02-02T09:15:15Z</time>
      </trkpt>
      <trkpt lat="47.39542" lon="-0.41216">
        <ele>63.58</ele>
        <time>2014-02-02T09:15:21Z</time>
      </trkpt>
      <trkpt lat="47.39542" lon="-0.41216">
        <ele>63.58</ele>
        <time>2014-02-02T09:15:33Z</time>
      </trkpt>
      <trkpt lat="47.39542" lon="-0.41216">
        <ele>63.58</ele>
        <time>2014-02-02T09:15:39Z</time>
      </trkpt>
      <trkpt lat="47.39536" lon="-0.41218">
        <ele>65.03</ele>
        <time>2014-02-02T09:15:46Z</time>
      </trkpt>
      <trkpt lat="47.39532" lon="-0.41217">
        <ele>65.51</ele>
        <time>2014-02-02T09:15:52Z</time>
      </trkpt>
      <trkpt lat="47.3953" lon="-0.41218">
        <ele>65.51</ele>
        <time>2014-02-02T09:15:59Z</time>
      </trkpt>
      <trkpt lat="47.3953" lon="-0.41218">
        <ele>65.51</ele>
        <time>2014-02-02T09:16:06Z</time>
      </trkpt>
      <trkpt lat="47.3953" lon="-0.41218">
        <ele>65.03</ele>
        <time>2014-02-02T09:16:21Z</time>
      </trkpt>
      <trkpt lat="47.39528" lon="-0.41219">
        <ele>65.99</ele>
        <time>2014-02-02T09:16:28Z</time>
      </trkpt>
      <trkpt lat="47.39524" lon="-0.4122">
        <ele>66.95</ele>
        <time>2014-02-02T09:16:34Z</time>
      </trkpt>
      <trkpt lat="47.39517" lon="-0.4122">
        <ele>67.43</ele>
        <time>2014-02-02T09:16:38Z</time>
      </trkpt>
      <trkpt lat="47.39511" lon="-0.41221">
        <ele>68.39</ele>
        <time>2014-02-02T09:16:43Z</time>
      </trkpt>
      <trkpt lat="47.39506" lon="-0.4122">
        <ele>68.87</ele>
        <time>2014-02-02T09:16:46Z</time>
      </trkpt>
      <trkpt lat="47.39493" lon="-0.41222">
        <ele>69.83</ele>
        <time>2014-02-02T09:16:53Z</time>
      </trkpt>
      <trkpt lat="47.39481" lon="-0.41224">
        <ele>70.79</ele>
        <time>2014-02-02T09:17:00Z</time>
      </trkpt>
      <trkpt lat="47.3947" lon="-0.41225">
        <ele>71.76</ele>
        <time>2014-02-02T09:17:07Z</time>
      </trkpt>
      <trkpt lat="47.39456" lon="-0.41228">
        <ele>72.24</ele>
        <time>2014-02-02T09:17:16Z</time>
      </trkpt>
      <trkpt lat="47.39446" lon="-0.41227">
        <ele>73.2</ele>
        <time>2014-02-02T09:17:23Z</time>
      </trkpt>
      <trkpt lat="47.39435" lon="-0.41226">
        <ele>74.16</ele>
        <time>2014-02-02T09:17:31Z</time>
      </trkpt>
      <trkpt lat="47.39427" lon="-0.41228">
        <ele>75.12</ele>
        <time>2014-02-02T09:17:38Z</time>
      </trkpt>
      <trkpt lat="47.39419" lon="-0.41229">
        <ele>75.6</ele>
        <time>2014-02-02T09:17:45Z</time>
      </trkpt>
      <trkpt lat="47.3941" lon="-0.4123">
        <ele>76.56</ele>
        <time>2014-02-02T09:17:52Z</time>
      </trkpt>
      <trkpt lat="47.39396" lon="-0.41232">
        <ele>77.04</ele>
        <time>2014-02-02T09:18:00Z</time>
      </trkpt>
      <trkpt lat="47.39394" lon="-0.41231">
        <ele>77.52</ele>
        <time>2014-02-02T09:18:01Z</time>
      </trkpt>
      <trkpt lat="47.39387" lon="-0.41232">
        <ele>77.04</ele>
        <time>2014-02-02T09:18:05Z</time>
      </trkpt>
      <trkpt lat="47.39383" lon="-0.41233">
        <ele>77.52</ele>
        <time>2014-02-02T09:18:08Z</time>
      </trkpt>
      <trkpt lat="47.39381" lon="-0.41236">
        <ele>78</ele>
        <time>2014-02-02T09:18:13Z</time>
      </trkpt>
      <trkpt lat="47.39388" lon="-0.41246">
        <ele>78.48</ele>
        <time>2014-02-02T09:18:19Z</time>
      </trkpt>
      <trkpt lat="47.39396" lon="-0.41261">
        <ele>77.04</ele>
        <time>2014-02-02T09:18:25Z</time>
      </trkpt>
      <trkpt lat="47.39404" lon="-0.41276">
        <ele>76.08</ele>
        <time>2014-02-02T09:18:29Z</time>
      </trkpt>
      <trkpt lat="47.3942" lon="-0.41295">
        <ele>74.64</ele>
        <time>2014-02-02T09:18:35Z</time>
      </trkpt>
      <trkpt lat="47.39433" lon="-0.41309">
        <ele>73.2</ele>
        <time>2014-02-02T09:18:39Z</time>
      </trkpt>
      <trkpt lat="47.39438" lon="-0.4134">
        <ele>72.72</ele>
        <time>2014-02-02T09:18:46Z</time>
      </trkpt>
      <trkpt lat="47.39439" lon="-0.41352">
        <ele>72.72</ele>
        <time>2014-02-02T09:18:51Z</time>
      </trkpt>
      <trkpt lat="47.39438" lon="-0.41372">
        <ele>72.72</ele>
        <time>2014-02-02T09:18:57Z</time>
      </trkpt>
      <trkpt lat="47.39438" lon="-0.41389">
        <ele>73.2</ele>
        <time>2014-02-02T09:19:03Z</time>
      </trkpt>
      <trkpt lat="47.39437" lon="-0.41408">
        <ele>72.72</ele>
        <time>2014-02-02T09:19:09Z</time>
      </trkpt>
      <trkpt lat="47.39436" lon="-0.41417">
        <ele>72.24</ele>
        <time>2014-02-02T09:19:12Z</time>
      </trkpt>
      <trkpt lat="47.39434" lon="-0.41439">
        <ele>72.24</ele>
        <time>2014-02-02T09:19:18Z</time>
      </trkpt>
      <trkpt lat="47.39433" lon="-0.4145">
        <ele>72.24</ele>
        <time>2014-02-02T09:19:21Z</time>
      </trkpt>
      <trkpt lat="47.39431" lon="-0.41472">
        <ele>72.24</ele>
        <time>2014-02-02T09:19:27Z</time>
      </trkpt>
      <trkpt lat="47.3943" lon="-0.41486">
        <ele>71.76</ele>
        <time>2014-02-02T09:19:31Z</time>
      </trkpt>
      <trkpt lat="47.39427" lon="-0.41521">
        <ele>71.27</ele>
        <time>2014-02-02T09:19:39Z</time>
      </trkpt>
      <trkpt lat="47.39427" lon="-0.41539">
        <ele>70.31</ele>
        <time>2014-02-02T09:19:43Z</time>
      </trkpt>
      <trkpt lat="47.39425" lon="-0.41562">
        <ele>70.31</ele>
        <time>2014-02-02T09:19:47Z</time>
      </trkpt>
      <trkpt lat="47.3942" lon="-0.41598">
        <ele>69.83</ele>
        <time>2014-02-02T09:19:54Z</time>
      </trkpt>
      <trkpt lat="47.39416" lon="-0.41615">
        <ele>69.83</ele>
        <time>2014-02-02T09:19:58Z</time>
      </trkpt>
      <trkpt lat="47.39412" lon="-0.41638">
        <ele>69.35</ele>
        <time>2014-02-02T09:20:03Z</time>
      </trkpt>
      <trkpt lat="47.3941" lon="-0.41653">
        <ele>69.35</ele>
        <time>2014-02-02T09:20:07Z</time>
      </trkpt>
      <trkpt lat="47.3941" lon="-0.41673">
        <ele>69.35</ele>
        <time>2014-02-02T09:20:12Z</time>
      </trkpt>
      <trkpt lat="47.39404" lon="-0.417">
        <ele>68.87</ele>
        <time>2014-02-02T09:20:19Z</time>
      </trkpt>
      <trkpt lat="47.39403" lon="-0.41713">
        <ele>68.39</ele>
        <time>2014-02-02T09:20:22Z</time>
      </trkpt>
      <trkpt lat="47.39398" lon="-0.41737">
        <ele>68.39</ele>
        <time>2014-02-02T09:20:28Z</time>
      </trkpt>
      <trkpt lat="47.39401" lon="-0.41744">
        <ele>67.43</ele>
        <time>2014-02-02T09:20:32Z</time>
      </trkpt>
      <trkpt lat="47.39414" lon="-0.41732">
        <ele>66.95</ele>
        <time>2014-02-02T09:20:39Z</time>
      </trkpt>
      <trkpt lat="47.39428" lon="-0.41704">
        <ele>65.99</ele>
        <time>2014-02-02T09:20:46Z</time>
      </trkpt>
      <trkpt lat="47.39438" lon="-0.41669">
        <ele>65.99</ele>
        <time>2014-02-02T09:20:53Z</time>
      </trkpt>
      <trkpt lat="47.39447" lon="-0.41635">
        <ele>66.47</ele>
        <time>2014-02-02T09:21:00Z</time>
      </trkpt>
      <trkpt lat="47.39453" lon="-0.41609">
        <ele>66.95</ele>
        <time>2014-02-02T09:21:05Z</time>
      </trkpt>
      <trkpt lat="47.39463" lon="-0.41569">
        <ele>65.51</ele>
        <time>2014-02-02T09:21:12Z</time>
      </trkpt>
      <trkpt lat="47.39467" lon="-0.41536">
        <ele>65.51</ele>
        <time>2014-02-02T09:21:18Z</time>
      </trkpt>
      <trkpt lat="47.39477" lon="-0.41509">
        <ele>64.07</ele>
        <time>2014-02-02T09:21:23Z</time>
      </trkpt>
      <trkpt lat="47.39492" lon="-0.41469">
        <ele>63.58</ele>
        <time>2014-02-02T09:21:30Z</time>
      </trkpt>
      <trkpt lat="47.39495" lon="-0.41463">
        <ele>63.58</ele>
        <time>2014-02-02T09:21:31Z</time>
      </trkpt>
      <trkpt lat="47.39517" lon="-0.41415">
        <ele>63.1</ele>
        <time>2014-02-02T09:21:40Z</time>
      </trkpt>
      <trkpt lat="47.39529" lon="-0.41391">
        <ele>61.66</ele>
        <time>2014-02-02T09:21:45Z</time>
      </trkpt>
      <trkpt lat="47.3955" lon="-0.41384">
        <ele>60.7</ele>
        <time>2014-02-02T09:21:51Z</time>
      </trkpt>
      <trkpt lat="47.39553" lon="-0.41383">
        <ele>60.22</ele>
        <time>2014-02-02T09:21:52Z</time>
      </trkpt>
      <trkpt lat="47.39558" lon="-0.41381">
        <ele>60.22</ele>
        <time>2014-02-02T09:21:54Z</time>
      </trkpt>
      <trkpt lat="47.39562" lon="-0.41367">
        <ele>60.22</ele>
        <time>2014-02-02T09:21:58Z</time>
      </trkpt>
      <trkpt lat="47.39564" lon="-0.41355">
        <ele>61.18</ele>
        <time>2014-02-02T09:22:05Z</time>
      </trkpt>
      <trkpt lat="47.39563" lon="-0.41355">
        <ele>60.7</ele>
        <time>2014-02-02T09:22:16Z</time>
      </trkpt>
      <trkpt lat="47.39563" lon="-0.41354">
        <ele>60.7</ele>
        <time>2014-02-02T09:22:28Z</time>
      </trkpt>
      <trkpt lat="47.39565" lon="-0.41353">
        <ele>61.18</ele>
        <time>2014-02-02T09:22:33Z</time>
      </trkpt>
      <trkpt lat="47.39568" lon="-0.41349">
        <ele>60.7</ele>
        <time>2014-02-02T09:22:40Z</time>
      </trkpt>
      <trkpt lat="47.39568" lon="-0.41349">
        <ele>60.22</ele>
        <time>2014-02-02T09:22:45Z</time>
      </trkpt>
      <trkpt lat="47.39571" lon="-0.4134">
        <ele>60.22</ele>
        <time>2014-02-02T09:22:53Z</time>
      </trkpt>
      <trkpt lat="47.39571" lon="-0.4134">
        <ele>60.7</ele>
        <time>2014-02-02T09:23:07Z</time>
      </trkpt>
      <trkpt lat="47.39571" lon="-0.41339">
        <ele>59.74</ele>
        <time>2014-02-02T09:23:14Z</time>
      </trkpt>
      <trkpt lat="47.39571" lon="-0.41339">
        <ele>59.74</ele>
        <time>2014-02-02T09:23:27Z</time>
      </trkpt>
      <trkpt lat="47.39571" lon="-0.41339">
        <ele>59.74</ele>
        <time>2014-02-02T09:23:45Z</time>
      </trkpt>
      <trkpt lat="47.39571" lon="-0.41339">
        <ele>59.74</ele>
        <time>2014-02-02T09:24:04Z</time>
      </trkpt>
      <trkpt lat="47.39571" lon="-0.41339">
        <ele>59.74</ele>
        <time>2014-02-02T09:24:21Z</time>
      </trkpt>
      <trkpt lat="47.39571" lon="-0.41339">
        <ele>59.26</ele>
        <time>2014-02-02T09:24:39Z</time>
      </trkpt>
      <trkpt lat="47.39571" lon="-0.41339">
        <ele>59.74</ele>
        <time>2014-02-02T09:24:56Z</time>
      </trkpt>
      <trkpt lat="47.39571" lon="-0.41339">
        <ele>59.74</ele>
        <time>2014-02-02T09:25:09Z</time>
      </trkpt>
      <trkpt lat="47.39571" lon="-0.41338">
        <ele>59.74</ele>
        <time>2014-02-02T09:25:32Z</time>
      </trkpt>
      <trkpt lat="47.39571" lon="-0.41338">
        <ele>59.74</ele>
        <time>2014-02-02T09:25:51Z</time>
      </trkpt>
      <trkpt lat="47.39571" lon="-0.41338">
        <ele>59.74</ele>
        <time>2014-02-02T09:26:11Z</time>
      </trkpt>
      <trkpt lat="47.39571" lon="-0.41338">
        <ele>59.74</ele>
        <time>2014-02-02T09:26:26Z</time>
      </trkpt>
      <trkpt lat="47.39571" lon="-0.41338">
        <ele>59.74</ele>
        <time>2014-02-02T09:26:40Z</time>
      </trkpt>
      <trkpt lat="47.39571" lon="-0.41338">
        <ele>59.74</ele>
        <time>2014-02-02T09:26:56Z</time>
      </trkpt>
      <trkpt lat="47.39572" lon="-0.41338">
        <ele>59.74</ele>
        <time>2014-02-02T09:27:16Z</time>
      </trkpt>
      <trkpt lat="47.39572" lon="-0.41338">
        <ele>60.22</ele>
        <time>2014-02-02T09:27:36Z</time>
      </trkpt>
      <trkpt lat="47.39571" lon="-0.41336">
        <ele>60.22</ele>
        <time>2014-02-02T09:27:55Z</time>
      </trkpt>
      <trkpt lat="47.39571" lon="-0.41336">
        <ele>59.74</ele>
        <time>2014-02-02T09:28:16Z</time>
      </trkpt>
      <trkpt lat="47.39572" lon="-0.41336">
        <ele>60.22</ele>
        <time>2014-02-02T09:28:38Z</time>
      </trkpt>
      <trkpt lat="47.39572" lon="-0.41336">
        <ele>60.22</ele>
        <time>2014-02-02T09:28:57Z</time>
      </trkpt>
      <trkpt lat="47.39572" lon="-0.41336">
        <ele>59.74</ele>
        <time>2014-02-02T09:29:17Z</time>
      </trkpt>
      <trkpt lat="47.39572" lon="-0.41336">
        <ele>60.7</ele>
        <time>2014-02-02T09:29:26Z</time>
      </trkpt>
      <trkpt lat="47.39572" lon="-0.41336">
        <ele>61.18</ele>
        <time>2014-02-02T09:29:33Z</time>
      </trkpt>
      <trkpt lat="47.39572" lon="-0.41338">
        <ele>60.7</ele>
        <time>2014-02-02T09:29:40Z</time>
      </trkpt>
      <trkpt lat="47.39572" lon="-0.41338">
        <ele>54.45</ele>
        <time>2014-02-02T09:29:42Z</time>
      </trkpt>
      <trkpt lat="47.39572" lon="-0.41338">
        <ele>63.1</ele>
        <time>2014-02-02T09:29:43Z</time>
      </trkpt>
      <trkpt lat="47.39572" lon="-0.41338">
        <ele>60.22</ele>
        <time>2014-02-02T09:29:53Z</time>
      </trkpt>
      <trkpt lat="47.39572" lon="-0.41338">
        <ele>60.7</ele>
        <time>2014-02-02T09:29:58Z</time>
      </trkpt>
      <trkpt lat="47.39571" lon="-0.41348">
        <ele>60.7</ele>
        <time>2014-02-02T09:30:03Z</time>
      </trkpt>
      <trkpt lat="47.39566" lon="-0.41358">
        <ele>60.7</ele>
        <time>2014-02-02T09:30:10Z</time>
      </trkpt>
      <trkpt lat="47.39566" lon="-0.4136">
        <ele>60.7</ele>
        <time>2014-02-02T09:30:18Z</time>
      </trkpt>
      <trkpt lat="47.39567" lon="-0.41371">
        <ele>61.18</ele>
        <time>2014-02-02T09:30:25Z</time>
      </trkpt>
      <trkpt lat="47.39566" lon="-0.41389">
        <ele>59.26</ele>
        <time>2014-02-02T09:30:32Z</time>
      </trkpt>
      <trkpt lat="47.39567" lon="-0.41406">
        <ele>58.3</ele>
        <time>2014-02-02T09:30:39Z</time>
      </trkpt>
      <trkpt lat="47.39567" lon="-0.41409">
        <ele>58.3</ele>
        <time>2014-02-02T09:30:45Z</time>
      </trkpt>
      <trkpt lat="47.39568" lon="-0.4142">
        <ele>58.3</ele>
        <time>2014-02-02T09:30:50Z</time>
      </trkpt>
      <trkpt lat="47.39567" lon="-0.41454">
        <ele>56.86</ele>
        <time>2014-02-02T09:30:57Z</time>
      </trkpt>
      <trkpt lat="47.39567" lon="-0.4147">
        <ele>56.86</ele>
        <time>2014-02-02T09:31:04Z</time>
      </trkpt>
      <trkpt lat="47.39566" lon="-0.415">
        <ele>55.89</ele>
        <time>2014-02-02T09:31:12Z</time>
      </trkpt>
      <trkpt lat="47.39567" lon="-0.41531">
        <ele>55.41</ele>
        <time>2014-02-02T09:31:19Z</time>
      </trkpt>
      <trkpt lat="47.39568" lon="-0.41572">
        <ele>54.93</ele>
        <time>2014-02-02T09:31:27Z</time>
      </trkpt>
      <trkpt lat="47.39569" lon="-0.41604">
        <ele>54.45</ele>
        <time>2014-02-02T09:31:34Z</time>
      </trkpt>
      <trkpt lat="47.39571" lon="-0.41636">
        <ele>54.45</ele>
        <time>2014-02-02T09:31:41Z</time>
      </trkpt>
      <trkpt lat="47.39574" lon="-0.41676">
        <ele>54.45</ele>
        <time>2014-02-02T09:31:50Z</time>
      </trkpt>
      <trkpt lat="47.39577" lon="-0.4171">
        <ele>53.97</ele>
        <time>2014-02-02T09:31:58Z</time>
      </trkpt>
      <trkpt lat="47.39579" lon="-0.41748">
        <ele>53.49</ele>
        <time>2014-02-02T09:32:06Z</time>
      </trkpt>
      <trkpt lat="47.39581" lon="-0.41801">
        <ele>52.53</ele>
        <time>2014-02-02T09:32:17Z</time>
      </trkpt>
      <trkpt lat="47.39582" lon="-0.41815">
        <ele>53.01</ele>
        <time>2014-02-02T09:32:23Z</time>
      </trkpt>
      <trkpt lat="47.39581" lon="-0.41817">
        <ele>52.53</ele>
        <time>2014-02-02T09:32:30Z</time>
      </trkpt>
      <trkpt lat="47.39572" lon="-0.41817">
        <ele>48.2</ele>
        <time>2014-02-02T09:32:36Z</time>
      </trkpt>
      <trkpt lat="47.39571" lon="-0.41817">
        <ele>58.3</ele>
        <time>2014-02-02T09:32:37Z</time>
      </trkpt>
      <trkpt lat="47.39569" lon="-0.41816">
        <ele>50.13</ele>
        <time>2014-02-02T09:32:38Z</time>
      </trkpt>
      <trkpt lat="47.39568" lon="-0.41815">
        <ele>57.82</ele>
        <time>2014-02-02T09:32:39Z</time>
      </trkpt>
      <trkpt lat="47.39566" lon="-0.41815">
        <ele>54.45</ele>
        <time>2014-02-02T09:32:40Z</time>
      </trkpt>
      <trkpt lat="47.39563" lon="-0.41815">
        <ele>56.37</ele>
        <time>2014-02-02T09:32:42Z</time>
      </trkpt>
      <trkpt lat="47.39544" lon="-0.41812">
        <ele>55.89</ele>
        <time>2014-02-02T09:32:51Z</time>
      </trkpt>
      <trkpt lat="47.39522" lon="-0.41807">
        <ele>56.86</ele>
        <time>2014-02-02T09:32:57Z</time>
      </trkpt>
      <trkpt lat="47.39504" lon="-0.41804">
        <ele>58.78</ele>
        <time>2014-02-02T09:33:04Z</time>
      </trkpt>
      <trkpt lat="47.39487" lon="-0.41799">
        <ele>60.22</ele>
        <time>2014-02-02T09:33:12Z</time>
      </trkpt>
      <trkpt lat="47.39466" lon="-0.41795">
        <ele>62.62</ele>
        <time>2014-02-02T09:33:22Z</time>
      </trkpt>
      <trkpt lat="47.39447" lon="-0.41792">
        <ele>64.07</ele>
        <time>2014-02-02T09:33:32Z</time>
      </trkpt>
      <trkpt lat="47.39429" lon="-0.41789">
        <ele>65.51</ele>
        <time>2014-02-02T09:33:41Z</time>
      </trkpt>
      <trkpt lat="47.39411" lon="-0.41786">
        <ele>66.47</ele>
        <time>2014-02-02T09:33:51Z</time>
      </trkpt>
      <trkpt lat="47.39391" lon="-0.41781">
        <ele>66.95</ele>
        <time>2014-02-02T09:34:01Z</time>
      </trkpt>
      <trkpt lat="47.39374" lon="-0.41778">
        <ele>67.43</ele>
        <time>2014-02-02T09:34:08Z</time>
      </trkpt>
      <trkpt lat="47.39353" lon="-0.41774">
        <ele>68.39</ele>
        <time>2014-02-02T09:34:15Z</time>
      </trkpt>
      <trkpt lat="47.39334" lon="-0.41769">
        <ele>67.91</ele>
        <time>2014-02-02T09:34:21Z</time>
      </trkpt>
      <trkpt lat="47.39308" lon="-0.41764">
        <ele>67.91</ele>
        <time>2014-02-02T09:34:28Z</time>
      </trkpt>
      <trkpt lat="47.39285" lon="-0.41758">
        <ele>67.43</ele>
        <time>2014-02-02T09:34:34Z</time>
      </trkpt>
      <trkpt lat="47.39262" lon="-0.41755">
        <ele>67.43</ele>
        <time>2014-02-02T09:34:40Z</time>
      </trkpt>
      <trkpt lat="47.39259" lon="-0.41754">
        <ele>67.91</ele>
        <time>2014-02-02T09:34:41Z</time>
      </trkpt>
      <trkpt lat="47.39227" lon="-0.41747">
        <ele>68.39</ele>
        <time>2014-02-02T09:34:49Z</time>
      </trkpt>
      <trkpt lat="47.39198" lon="-0.41735">
        <ele>69.35</ele>
        <time>2014-02-02T09:34:56Z</time>
      </trkpt>
      <trkpt lat="47.39165" lon="-0.41728">
        <ele>70.79</ele>
        <time>2014-02-02T09:35:05Z</time>
      </trkpt>
      <trkpt lat="47.39155" lon="-0.41744">
        <ele>70.79</ele>
        <time>2014-02-02T09:35:10Z</time>
      </trkpt>
      <trkpt lat="47.39151" lon="-0.41782">
        <ele>70.79</ele>
        <time>2014-02-02T09:35:18Z</time>
      </trkpt>
      <trkpt lat="47.39146" lon="-0.41816">
        <ele>71.27</ele>
        <time>2014-02-02T09:35:25Z</time>
      </trkpt>
      <trkpt lat="47.39141" lon="-0.41851">
        <ele>71.76</ele>
        <time>2014-02-02T09:35:32Z</time>
      </trkpt>
      <trkpt lat="47.39134" lon="-0.419">
        <ele>71.76</ele>
        <time>2014-02-02T09:35:41Z</time>
      </trkpt>
      <trkpt lat="47.39131" lon="-0.41951">
        <ele>70.79</ele>
        <time>2014-02-02T09:35:48Z</time>
      </trkpt>
      <trkpt lat="47.39129" lon="-0.42016">
        <ele>67.91</ele>
        <time>2014-02-02T09:35:55Z</time>
      </trkpt>
      <trkpt lat="47.39127" lon="-0.42089">
        <ele>66.95</ele>
        <time>2014-02-02T09:36:03Z</time>
      </trkpt>
      <trkpt lat="47.39127" lon="-0.42104">
        <ele>66.95</ele>
        <time>2014-02-02T09:36:05Z</time>
      </trkpt>
      <trkpt lat="47.3913" lon="-0.42139">
        <ele>67.43</ele>
        <time>2014-02-02T09:36:10Z</time>
      </trkpt>
      <trkpt lat="47.39131" lon="-0.42153">
        <ele>67.43</ele>
        <time>2014-02-02T09:36:12Z</time>
      </trkpt>
      <trkpt lat="47.39137" lon="-0.42202">
        <ele>69.35</ele>
        <time>2014-02-02T09:36:20Z</time>
      </trkpt>
      <trkpt lat="47.3914" lon="-0.42238">
        <ele>70.79</ele>
        <time>2014-02-02T09:36:27Z</time>
      </trkpt>
      <trkpt lat="47.39144" lon="-0.42281">
        <ele>71.76</ele>
        <time>2014-02-02T09:36:36Z</time>
      </trkpt>
      <trkpt lat="47.39145" lon="-0.42291">
        <ele>71.76</ele>
        <time>2014-02-02T09:36:38Z</time>
      </trkpt>
      <trkpt lat="47.39152" lon="-0.42298">
        <ele>70.31</ele>
        <time>2014-02-02T09:36:40Z</time>
      </trkpt>
      <trkpt lat="47.39168" lon="-0.42295">
        <ele>69.83</ele>
        <time>2014-02-02T09:36:43Z</time>
      </trkpt>
      <trkpt lat="47.39218" lon="-0.42274">
        <ele>67.43</ele>
        <time>2014-02-02T09:36:51Z</time>
      </trkpt>
      <trkpt lat="47.39263" lon="-0.42257">
        <ele>64.55</ele>
        <time>2014-02-02T09:36:57Z</time>
      </trkpt>
      <trkpt lat="47.3933" lon="-0.42234">
        <ele>61.66</ele>
        <time>2014-02-02T09:37:05Z</time>
      </trkpt>
      <trkpt lat="47.39339" lon="-0.42232">
        <ele>61.66</ele>
        <time>2014-02-02T09:37:06Z</time>
      </trkpt>
      <trkpt lat="47.39392" lon="-0.42228">
        <ele>59.26</ele>
        <time>2014-02-02T09:37:12Z</time>
      </trkpt>
      <trkpt lat="47.39453" lon="-0.42227">
        <ele>58.78</ele>
        <time>2014-02-02T09:37:20Z</time>
      </trkpt>
      <trkpt lat="47.39509" lon="-0.42233">
        <ele>58.78</ele>
        <time>2014-02-02T09:37:29Z</time>
      </trkpt>
      <trkpt lat="47.3953" lon="-0.42235">
        <ele>57.34</ele>
        <time>2014-02-02T09:37:33Z</time>
      </trkpt>
      <trkpt lat="47.3956" lon="-0.42217">
        <ele>55.41</ele>
        <time>2014-02-02T09:37:38Z</time>
      </trkpt>
      <trkpt lat="47.3961" lon="-0.42158">
        <ele>54.45</ele>
        <time>2014-02-02T09:37:47Z</time>
      </trkpt>
      <trkpt lat="47.3966" lon="-0.4212">
        <ele>53.01</ele>
        <time>2014-02-02T09:37:56Z</time>
      </trkpt>
      <trkpt lat="47.39708" lon="-0.42102">
        <ele>51.09</ele>
        <time>2014-02-02T09:38:03Z</time>
      </trkpt>
      <trkpt lat="47.39755" lon="-0.42094">
        <ele>48.68</ele>
        <time>2014-02-02T09:38:09Z</time>
      </trkpt>
      <trkpt lat="47.39774" lon="-0.42089">
        <ele>47.24</ele>
        <time>2014-02-02T09:38:12Z</time>
      </trkpt>
      <trkpt lat="47.39796" lon="-0.42089">
        <ele>45.8</ele>
        <time>2014-02-02T09:38:18Z</time>
      </trkpt>
      <trkpt lat="47.39799" lon="-0.42131">
        <ele>48.68</ele>
        <time>2014-02-02T09:38:27Z</time>
      </trkpt>
      <trkpt lat="47.39801" lon="-0.42167">
        <ele>49.65</ele>
        <time>2014-02-02T09:38:35Z</time>
      </trkpt>
      <trkpt lat="47.39802" lon="-0.42204">
        <ele>50.13</ele>
        <time>2014-02-02T09:38:43Z</time>
      </trkpt>
      <trkpt lat="47.39803" lon="-0.4224">
        <ele>51.57</ele>
        <time>2014-02-02T09:38:52Z</time>
      </trkpt>
      <trkpt lat="47.39804" lon="-0.42271">
        <ele>52.53</ele>
        <time>2014-02-02T09:39:01Z</time>
      </trkpt>
      <trkpt lat="47.39799" lon="-0.42289">
        <ele>53.01</ele>
        <time>2014-02-02T09:39:07Z</time>
      </trkpt>
      <trkpt lat="47.39793" lon="-0.42292">
        <ele>53.49</ele>
        <time>2014-02-02T09:39:10Z</time>
      </trkpt>
      <trkpt lat="47.39783" lon="-0.42292">
        <ele>54.93</ele>
        <time>2014-02-02T09:39:15Z</time>
      </trkpt>
      <trkpt lat="47.3977" lon="-0.4229">
        <ele>55.89</ele>
        <time>2014-02-02T09:39:22Z</time>
      </trkpt>
      <trkpt lat="47.39752" lon="-0.42291">
        <ele>58.3</ele>
        <time>2014-02-02T09:39:31Z</time>
      </trkpt>
      <trkpt lat="47.39737" lon="-0.42291">
        <ele>59.74</ele>
        <time>2014-02-02T09:39:39Z</time>
      </trkpt>
      <trkpt lat="47.39717" lon="-0.42298">
        <ele>61.66</ele>
        <time>2014-02-02T09:39:50Z</time>
      </trkpt>
      <trkpt lat="47.39716" lon="-0.423">
        <ele>62.14</ele>
        <time>2014-02-02T09:39:51Z</time>
      </trkpt>
      <trkpt lat="47.39712" lon="-0.42307">
        <ele>62.62</ele>
        <time>2014-02-02T09:39:56Z</time>
      </trkpt>
      <trkpt lat="47.3971" lon="-0.42316">
        <ele>63.1</ele>
        <time>2014-02-02T09:40:04Z</time>
      </trkpt>
      <trkpt lat="47.3971" lon="-0.42319">
        <ele>63.1</ele>
        <time>2014-02-02T09:40:10Z</time>
      </trkpt>
      <trkpt lat="47.3971" lon="-0.42319">
        <ele>63.1</ele>
        <time>2014-02-02T09:40:14Z</time>
      </trkpt>
      <trkpt lat="47.39706" lon="-0.42329">
        <ele>63.58</ele>
        <time>2014-02-02T09:40:21Z</time>
      </trkpt>
      <trkpt lat="47.39703" lon="-0.42335">
        <ele>64.55</ele>
        <time>2014-02-02T09:40:24Z</time>
      </trkpt>
      <trkpt lat="47.39695" lon="-0.42355">
        <ele>65.03</ele>
        <time>2014-02-02T09:40:34Z</time>
      </trkpt>
      <trkpt lat="47.39688" lon="-0.42371">
        <ele>65.51</ele>
        <time>2014-02-02T09:40:42Z</time>
      </trkpt>
      <trkpt lat="47.39684" lon="-0.4239">
        <ele>66.47</ele>
        <time>2014-02-02T09:40:51Z</time>
      </trkpt>
      <trkpt lat="47.39681" lon="-0.42407">
        <ele>66.95</ele>
        <time>2014-02-02T09:40:59Z</time>
      </trkpt>
      <trkpt lat="47.3968" lon="-0.42417">
        <ele>67.91</ele>
        <time>2014-02-02T09:41:04Z</time>
      </trkpt>
      <trkpt lat="47.39678" lon="-0.42434">
        <ele>68.39</ele>
        <time>2014-02-02T09:41:11Z</time>
      </trkpt>
      <trkpt lat="47.39678" lon="-0.42437">
        <ele>68.39</ele>
        <time>2014-02-02T09:41:12Z</time>
      </trkpt>
      <trkpt lat="47.39675" lon="-0.42452">
        <ele>69.35</ele>
        <time>2014-02-02T09:41:20Z</time>
      </trkpt>
      <trkpt lat="47.3967" lon="-0.4247">
        <ele>70.79</ele>
        <time>2014-02-02T09:41:28Z</time>
      </trkpt>
      <trkpt lat="47.39669" lon="-0.42484">
        <ele>70.31</ele>
        <time>2014-02-02T09:41:33Z</time>
      </trkpt>
      <trkpt lat="47.39668" lon="-0.42502">
        <ele>71.76</ele>
        <time>2014-02-02T09:41:40Z</time>
      </trkpt>
      <trkpt lat="47.39668" lon="-0.42506">
        <ele>71.27</ele>
        <time>2014-02-02T09:41:42Z</time>
      </trkpt>
      <trkpt lat="47.39667" lon="-0.42512">
        <ele>72.24</ele>
        <time>2014-02-02T09:41:44Z</time>
      </trkpt>
      <trkpt lat="47.39666" lon="-0.42536">
        <ele>73.2</ele>
        <time>2014-02-02T09:41:54Z</time>
      </trkpt>
      <trkpt lat="47.39664" lon="-0.42553">
        <ele>73.2</ele>
        <time>2014-02-02T09:42:00Z</time>
      </trkpt>
      <trkpt lat="47.39661" lon="-0.42576">
        <ele>73.68</ele>
        <time>2014-02-02T09:42:08Z</time>
      </trkpt>
      <trkpt lat="47.39658" lon="-0.42581">
        <ele>74.16</ele>
        <time>2014-02-02T09:42:11Z</time>
      </trkpt>
      <trkpt lat="47.3965" lon="-0.42588">
        <ele>73.2</ele>
        <time>2014-02-02T09:42:17Z</time>
      </trkpt>
      <trkpt lat="47.39648" lon="-0.42588">
        <ele>73.68</ele>
        <time>2014-02-02T09:42:18Z</time>
      </trkpt>
      <trkpt lat="47.39636" lon="-0.42589">
        <ele>73.68</ele>
        <time>2014-02-02T09:42:24Z</time>
      </trkpt>
      <trkpt lat="47.39627" lon="-0.42589">
        <ele>73.68</ele>
        <time>2014-02-02T09:42:28Z</time>
      </trkpt>
      <trkpt lat="47.39607" lon="-0.42595">
        <ele>73.68</ele>
        <time>2014-02-02T09:42:36Z</time>
      </trkpt>
      <trkpt lat="47.3959" lon="-0.42598">
        <ele>72.72</ele>
        <time>2014-02-02T09:42:43Z</time>
      </trkpt>
      <trkpt lat="47.3957" lon="-0.42599">
        <ele>72.24</ele>
        <time>2014-02-02T09:42:50Z</time>
      </trkpt>
      <trkpt lat="47.39551" lon="-0.426">
        <ele>72.24</ele>
        <time>2014-02-02T09:42:57Z</time>
      </trkpt>
      <trkpt lat="47.39532" lon="-0.4261">
        <ele>71.76</ele>
        <time>2014-02-02T09:43:04Z</time>
      </trkpt>
      <trkpt lat="47.39516" lon="-0.42614">
        <ele>70.79</ele>
        <time>2014-02-02T09:43:10Z</time>
      </trkpt>
      <trkpt lat="47.395" lon="-0.4262">
        <ele>71.27</ele>
        <time>2014-02-02T09:43:17Z</time>
      </trkpt>
      <trkpt lat="47.39497" lon="-0.42622">
        <ele>71.27</ele>
        <time>2014-02-02T09:43:19Z</time>
      </trkpt>
      <trkpt lat="47.39484" lon="-0.42629">
        <ele>72.24</ele>
        <time>2014-02-02T09:43:26Z</time>
      </trkpt>
      <trkpt lat="47.39477" lon="-0.42636">
        <ele>72.24</ele>
        <time>2014-02-02T09:43:29Z</time>
      </trkpt>
      <trkpt lat="47.39462" lon="-0.42649">
        <ele>72.24</ele>
        <time>2014-02-02T09:43:36Z</time>
      </trkpt>
      <trkpt lat="47.39457" lon="-0.42651">
        <ele>72.72</ele>
        <time>2014-02-02T09:43:38Z</time>
      </trkpt>
      <trkpt lat="47.39444" lon="-0.42652">
        <ele>73.2</ele>
        <time>2014-02-02T09:43:45Z</time>
      </trkpt>
      <trkpt lat="47.39442" lon="-0.42652">
        <ele>72.72</ele>
        <time>2014-02-02T09:43:46Z</time>
      </trkpt>
      <trkpt lat="47.39438" lon="-0.42664">
        <ele>73.2</ele>
        <time>2014-02-02T09:43:51Z</time>
      </trkpt>
      <trkpt lat="47.39439" lon="-0.42693">
        <ele>73.2</ele>
        <time>2014-02-02T09:43:59Z</time>
      </trkpt>
      <trkpt lat="47.3944" lon="-0.42729">
        <ele>73.68</ele>
        <time>2014-02-02T09:44:07Z</time>
      </trkpt>
      <trkpt lat="47.39443" lon="-0.42779">
        <ele>74.16</ele>
        <time>2014-02-02T09:44:17Z</time>
      </trkpt>
      <trkpt lat="47.39446" lon="-0.42824">
        <ele>74.64</ele>
        <time>2014-02-02T09:44:26Z</time>
      </trkpt>
      <trkpt lat="47.39447" lon="-0.42854">
        <ele>75.6</ele>
        <time>2014-02-02T09:44:33Z</time>
      </trkpt>
      <trkpt lat="47.39448" lon="-0.42865">
        <ele>75.6</ele>
        <time>2014-02-02T09:44:37Z</time>
      </trkpt>
      <trkpt lat="47.39447" lon="-0.42862">
        <ele>75.12</ele>
        <time>2014-02-02T09:44:42Z</time>
      </trkpt>
      <trkpt lat="47.39448" lon="-0.42862">
        <ele>75.6</ele>
        <time>2014-02-02T09:44:46Z</time>
      </trkpt>
      <trkpt lat="47.39446" lon="-0.42836">
        <ele>75.12</ele>
        <time>2014-02-02T09:44:54Z</time>
      </trkpt>
      <trkpt lat="47.39449" lon="-0.42821">
        <ele>74.64</ele>
        <time>2014-02-02T09:44:58Z</time>
      </trkpt>
      <trkpt lat="47.39464" lon="-0.42822">
        <ele>74.64</ele>
        <time>2014-02-02T09:45:03Z</time>
      </trkpt>
      <trkpt lat="47.39488" lon="-0.42839">
        <ele>74.16</ele>
        <time>2014-02-02T09:45:10Z</time>
      </trkpt>
      <trkpt lat="47.3952" lon="-0.42875">
        <ele>74.16</ele>
        <time>2014-02-02T09:45:20Z</time>
      </trkpt>
      <trkpt lat="47.39546" lon="-0.42905">
        <ele>74.16</ele>
        <time>2014-02-02T09:45:29Z</time>
      </trkpt>
      <trkpt lat="47.39549" lon="-0.42908">
        <ele>73.68</ele>
        <time>2014-02-02T09:45:30Z</time>
      </trkpt>
      <trkpt lat="47.39552" lon="-0.42911">
        <ele>73.68</ele>
        <time>2014-02-02T09:45:32Z</time>
      </trkpt>
      <trkpt lat="47.3955" lon="-0.42925">
        <ele>74.16</ele>
        <time>2014-02-02T09:45:37Z</time>
      </trkpt>
      <trkpt lat="47.39549" lon="-0.4293">
        <ele>74.64</ele>
        <time>2014-02-02T09:45:38Z</time>
      </trkpt>
      <trkpt lat="47.39542" lon="-0.42966">
        <ele>75.12</ele>
        <time>2014-02-02T09:45:47Z</time>
      </trkpt>
      <trkpt lat="47.39526" lon="-0.42981">
        <ele>76.08</ele>
        <time>2014-02-02T09:45:54Z</time>
      </trkpt>
      <trkpt lat="47.39515" lon="-0.42989">
        <ele>76.56</ele>
        <time>2014-02-02T09:46:00Z</time>
      </trkpt>
      <trkpt lat="47.39506" lon="-0.42991">
        <ele>77.52</ele>
        <time>2014-02-02T09:46:04Z</time>
      </trkpt>
      <trkpt lat="47.39483" lon="-0.42991">
        <ele>78.48</ele>
        <time>2014-02-02T09:46:13Z</time>
      </trkpt>
      <trkpt lat="47.3946" lon="-0.42981">
        <ele>78.48</ele>
        <time>2014-02-02T09:46:21Z</time>
      </trkpt>
      <trkpt lat="47.39445" lon="-0.42979">
        <ele>77.52</ele>
        <time>2014-02-02T09:46:28Z</time>
      </trkpt>
      <trkpt lat="47.39443" lon="-0.4298">
        <ele>78</ele>
        <time>2014-02-02T09:46:29Z</time>
      </trkpt>
      <trkpt lat="47.39441" lon="-0.43006">
        <ele>79.45</ele>
        <time>2014-02-02T09:46:36Z</time>
      </trkpt>
      <trkpt lat="47.3944" lon="-0.4305">
        <ele>80.89</ele>
        <time>2014-02-02T09:46:46Z</time>
      </trkpt>
      <trkpt lat="47.39441" lon="-0.43089">
        <ele>81.85</ele>
        <time>2014-02-02T09:46:55Z</time>
      </trkpt>
      <trkpt lat="47.39443" lon="-0.43122">
        <ele>82.33</ele>
        <time>2014-02-02T09:47:02Z</time>
      </trkpt>
      <trkpt lat="47.39443" lon="-0.43148">
        <ele>82.33</ele>
        <time>2014-02-02T09:47:08Z</time>
      </trkpt>
      <trkpt lat="47.39446" lon="-0.43198">
        <ele>82.33</ele>
        <time>2014-02-02T09:47:17Z</time>
      </trkpt>
      <trkpt lat="47.39453" lon="-0.43254">
        <ele>81.37</ele>
        <time>2014-02-02T09:47:26Z</time>
      </trkpt>
      <trkpt lat="47.39455" lon="-0.43267">
        <ele>81.85</ele>
        <time>2014-02-02T09:47:28Z</time>
      </trkpt>
      <trkpt lat="47.39455" lon="-0.43313">
        <ele>81.37</ele>
        <time>2014-02-02T09:47:35Z</time>
      </trkpt>
      <trkpt lat="47.39453" lon="-0.43363">
        <ele>80.89</ele>
        <time>2014-02-02T09:47:43Z</time>
      </trkpt>
      <trkpt lat="47.39451" lon="-0.43401">
        <ele>81.37</ele>
        <time>2014-02-02T09:47:49Z</time>
      </trkpt>
      <trkpt lat="47.39449" lon="-0.43413">
        <ele>80.89</ele>
        <time>2014-02-02T09:47:51Z</time>
      </trkpt>
      <trkpt lat="47.3945" lon="-0.43469">
        <ele>80.41</ele>
        <time>2014-02-02T09:48:00Z</time>
      </trkpt>
      <trkpt lat="47.39463" lon="-0.43511">
        <ele>80.41</ele>
        <time>2014-02-02T09:48:08Z</time>
      </trkpt>
      <trkpt lat="47.39472" lon="-0.43548">
        <ele>80.89</ele>
        <time>2014-02-02T09:48:15Z</time>
      </trkpt>
      <trkpt lat="47.39486" lon="-0.43595">
        <ele>80.41</ele>
        <time>2014-02-02T09:48:24Z</time>
      </trkpt>
      <trkpt lat="47.39497" lon="-0.43646">
        <ele>79.93</ele>
        <time>2014-02-02T09:48:33Z</time>
      </trkpt>
      <trkpt lat="47.39505" lon="-0.43675">
        <ele>79.45</ele>
        <time>2014-02-02T09:48:39Z</time>
      </trkpt>
      <trkpt lat="47.39512" lon="-0.43698">
        <ele>78.48</ele>
        <time>2014-02-02T09:48:45Z</time>
      </trkpt>
      <trkpt lat="47.39522" lon="-0.43704">
        <ele>77.52</ele>
        <time>2014-02-02T09:48:50Z</time>
      </trkpt>
      <trkpt lat="47.39533" lon="-0.43711">
        <ele>77.04</ele>
        <time>2014-02-02T09:48:55Z</time>
      </trkpt>
      <trkpt lat="47.39536" lon="-0.4372">
        <ele>76.56</ele>
        <time>2014-02-02T09:49:01Z</time>
      </trkpt>
      <trkpt lat="47.39536" lon="-0.4372">
        <ele>76.56</ele>
        <time>2014-02-02T09:49:03Z</time>
      </trkpt>
      <trkpt lat="47.39541" lon="-0.4374">
        <ele>77.04</ele>
        <time>2014-02-02T09:49:10Z</time>
      </trkpt>
      <trkpt lat="47.39544" lon="-0.43764">
        <ele>76.56</ele>
        <time>2014-02-02T09:49:17Z</time>
      </trkpt>
      <trkpt lat="47.39552" lon="-0.4378">
        <ele>73.68</ele>
        <time>2014-02-02T09:49:23Z</time>
      </trkpt>
      <trkpt lat="47.39565" lon="-0.43795">
        <ele>73.2</ele>
        <time>2014-02-02T09:49:29Z</time>
      </trkpt>
      <trkpt lat="47.39568" lon="-0.43819">
        <ele>72.72</ele>
        <time>2014-02-02T09:49:34Z</time>
      </trkpt>
      <trkpt lat="47.39566" lon="-0.43845">
        <ele>71.76</ele>
        <time>2014-02-02T09:49:38Z</time>
      </trkpt>
      <trkpt lat="47.39569" lon="-0.43884">
        <ele>69.83</ele>
        <time>2014-02-02T09:49:44Z</time>
      </trkpt>
      <trkpt lat="47.39573" lon="-0.439">
        <ele>68.39</ele>
        <time>2014-02-02T09:49:46Z</time>
      </trkpt>
      <trkpt lat="47.3958" lon="-0.43937">
        <ele>66.47</ele>
        <time>2014-02-02T09:49:50Z</time>
      </trkpt>
      <trkpt lat="47.39584" lon="-0.4396">
        <ele>65.03</ele>
        <time>2014-02-02T09:49:52Z</time>
      </trkpt>
      <trkpt lat="47.39589" lon="-0.4399">
        <ele>63.58</ele>
        <time>2014-02-02T09:49:55Z</time>
      </trkpt>
      <trkpt lat="47.39593" lon="-0.44015">
        <ele>61.18</ele>
        <time>2014-02-02T09:49:59Z</time>
      </trkpt>
      <trkpt lat="47.39604" lon="-0.44028">
        <ele>59.74</ele>
        <time>2014-02-02T09:50:04Z</time>
      </trkpt>
      <trkpt lat="47.39614" lon="-0.44034">
        <ele>59.74</ele>
        <time>2014-02-02T09:50:08Z</time>
      </trkpt>
      <trkpt lat="47.39631" lon="-0.4404">
        <ele>57.82</ele>
        <time>2014-02-02T09:50:15Z</time>
      </trkpt>
      <trkpt lat="47.39646" lon="-0.44034">
        <ele>57.34</ele>
        <time>2014-02-02T09:50:21Z</time>
      </trkpt>
      <trkpt lat="47.39648" lon="-0.44034">
        <ele>56.86</ele>
        <time>2014-02-02T09:50:22Z</time>
      </trkpt>
      <trkpt lat="47.39665" lon="-0.44039">
        <ele>55.41</ele>
        <time>2014-02-02T09:50:29Z</time>
      </trkpt>
      <trkpt lat="47.39679" lon="-0.44045">
        <ele>54.45</ele>
        <time>2014-02-02T09:50:34Z</time>
      </trkpt>
      <trkpt lat="47.39692" lon="-0.44066">
        <ele>53.97</ele>
        <time>2014-02-02T09:50:40Z</time>
      </trkpt>
      <trkpt lat="47.39694" lon="-0.44069">
        <ele>53.97</ele>
        <time>2014-02-02T09:50:41Z</time>
      </trkpt>
      <trkpt lat="47.39698" lon="-0.44089">
        <ele>52.53</ele>
        <time>2014-02-02T09:50:45Z</time>
      </trkpt>
      <trkpt lat="47.39699" lon="-0.4411">
        <ele>50.61</ele>
        <time>2014-02-02T09:50:48Z</time>
      </trkpt>
      <trkpt lat="47.39703" lon="-0.44147">
        <ele>47.24</ele>
        <time>2014-02-02T09:50:52Z</time>
      </trkpt>
      <trkpt lat="47.39706" lon="-0.44163">
        <ele>45.8</ele>
        <time>2014-02-02T09:50:54Z</time>
      </trkpt>
      <trkpt lat="47.39712" lon="-0.44194">
        <ele>43.88</ele>
        <time>2014-02-02T09:50:58Z</time>
      </trkpt>
      <trkpt lat="47.39718" lon="-0.44215">
        <ele>42.44</ele>
        <time>2014-02-02T09:51:01Z</time>
      </trkpt>
      <trkpt lat="47.39727" lon="-0.44249">
        <ele>40.99</ele>
        <time>2014-02-02T09:51:05Z</time>
      </trkpt>
      <trkpt lat="47.39743" lon="-0.44318">
        <ele>39.07</ele>
        <time>2014-02-02T09:51:12Z</time>
      </trkpt>
      <trkpt lat="47.39762" lon="-0.4439">
        <ele>37.15</ele>
        <time>2014-02-02T09:51:20Z</time>
      </trkpt>
      <trkpt lat="47.39779" lon="-0.44433">
        <ele>36.67</ele>
        <time>2014-02-02T09:51:26Z</time>
      </trkpt>
      <trkpt lat="47.39783" lon="-0.44448">
        <ele>35.23</ele>
        <time>2014-02-02T09:51:30Z</time>
      </trkpt>
      <trkpt lat="47.39801" lon="-0.44465">
        <ele>35.71</ele>
        <time>2014-02-02T09:51:37Z</time>
      </trkpt>
      <trkpt lat="47.39826" lon="-0.44484">
        <ele>35.23</ele>
        <time>2014-02-02T09:51:44Z</time>
      </trkpt>
      <trkpt lat="47.39837" lon="-0.44489">
        <ele>35.71</ele>
        <time>2014-02-02T09:51:47Z</time>
      </trkpt>
      <trkpt lat="47.39869" lon="-0.44505">
        <ele>35.23</ele>
        <time>2014-02-02T09:51:55Z</time>
      </trkpt>
      <trkpt lat="47.39886" lon="-0.44533">
        <ele>34.74</ele>
        <time>2014-02-02T09:52:01Z</time>
      </trkpt>
      <trkpt lat="47.39892" lon="-0.44574">
        <ele>33.78</ele>
        <time>2014-02-02T09:52:08Z</time>
      </trkpt>
      <trkpt lat="47.39902" lon="-0.44627">
        <ele>33.78</ele>
        <time>2014-02-02T09:52:17Z</time>
      </trkpt>
      <trkpt lat="47.39905" lon="-0.44639">
        <ele>33.78</ele>
        <time>2014-02-02T09:52:19Z</time>
      </trkpt>
      <trkpt lat="47.39908" lon="-0.44699">
        <ele>32.82</ele>
        <time>2014-02-02T09:52:28Z</time>
      </trkpt>
      <trkpt lat="47.39911" lon="-0.44754">
        <ele>31.38</ele>
        <time>2014-02-02T09:52:36Z</time>
      </trkpt>
      <trkpt lat="47.39915" lon="-0.44802">
        <ele>29.94</ele>
        <time>2014-02-02T09:52:44Z</time>
      </trkpt>
      <trkpt lat="47.39918" lon="-0.44828">
        <ele>29.94</ele>
        <time>2014-02-02T09:52:50Z</time>
      </trkpt>
      <trkpt lat="47.39921" lon="-0.44848">
        <ele>29.94</ele>
        <time>2014-02-02T09:52:53Z</time>
      </trkpt>
      <trkpt lat="47.39931" lon="-0.44911">
        <ele>28.02</ele>
        <time>2014-02-02T09:53:01Z</time>
      </trkpt>
      <trkpt lat="47.39933" lon="-0.44926">
        <ele>28.02</ele>
        <time>2014-02-02T09:53:03Z</time>
      </trkpt>
      <trkpt lat="47.39945" lon="-0.44969">
        <ele>26.09</ele>
        <time>2014-02-02T09:53:09Z</time>
      </trkpt>
      <trkpt lat="47.39958" lon="-0.44972">
        <ele>25.61</ele>
        <time>2014-02-02T09:53:13Z</time>
      </trkpt>
      <trkpt lat="47.39982" lon="-0.44957">
        <ele>27.53</ele>
        <time>2014-02-02T09:53:20Z</time>
      </trkpt>
      <trkpt lat="47.4001" lon="-0.44947">
        <ele>28.5</ele>
        <time>2014-02-02T09:53:27Z</time>
      </trkpt>
      <trkpt lat="47.40056" lon="-0.44936">
        <ele>26.57</ele>
        <time>2014-02-02T09:53:36Z</time>
      </trkpt>
      <trkpt lat="47.40066" lon="-0.44934">
        <ele>26.57</ele>
        <time>2014-02-02T09:53:38Z</time>
      </trkpt>
      <trkpt lat="47.40074" lon="-0.44948">
        <ele>26.57</ele>
        <time>2014-02-02T09:53:42Z</time>
      </trkpt>
      <trkpt lat="47.40071" lon="-0.44985">
        <ele>27.53</ele>
        <time>2014-02-02T09:53:48Z</time>
      </trkpt>
      <trkpt lat="47.40067" lon="-0.45039">
        <ele>26.09</ele>
        <time>2014-02-02T09:53:56Z</time>
      </trkpt>
      <trkpt lat="47.40075" lon="-0.45097">
        <ele>25.61</ele>
        <time>2014-02-02T09:54:04Z</time>
      </trkpt>
      <trkpt lat="47.40086" lon="-0.45162">
        <ele>25.61</ele>
        <time>2014-02-02T09:54:13Z</time>
      </trkpt>
      <trkpt lat="47.40099" lon="-0.45235">
        <ele>24.65</ele>
        <time>2014-02-02T09:54:23Z</time>
      </trkpt>
      <trkpt lat="47.40117" lon="-0.45304">
        <ele>22.73</ele>
        <time>2014-02-02T09:54:31Z</time>
      </trkpt>
      <trkpt lat="47.4012" lon="-0.45346">
        <ele>22.25</ele>
        <time>2014-02-02T09:54:35Z</time>
      </trkpt>
      <trkpt lat="47.40118" lon="-0.45372">
        <ele>21.77</ele>
        <time>2014-02-02T09:54:38Z</time>
      </trkpt>
      <trkpt lat="47.40124" lon="-0.45403">
        <ele>22.73</ele>
        <time>2014-02-02T09:54:42Z</time>
      </trkpt>
      <trkpt lat="47.40134" lon="-0.45426">
        <ele>23.21</ele>
        <time>2014-02-02T09:54:46Z</time>
      </trkpt>
      <trkpt lat="47.40167" lon="-0.45459">
        <ele>23.69</ele>
        <time>2014-02-02T09:54:54Z</time>
      </trkpt>
      <trkpt lat="47.40199" lon="-0.45485">
        <ele>23.21</ele>
        <time>2014-02-02T09:55:01Z</time>
      </trkpt>
      <trkpt lat="47.40212" lon="-0.45489">
        <ele>24.17</ele>
        <time>2014-02-02T09:55:04Z</time>
      </trkpt>
      <trkpt lat="47.40227" lon="-0.45501">
        <ele>24.17</ele>
        <time>2014-02-02T09:55:08Z</time>
      </trkpt>
      <trkpt lat="47.40232" lon="-0.4552">
        <ele>24.65</ele>
        <time>2014-02-02T09:55:11Z</time>
      </trkpt>
      <trkpt lat="47.40258" lon="-0.45597">
        <ele>23.69</ele>
        <time>2014-02-02T09:55:22Z</time>
      </trkpt>
      <trkpt lat="47.40272" lon="-0.45641">
        <ele>23.69</ele>
        <time>2014-02-02T09:55:28Z</time>
      </trkpt>
      <trkpt lat="47.4029" lon="-0.45664">
        <ele>23.69</ele>
        <time>2014-02-02T09:55:33Z</time>
      </trkpt>
      <trkpt lat="47.40329" lon="-0.45702">
        <ele>23.21</ele>
        <time>2014-02-02T09:55:42Z</time>
      </trkpt>
      <trkpt lat="47.40366" lon="-0.45742">
        <ele>23.21</ele>
        <time>2014-02-02T09:55:50Z</time>
      </trkpt>
      <trkpt lat="47.40409" lon="-0.45805">
        <ele>21.77</ele>
        <time>2014-02-02T09:56:00Z</time>
      </trkpt>
      <trkpt lat="47.40422" lon="-0.45823">
        <ele>22.25</ele>
        <time>2014-02-02T09:56:03Z</time>
      </trkpt>
      <trkpt lat="47.40454" lon="-0.45876">
        <ele>21.29</ele>
        <time>2014-02-02T09:56:12Z</time>
      </trkpt>
      <trkpt lat="47.40485" lon="-0.4593">
        <ele>19.36</ele>
        <time>2014-02-02T09:56:20Z</time>
      </trkpt>
      <trkpt lat="47.40498" lon="-0.45955">
        <ele>17.92</ele>
        <time>2014-02-02T09:56:23Z</time>
      </trkpt>
      <trkpt lat="47.40509" lon="-0.45971">
        <ele>17.44</ele>
        <time>2014-02-02T09:56:25Z</time>
      </trkpt>
      <trkpt lat="47.40549" lon="-0.4601">
        <ele>16.48</ele>
        <time>2014-02-02T09:56:32Z</time>
      </trkpt>
      <trkpt lat="47.40565" lon="-0.46023">
        <ele>16</ele>
        <time>2014-02-02T09:56:35Z</time>
      </trkpt>
      <trkpt lat="47.40609" lon="-0.46064">
        <ele>16</ele>
        <time>2014-02-02T09:56:44Z</time>
      </trkpt>
      <trkpt lat="47.40652" lon="-0.46105">
        <ele>15.52</ele>
        <time>2014-02-02T09:56:53Z</time>
      </trkpt>
      <trkpt lat="47.40697" lon="-0.46149">
        <ele>15.52</ele>
        <time>2014-02-02T09:57:02Z</time>
      </trkpt>
      <trkpt lat="47.40734" lon="-0.46183">
        <ele>16</ele>
        <time>2014-02-02T09:57:09Z</time>
      </trkpt>
      <trkpt lat="47.40776" lon="-0.46229">
        <ele>16</ele>
        <time>2014-02-02T09:57:18Z</time>
      </trkpt>
      <trkpt lat="47.40814" lon="-0.4627">
        <ele>16</ele>
        <time>2014-02-02T09:57:26Z</time>
      </trkpt>
      <trkpt lat="47.40823" lon="-0.46279">
        <ele>15.52</ele>
        <time>2014-02-02T09:57:28Z</time>
      </trkpt>
      <trkpt lat="47.40852" lon="-0.46302">
        <ele>16</ele>
        <time>2014-02-02T09:57:34Z</time>
      </trkpt>
      <trkpt lat="47.40868" lon="-0.4631">
        <ele>16.48</ele>
        <time>2014-02-02T09:57:37Z</time>
      </trkpt>
      <trkpt lat="47.4088" lon="-0.46314">
        <ele>16</ele>
        <time>2014-02-02T09:57:40Z</time>
      </trkpt>
      <trkpt lat="47.40923" lon="-0.46323">
        <ele>16</ele>
        <time>2014-02-02T09:57:48Z</time>
      </trkpt>
      <trkpt lat="47.40979" lon="-0.46324">
        <ele>16</ele>
        <time>2014-02-02T09:57:58Z</time>
      </trkpt>
      <trkpt lat="47.41027" lon="-0.46325">
        <ele>16</ele>
        <time>2014-02-02T09:58:07Z</time>
      </trkpt>
      <trkpt lat="47.41046" lon="-0.46325">
        <ele>16.48</ele>
        <time>2014-02-02T09:58:11Z</time>
      </trkpt>
      <trkpt lat="47.41059" lon="-0.46342">
        <ele>16.48</ele>
        <time>2014-02-02T09:58:15Z</time>
      </trkpt>
      <trkpt lat="47.41061" lon="-0.46362">
        <ele>16.96</ele>
        <time>2014-02-02T09:58:18Z</time>
      </trkpt>
      <trkpt lat="47.41062" lon="-0.46441">
        <ele>17.44</ele>
        <time>2014-02-02T09:58:29Z</time>
      </trkpt>
      <trkpt lat="47.41066" lon="-0.46511">
        <ele>17.44</ele>
        <time>2014-02-02T09:58:39Z</time>
      </trkpt>
      <trkpt lat="47.41074" lon="-0.46585">
        <ele>16.96</ele>
        <time>2014-02-02T09:58:49Z</time>
      </trkpt>
      <trkpt lat="47.41083" lon="-0.46646">
        <ele>16</ele>
        <time>2014-02-02T09:58:57Z</time>
      </trkpt>
      <trkpt lat="47.41103" lon="-0.46719">
        <ele>16</ele>
        <time>2014-02-02T09:59:07Z</time>
      </trkpt>
      <trkpt lat="47.41123" lon="-0.46773">
        <ele>16</ele>
        <time>2014-02-02T09:59:15Z</time>
      </trkpt>
      <trkpt lat="47.41143" lon="-0.46832">
        <ele>16</ele>
        <time>2014-02-02T09:59:24Z</time>
      </trkpt>
      <trkpt lat="47.41145" lon="-0.46838">
        <ele>16</ele>
        <time>2014-02-02T09:59:25Z</time>
      </trkpt>
      <trkpt lat="47.41144" lon="-0.46867">
        <ele>16.48</ele>
        <time>2014-02-02T09:59:29Z</time>
      </trkpt>
      <trkpt lat="47.41131" lon="-0.46936">
        <ele>16.96</ele>
        <time>2014-02-02T09:59:39Z</time>
      </trkpt>
      <trkpt lat="47.41122" lon="-0.46994">
        <ele>15.52</ele>
        <time>2014-02-02T09:59:47Z</time>
      </trkpt>
      <trkpt lat="47.41112" lon="-0.47063">
        <ele>16.48</ele>
        <time>2014-02-02T09:59:56Z</time>
      </trkpt>
      <trkpt lat="47.41097" lon="-0.47125">
        <ele>16.96</ele>
        <time>2014-02-02T10:00:04Z</time>
      </trkpt>
      <trkpt lat="47.41085" lon="-0.47171">
        <ele>16</ele>
        <time>2014-02-02T10:00:10Z</time>
      </trkpt>
      <trkpt lat="47.41068" lon="-0.47229">
        <ele>16</ele>
        <time>2014-02-02T10:00:18Z</time>
      </trkpt>
      <trkpt lat="47.41056" lon="-0.47271">
        <ele>16.96</ele>
        <time>2014-02-02T10:00:24Z</time>
      </trkpt>
      <trkpt lat="47.41047" lon="-0.47298">
        <ele>16.48</ele>
        <time>2014-02-02T10:00:28Z</time>
      </trkpt>
      <trkpt lat="47.41028" lon="-0.47363">
        <ele>16.48</ele>
        <time>2014-02-02T10:00:37Z</time>
      </trkpt>
      <trkpt lat="47.41026" lon="-0.4737">
        <ele>16.48</ele>
        <time>2014-02-02T10:00:38Z</time>
      </trkpt>
      <trkpt lat="47.41015" lon="-0.4741">
        <ele>16.48</ele>
        <time>2014-02-02T10:00:44Z</time>
      </trkpt>
      <trkpt lat="47.41013" lon="-0.47416">
        <ele>8.79</ele>
        <time>2014-02-02T10:00:45Z</time>
      </trkpt>
      <trkpt lat="47.41011" lon="-0.47421">
        <ele>19.36</ele>
        <time>2014-02-02T10:00:46Z</time>
      </trkpt>
      <trkpt lat="47.41009" lon="-0.47427">
        <ele>15.52</ele>
        <time>2014-02-02T10:00:47Z</time>
      </trkpt>
      <trkpt lat="47.41003" lon="-0.47455">
        <ele>16.48</ele>
        <time>2014-02-02T10:00:52Z</time>
      </trkpt>
      <trkpt lat="47.41001" lon="-0.47463">
        <ele>15.04</ele>
        <time>2014-02-02T10:00:53Z</time>
      </trkpt>
      <trkpt lat="47.40997" lon="-0.47483">
        <ele>10.23</ele>
        <time>2014-02-02T10:00:56Z</time>
      </trkpt>
      <trkpt lat="47.40988" lon="-0.47512">
        <ele>7.35</ele>
        <time>2014-02-02T10:01:00Z</time>
      </trkpt>
      <trkpt lat="47.40987" lon="-0.47519">
        <ele>17.92</ele>
        <time>2014-02-02T10:01:01Z</time>
      </trkpt>
      <trkpt lat="47.40981" lon="-0.47563">
        <ele>16</ele>
        <time>2014-02-02T10:01:07Z</time>
      </trkpt>
      <trkpt lat="47.40978" lon="-0.47595">
        <ele>16</ele>
        <time>2014-02-02T10:01:11Z</time>
      </trkpt>
      <trkpt lat="47.40977" lon="-0.47609">
        <ele>20.81</ele>
        <time>2014-02-02T10:01:13Z</time>
      </trkpt>
      <trkpt lat="47.40975" lon="-0.47639">
        <ele>21.77</ele>
        <time>2014-02-02T10:01:17Z</time>
      </trkpt>
      <trkpt lat="47.40974" lon="-0.47646">
        <ele>16</ele>
        <time>2014-02-02T10:01:18Z</time>
      </trkpt>
      <trkpt lat="47.40972" lon="-0.47674">
        <ele>15.04</ele>
        <time>2014-02-02T10:01:22Z</time>
      </trkpt>
      <trkpt lat="47.40968" lon="-0.47701">
        <ele>15.04</ele>
        <time>2014-02-02T10:01:26Z</time>
      </trkpt>
      <trkpt lat="47.40964" lon="-0.47733">
        <ele>7.35</ele>
        <time>2014-02-02T10:01:31Z</time>
      </trkpt>
      <trkpt lat="47.40964" lon="-0.4774">
        <ele>16.96</ele>
        <time>2014-02-02T10:01:32Z</time>
      </trkpt>
      <trkpt lat="47.40962" lon="-0.47788">
        <ele>16.48</ele>
        <time>2014-02-02T10:01:39Z</time>
      </trkpt>
      <trkpt lat="47.40961" lon="-0.47802">
        <ele>12.15</ele>
        <time>2014-02-02T10:01:41Z</time>
      </trkpt>
      <trkpt lat="47.40961" lon="-0.47809">
        <ele>20.32</ele>
        <time>2014-02-02T10:01:42Z</time>
      </trkpt>
      <trkpt lat="47.4096" lon="-0.47824">
        <ele>16</ele>
        <time>2014-02-02T10:01:44Z</time>
      </trkpt>
      <trkpt lat="47.40955" lon="-0.47875">
        <ele>15.52</ele>
        <time>2014-02-02T10:01:51Z</time>
      </trkpt>
      <trkpt lat="47.40954" lon="-0.47883">
        <ele>15.52</ele>
        <time>2014-02-02T10:01:52Z</time>
      </trkpt>
      <trkpt lat="47.40947" lon="-0.47915">
        <ele>16</ele>
        <time>2014-02-02T10:01:57Z</time>
      </trkpt>
      <trkpt lat="47.40939" lon="-0.47944">
        <ele>16.48</ele>
        <time>2014-02-02T10:02:02Z</time>
      </trkpt>
      <trkpt lat="47.40921" lon="-0.47973">
        <ele>15.52</ele>
        <time>2014-02-02T10:02:08Z</time>
      </trkpt>
      <trkpt lat="47.40897" lon="-0.4799">
        <ele>16.48</ele>
        <time>2014-02-02T10:02:14Z</time>
      </trkpt>
      <trkpt lat="47.40882" lon="-0.47997">
        <ele>16.48</ele>
        <time>2014-02-02T10:02:18Z</time>
      </trkpt>
      <trkpt lat="47.40867" lon="-0.48003">
        <ele>16.48</ele>
        <time>2014-02-02T10:02:22Z</time>
      </trkpt>
      <trkpt lat="47.40862" lon="-0.47991">
        <ele>16.48</ele>
        <time>2014-02-02T10:02:26Z</time>
      </trkpt>
      <trkpt lat="47.40861" lon="-0.47979">
        <ele>16.48</ele>
        <time>2014-02-02T10:02:28Z</time>
      </trkpt>
      <trkpt lat="47.40855" lon="-0.47937">
        <ele>16.48</ele>
        <time>2014-02-02T10:02:35Z</time>
      </trkpt>
      <trkpt lat="47.40853" lon="-0.47919">
        <ele>16</ele>
        <time>2014-02-02T10:02:38Z</time>
      </trkpt>
      <trkpt lat="47.40846" lon="-0.47887">
        <ele>16</ele>
        <time>2014-02-02T10:02:44Z</time>
      </trkpt>
      <trkpt lat="47.40844" lon="-0.47876">
        <ele>16</ele>
        <time>2014-02-02T10:02:46Z</time>
      </trkpt>
      <trkpt lat="47.40837" lon="-0.4783">
        <ele>16.48</ele>
        <time>2014-02-02T10:02:53Z</time>
      </trkpt>
      <trkpt lat="47.40836" lon="-0.47822">
        <ele>16</ele>
        <time>2014-02-02T10:02:54Z</time>
      </trkpt>
      <trkpt lat="47.40834" lon="-0.47788">
        <ele>16.48</ele>
        <time>2014-02-02T10:02:59Z</time>
      </trkpt>
      <trkpt lat="47.40831" lon="-0.47721">
        <ele>16.48</ele>
        <time>2014-02-02T10:03:09Z</time>
      </trkpt>
      <trkpt lat="47.4083" lon="-0.47703">
        <ele>16.48</ele>
        <time>2014-02-02T10:03:12Z</time>
      </trkpt>
      <trkpt lat="47.40828" lon="-0.47674">
        <ele>16.96</ele>
        <time>2014-02-02T10:03:17Z</time>
      </trkpt>
      <trkpt lat="47.40828" lon="-0.4766">
        <ele>16.96</ele>
        <time>2014-02-02T10:03:19Z</time>
      </trkpt>
      <trkpt lat="47.40822" lon="-0.47593">
        <ele>17.44</ele>
        <time>2014-02-02T10:03:29Z</time>
      </trkpt>
      <trkpt lat="47.40819" lon="-0.47569">
        <ele>16.96</ele>
        <time>2014-02-02T10:03:33Z</time>
      </trkpt>
      <trkpt lat="47.40811" lon="-0.47516">
        <ele>17.44</ele>
        <time>2014-02-02T10:03:42Z</time>
      </trkpt>
      <trkpt lat="47.40806" lon="-0.47497">
        <ele>16.96</ele>
        <time>2014-02-02T10:03:45Z</time>
      </trkpt>
      <trkpt lat="47.40791" lon="-0.47451">
        <ele>16.48</ele>
        <time>2014-02-02T10:03:53Z</time>
      </trkpt>
      <trkpt lat="47.40781" lon="-0.47434">
        <ele>16.48</ele>
        <time>2014-02-02T10:03:57Z</time>
      </trkpt>
      <trkpt lat="47.40765" lon="-0.47401">
        <ele>16</ele>
        <time>2014-02-02T10:04:03Z</time>
      </trkpt>
      <trkpt lat="47.40751" lon="-0.47399">
        <ele>15.52</ele>
        <time>2014-02-02T10:04:07Z</time>
      </trkpt>
      <trkpt lat="47.40743" lon="-0.47411">
        <ele>16.96</ele>
        <time>2014-02-02T10:04:10Z</time>
      </trkpt>
      <trkpt lat="47.40718" lon="-0.47445">
        <ele>18.88</ele>
        <time>2014-02-02T10:04:19Z</time>
      </trkpt>
      <trkpt lat="47.40706" lon="-0.47466">
        <ele>19.36</ele>
        <time>2014-02-02T10:04:26Z</time>
      </trkpt>
      <trkpt lat="47.40702" lon="-0.47483">
        <ele>20.32</ele>
        <time>2014-02-02T10:04:31Z</time>
      </trkpt>
      <trkpt lat="47.40695" lon="-0.47488">
        <ele>20.32</ele>
        <time>2014-02-02T10:04:35Z</time>
      </trkpt>
      <trkpt lat="47.40672" lon="-0.47496">
        <ele>20.32</ele>
        <time>2014-02-02T10:04:42Z</time>
      </trkpt>
      <trkpt lat="47.40639" lon="-0.47516">
        <ele>20.32</ele>
        <time>2014-02-02T10:04:52Z</time>
      </trkpt>
      <trkpt lat="47.40607" lon="-0.47533">
        <ele>21.29</ele>
        <time>2014-02-02T10:05:01Z</time>
      </trkpt>
      <trkpt lat="47.40586" lon="-0.47548">
        <ele>22.73</ele>
        <time>2014-02-02T10:05:08Z</time>
      </trkpt>
      <trkpt lat="47.40567" lon="-0.47558">
        <ele>23.69</ele>
        <time>2014-02-02T10:05:14Z</time>
      </trkpt>
      <trkpt lat="47.40548" lon="-0.47571">
        <ele>25.13</ele>
        <time>2014-02-02T10:05:20Z</time>
      </trkpt>
      <trkpt lat="47.4053" lon="-0.47592">
        <ele>26.09</ele>
        <time>2014-02-02T10:05:27Z</time>
      </trkpt>
      <trkpt lat="47.4052" lon="-0.47606">
        <ele>27.05</ele>
        <time>2014-02-02T10:05:33Z</time>
      </trkpt>
      <trkpt lat="47.40503" lon="-0.47629">
        <ele>27.05</ele>
        <time>2014-02-02T10:05:40Z</time>
      </trkpt>
      <trkpt lat="47.40478" lon="-0.47665">
        <ele>26.09</ele>
        <time>2014-02-02T10:05:49Z</time>
      </trkpt>
      <trkpt lat="47.40455" lon="-0.47688">
        <ele>26.57</ele>
        <time>2014-02-02T10:05:56Z</time>
      </trkpt>
      <trkpt lat="47.40432" lon="-0.47707">
        <ele>27.05</ele>
        <time>2014-02-02T10:06:03Z</time>
      </trkpt>
      <trkpt lat="47.40413" lon="-0.47721">
        <ele>28.98</ele>
        <time>2014-02-02T10:06:08Z</time>
      </trkpt>
      <trkpt lat="47.40385" lon="-0.47742">
        <ele>30.9</ele>
        <time>2014-02-02T10:06:16Z</time>
      </trkpt>
      <trkpt lat="47.40357" lon="-0.47765">
        <ele>31.38</ele>
        <time>2014-02-02T10:06:25Z</time>
      </trkpt>
      <trkpt lat="47.4033" lon="-0.47786">
        <ele>31.38</ele>
        <time>2014-02-02T10:06:34Z</time>
      </trkpt>
      <trkpt lat="47.40301" lon="-0.47806">
        <ele>29.94</ele>
        <time>2014-02-02T10:06:43Z</time>
      </trkpt>
      <trkpt lat="47.40291" lon="-0.47826">
        <ele>28.98</ele>
        <time>2014-02-02T10:06:49Z</time>
      </trkpt>
      <trkpt lat="47.40288" lon="-0.47831">
        <ele>29.46</ele>
        <time>2014-02-02T10:06:54Z</time>
      </trkpt>
      <trkpt lat="47.40288" lon="-0.47831">
        <ele>29.46</ele>
        <time>2014-02-02T10:07:04Z</time>
      </trkpt>
      <trkpt lat="47.40288" lon="-0.47831">
        <ele>28.98</ele>
        <time>2014-02-02T10:07:17Z</time>
      </trkpt>
      <trkpt lat="47.40278" lon="-0.47818">
        <ele>28.5</ele>
        <time>2014-02-02T10:07:23Z</time>
      </trkpt>
      <trkpt lat="47.40269" lon="-0.47825">
        <ele>28.5</ele>
        <time>2014-02-02T10:07:26Z</time>
      </trkpt>
      <trkpt lat="47.40268" lon="-0.47843">
        <ele>29.94</ele>
        <time>2014-02-02T10:07:31Z</time>
      </trkpt>
      <trkpt lat="47.40271" lon="-0.47855">
        <ele>28.98</ele>
        <time>2014-02-02T10:07:35Z</time>
      </trkpt>
      <trkpt lat="47.40274" lon="-0.47867">
        <ele>29.46</ele>
        <time>2014-02-02T10:07:44Z</time>
      </trkpt>
      <trkpt lat="47.40274" lon="-0.47867">
        <ele>28.98</ele>
        <time>2014-02-02T10:07:58Z</time>
      </trkpt>
      <trkpt lat="47.40274" lon="-0.47867">
        <ele>29.46</ele>
        <time>2014-02-02T10:08:14Z</time>
      </trkpt>
      <trkpt lat="47.40275" lon="-0.47866">
        <ele>28.98</ele>
        <time>2014-02-02T10:08:30Z</time>
      </trkpt>
      <trkpt lat="47.40275" lon="-0.47866">
        <ele>29.46</ele>
        <time>2014-02-02T10:08:40Z</time>
      </trkpt>
      <trkpt lat="47.40275" lon="-0.47866">
        <ele>28.5</ele>
        <time>2014-02-02T10:08:53Z</time>
      </trkpt>
      <trkpt lat="47.40275" lon="-0.47866">
        <ele>29.94</ele>
        <time>2014-02-02T10:09:03Z</time>
      </trkpt>
      <trkpt lat="47.40275" lon="-0.47866">
        <ele>26.09</ele>
        <time>2014-02-02T10:09:11Z</time>
      </trkpt>
      <trkpt lat="47.40275" lon="-0.47866">
        <ele>29.94</ele>
        <time>2014-02-02T10:09:12Z</time>
      </trkpt>
      <trkpt lat="47.40275" lon="-0.47866">
        <ele>25.61</ele>
        <time>2014-02-02T10:09:20Z</time>
      </trkpt>
      <trkpt lat="47.40275" lon="-0.47866">
        <ele>28.98</ele>
        <time>2014-02-02T10:09:21Z</time>
      </trkpt>
    </trkseg>
  </trk>
</gpx>